<?xml version='1.0' encoding='UTF-8'?><gpx version="1.1" creator="JPX - https://github.com/jenetics/jpx" xmlns="http://www.topografix.com/GPX/1/1"><trk><trkseg><trkpt lat="48.936093824551044" lon="2.373700735904245"><ele>34.0</ele><time>2026-03-31T14:34:24.999Z</time></trkpt><trkpt lat="48.936228375204834" lon="2.3737533266518827"><ele>34.0</ele><time>2026-03-31T14:34:46.999Z</time></trkpt><trkpt lat="48.93622160730034" lon="2.373882613862484"><ele>34.0</ele><time>2026-03-31T14:34:48.999Z</time></trkpt><trkpt lat="48.93621690616874" lon="2.3740091109636086"><ele>34.0</ele><time>2026-03-31T14:34:50.999Z</time></trkpt><trkpt lat="48.93621273031463" lon="2.374146726041019"><ele>34.0</ele><time>2026-03-31T14:34:52.999Z</time></trkpt><trkpt lat="48.936251796029794" lon="2.37422993553109"><ele>34.0</ele><time>2026-03-31T14:34:55.999Z</time></trkpt><trkpt lat="48.9362996476217" lon="2.3743947794879507"><ele>34.0</ele><time>2026-03-31T14:34:59.999Z</time></trkpt><trkpt lat="48.936298555782585" lon="2.3745167615296703"><ele>34.0</ele><time>2026-03-31T14:35:00.999Z</time></trkpt><trkpt lat="48.93630217467529" lon="2.3746621886836934"><ele>34.0</ele><time>2026-03-31T14:35:01.999Z</time></trkpt><trkpt lat="48.9363067238228" lon="2.3748235511246065"><ele>34.0</ele><time>2026-03-31T14:35:02.999Z</time></trkpt><trkpt lat="48.93631398387187" lon="2.374980972676563"><ele>33.8</ele><time>2026-03-31T14:35:03.999Z</time></trkpt><trkpt lat="48.936320965589445" lon="2.3751308199101917"><ele>33.599999999999994</ele><time>2026-03-31T14:35:04.999Z</time></trkpt><trkpt lat="48.93633191492239" lon="2.3752772308835217"><ele>33.4</ele><time>2026-03-31T14:35:05.999Z</time></trkpt><trkpt lat="48.93634743484014" lon="2.375421241324692"><ele>33.199999999999996</ele><time>2026-03-31T14:35:06.999Z</time></trkpt><trkpt lat="48.93632525481021" lon="2.3755661506129457"><ele>33.0</ele><time>2026-03-31T14:35:07.999Z</time></trkpt><trkpt lat="48.93633999758304" lon="2.3756986521496013"><ele>32.666666666666664</ele><time>2026-03-31T14:35:08.999Z</time></trkpt><trkpt lat="48.93635453961173" lon="2.3758293944053666"><ele>32.333333333333336</ele><time>2026-03-31T14:35:09.999Z</time></trkpt><trkpt lat="48.93636860163826" lon="2.375955821260849"><ele>32.0</ele><time>2026-03-31T14:35:10.999Z</time></trkpt><trkpt lat="48.93638273292837" lon="2.3760828712410924"><ele>31.666666666666668</ele><time>2026-03-31T14:35:11.999Z</time></trkpt><trkpt lat="48.93639625862829" lon="2.376211233275855"><ele>31.333333333333336</ele><time>2026-03-31T14:35:12.999Z</time></trkpt><trkpt lat="48.93641000379191" lon="2.3763451544721423"><ele>31.0</ele><time>2026-03-31T14:35:13.999Z</time></trkpt><trkpt lat="48.93643021412387" lon="2.3764732972799774"><ele>31.000000000000004</ele><time>2026-03-31T14:35:14.999Z</time></trkpt><trkpt lat="48.93644287150743" lon="2.3765931214639906"><ele>31.0</ele><time>2026-03-31T14:35:15.999Z</time></trkpt><trkpt lat="48.93645675761067" lon="2.376702875757289"><ele>31.0</ele><time>2026-03-31T14:35:16.999Z</time></trkpt><trkpt lat="48.93647040446622" lon="2.3767996471539723"><ele>31.0</ele><time>2026-03-31T14:35:17.999Z</time></trkpt><trkpt lat="48.93647280520157" lon="2.376902246854762"><ele>31.000000000000004</ele><time>2026-03-31T14:35:19.999Z</time></trkpt><trkpt lat="48.93648707803063" lon="2.377002684526592"><ele>31.0</ele><time>2026-03-31T14:35:25.999Z</time></trkpt><trkpt lat="48.93649263242234" lon="2.3771619271161284"><ele>30.833333333333336</ele><time>2026-03-31T14:35:27.999Z</time></trkpt><trkpt lat="48.936455023874615" lon="2.377277415558298"><ele>30.666666666666668</ele><time>2026-03-31T14:35:29.999Z</time></trkpt><trkpt lat="48.93638829338035" lon="2.3773229592853475"><ele>30.5</ele><time>2026-03-31T14:35:30.999Z</time></trkpt><trkpt lat="48.936320262593966" lon="2.3773701916887604"><ele>30.333333333333336</ele><time>2026-03-31T14:35:31.999Z</time></trkpt><trkpt lat="48.93624609736822" lon="2.37743021090705"><ele>30.166666666666668</ele><time>2026-03-31T14:35:32.999Z</time></trkpt><trkpt lat="48.93616055362833" lon="2.377494690453714"><ele>30.0</ele><time>2026-03-31T14:35:33.999Z</time></trkpt><trkpt lat="48.936071902927175" lon="2.377552996422839"><ele>30.0</ele><time>2026-03-31T14:35:34.999Z</time></trkpt><trkpt lat="48.93597297929224" lon="2.3776164916793014"><ele>30.0</ele><time>2026-03-31T14:35:35.999Z</time></trkpt><trkpt lat="48.93587012715865" lon="2.3776869527349196"><ele>30.0</ele><time>2026-03-31T14:35:36.999Z</time></trkpt><trkpt lat="48.93577218416927" lon="2.3777535447869536"><ele>30.0</ele><time>2026-03-31T14:35:37.999Z</time></trkpt><trkpt lat="48.93567877565621" lon="2.3778178433359445"><ele>30.0</ele><time>2026-03-31T14:35:38.999Z</time></trkpt><trkpt lat="48.935594257099424" lon="2.3778729886400605"><ele>30.0</ele><time>2026-03-31T14:35:39.999Z</time></trkpt><trkpt lat="48.93549068389" lon="2.377941251240503"><ele>30.0</ele><time>2026-03-31T14:35:41.999Z</time></trkpt><trkpt lat="48.93536584199648" lon="2.3778774195901193"><ele>30.0</ele><time>2026-03-31T14:35:43.999Z</time></trkpt><trkpt lat="48.935295877203664" lon="2.377813581379581"><ele>30.0</ele><time>2026-03-31T14:35:44.999Z</time></trkpt><trkpt lat="48.9352192594525" lon="2.3777633528525923"><ele>30.0</ele><time>2026-03-31T14:35:45.999Z</time></trkpt><trkpt lat="48.935147187668605" lon="2.3777198150052667"><ele>30.0</ele><time>2026-03-31T14:35:46.999Z</time></trkpt><trkpt lat="48.935072912027245" lon="2.37767437748856"><ele>30.0</ele><time>2026-03-31T14:35:47.999Z</time></trkpt><trkpt lat="48.93499876721685" lon="2.3776359120624915"><ele>30.0</ele><time>2026-03-31T14:35:48.999Z</time></trkpt><trkpt lat="48.93492722282245" lon="2.37759284129235"><ele>30.0</ele><time>2026-03-31T14:35:49.999Z</time></trkpt><trkpt lat="48.93485525654463" lon="2.3775519967382337"><ele>30.0</ele><time>2026-03-31T14:35:50.999Z</time></trkpt><trkpt lat="48.9347783664176" lon="2.377505065010929"><ele>30.0</ele><time>2026-03-31T14:35:51.999Z</time></trkpt><trkpt lat="48.934703796534876" lon="2.377459261569281"><ele>30.333333333333332</ele><time>2026-03-31T14:35:52.999Z</time></trkpt><trkpt lat="48.934632299054165" lon="2.377410926395746"><ele>30.666666666666664</ele><time>2026-03-31T14:35:53.999Z</time></trkpt><trkpt lat="48.93455658160293" lon="2.3773599520227493"><ele>31.0</ele><time>2026-03-31T14:35:54.999Z</time></trkpt><trkpt lat="48.9344802326938" lon="2.3773076379753904"><ele>31.333333333333332</ele><time>2026-03-31T14:35:55.999Z</time></trkpt><trkpt lat="48.93440509832835" lon="2.377258793296278"><ele>31.666666666666664</ele><time>2026-03-31T14:35:56.999Z</time></trkpt><trkpt lat="48.93433251133851" lon="2.3772190282253938"><ele>32.0</ele><time>2026-03-31T14:35:57.999Z</time></trkpt><trkpt lat="48.934265457143916" lon="2.377179818128263"><ele>32.5</ele><time>2026-03-31T14:35:58.999Z</time></trkpt><trkpt lat="48.93419843192735" lon="2.3771442799878377"><ele>33.0</ele><time>2026-03-31T14:35:59.999Z</time></trkpt><trkpt lat="48.9341259402125" lon="2.37709699379584"><ele>33.5</ele><time>2026-03-31T14:36:00.999Z</time></trkpt><trkpt lat="48.93404948138423" lon="2.377053377642256"><ele>34.0</ele><time>2026-03-31T14:36:01.998Z</time></trkpt><trkpt lat="48.93397439143819" lon="2.3770120252804454"><ele>34.5</ele><time>2026-03-31T14:36:02.998Z</time></trkpt><trkpt lat="48.93390235468117" lon="2.3769680421855024"><ele>35.0</ele><time>2026-03-31T14:36:03.998Z</time></trkpt><trkpt lat="48.93382935690476" lon="2.376926272305044"><ele>35.0</ele><time>2026-03-31T14:36:04.998Z</time></trkpt><trkpt lat="48.93375724287278" lon="2.3768858480993127"><ele>35.0</ele><time>2026-03-31T14:36:05.998Z</time></trkpt><trkpt lat="48.9336837302316" lon="2.3768434336199094"><ele>35.0</ele><time>2026-03-31T14:36:06.998Z</time></trkpt><trkpt lat="48.933607738228474" lon="2.3768134499732736"><ele>35.0</ele><time>2026-03-31T14:36:07.998Z</time></trkpt><trkpt lat="48.933527384804236" lon="2.37681464013399"><ele>35.0</ele><time>2026-03-31T14:36:08.998Z</time></trkpt><trkpt lat="48.93344382823518" lon="2.3768040064140257"><ele>35.0</ele><time>2026-03-31T14:36:09.998Z</time></trkpt><trkpt lat="48.933365324068795" lon="2.376834510126113"><ele>34.666666666666664</ele><time>2026-03-31T14:36:10.998Z</time></trkpt><trkpt lat="48.93329413939492" lon="2.3768480042704194"><ele>34.33333333333333</ele><time>2026-03-31T14:36:11.998Z</time></trkpt><trkpt lat="48.93322658100465" lon="2.3768582898331423"><ele>34.0</ele><time>2026-03-31T14:36:12.998Z</time></trkpt><trkpt lat="48.933113646374" lon="2.3768566426806697"><ele>33.666666666666664</ele><time>2026-03-31T14:36:14.998Z</time></trkpt><trkpt lat="48.933036964720266" lon="2.3768695841013354"><ele>33.333333333333336</ele><time>2026-03-31T14:36:17Z</time></trkpt><trkpt lat="48.9329693366816" lon="2.3768790935479016"><ele>33.0</ele><time>2026-03-31T14:36:21Z</time></trkpt><trkpt lat="48.932882062201806" lon="2.376887636490479"><ele>33.0</ele><time>2026-03-31T14:36:58Z</time></trkpt><trkpt lat="48.93279474556209" lon="2.3769010180987746"><ele>33.0</ele><time>2026-03-31T14:37:00Z</time></trkpt><trkpt lat="48.93269464726701" lon="2.376871583479499"><ele>33.0</ele><time>2026-03-31T14:37:02Z</time></trkpt><trkpt lat="48.9325998659609" lon="2.376833417473291"><ele>33.0</ele><time>2026-03-31T14:37:03.999Z</time></trkpt><trkpt lat="48.9325219601882" lon="2.3767848200728072"><ele>33.0</ele><time>2026-03-31T14:37:05.999Z</time></trkpt><trkpt lat="48.93246085563639" lon="2.3767545828680614"><ele>33.0</ele><time>2026-03-31T14:37:07.999Z</time></trkpt><trkpt lat="48.93236882636358" lon="2.3767175948860904"><ele>33.199999999999996</ele><time>2026-03-31T14:38:14.998Z</time></trkpt><trkpt lat="48.93229999679423" lon="2.376684151278385"><ele>33.4</ele><time>2026-03-31T14:38:16.998Z</time></trkpt><trkpt lat="48.93223878828096" lon="2.3766506619947156"><ele>33.599999999999994</ele><time>2026-03-31T14:38:18.998Z</time></trkpt><trkpt lat="48.93218231865615" lon="2.376583076119737"><ele>33.8</ele><time>2026-03-31T14:38:21.998Z</time></trkpt><trkpt lat="48.93222593565286" lon="2.376352440498334"><ele>34.0</ele><time>2026-03-31T14:38:23Z</time></trkpt><trkpt lat="48.93226510148328" lon="2.3762234808190272"><ele>34.25</ele><time>2026-03-31T14:38:24Z</time></trkpt><trkpt lat="48.93231721840961" lon="2.376056795313622"><ele>34.5</ele><time>2026-03-31T14:38:25Z</time></trkpt><trkpt lat="48.93236763148895" lon="2.3758560894862586"><ele>34.75</ele><time>2026-03-31T14:38:26Z</time></trkpt><trkpt lat="48.93242022715171" lon="2.3756527569362844"><ele>35.0</ele><time>2026-03-31T14:38:27Z</time></trkpt><trkpt lat="48.932480284488925" lon="2.375459533176082"><ele>35.25</ele><time>2026-03-31T14:38:28Z</time></trkpt><trkpt lat="48.93252920992418" lon="2.375301890572205"><ele>35.5</ele><time>2026-03-31T14:38:29Z</time></trkpt><trkpt lat="48.93257972946184" lon="2.3751384248951117"><ele>35.75</ele><time>2026-03-31T14:38:30Z</time></trkpt><trkpt lat="48.93263636148842" lon="2.374967467175852"><ele>36.0</ele><time>2026-03-31T14:38:31Z</time></trkpt><trkpt lat="48.932694952294476" lon="2.3747969072879664"><ele>36.0</ele><time>2026-03-31T14:38:32Z</time></trkpt><trkpt lat="48.932757428868555" lon="2.3746266722124156"><ele>36.0</ele><time>2026-03-31T14:38:33Z</time></trkpt><trkpt lat="48.932816480864744" lon="2.374454684700315"><ele>36.0</ele><time>2026-03-31T14:38:34Z</time></trkpt><trkpt lat="48.932876057424956" lon="2.3742845214519352"><ele>36.0</ele><time>2026-03-31T14:38:35Z</time></trkpt><trkpt lat="48.93293519318885" lon="2.374117115711965"><ele>36.0</ele><time>2026-03-31T14:38:36Z</time></trkpt><trkpt lat="48.932994006535154" lon="2.373948815106369"><ele>36.0</ele><time>2026-03-31T14:38:37Z</time></trkpt><trkpt lat="48.93304778442218" lon="2.373773354543393"><ele>36.0</ele><time>2026-03-31T14:38:38Z</time></trkpt><trkpt lat="48.93310129486622" lon="2.373599575459102"><ele>36.0</ele><time>2026-03-31T14:38:39Z</time></trkpt><trkpt lat="48.933157542231974" lon="2.3734274910875928"><ele>36.0</ele><time>2026-03-31T14:38:40Z</time></trkpt><trkpt lat="48.93321655706423" lon="2.3732621800275253"><ele>36.0</ele><time>2026-03-31T14:38:41Z</time></trkpt><trkpt lat="48.933268484822946" lon="2.3731150558627294"><ele>36.0</ele><time>2026-03-31T14:38:42Z</time></trkpt><trkpt lat="48.93331175427192" lon="2.372973887976651"><ele>36.0</ele><time>2026-03-31T14:38:43Z</time></trkpt><trkpt lat="48.93335160337719" lon="2.372828420538735"><ele>36.0</ele><time>2026-03-31T14:38:44Z</time></trkpt><trkpt lat="48.933391971060985" lon="2.3726749522036092"><ele>36.0</ele><time>2026-03-31T14:38:45Z</time></trkpt><trkpt lat="48.93342696632835" lon="2.3725253960548933"><ele>36.0</ele><time>2026-03-31T14:38:46Z</time></trkpt><trkpt lat="48.93345539231675" lon="2.372386161463281"><ele>36.0</ele><time>2026-03-31T14:38:47Z</time></trkpt><trkpt lat="48.93347788103042" lon="2.3722550694730673"><ele>36.0</ele><time>2026-03-31T14:38:48Z</time></trkpt><trkpt lat="48.93349555811285" lon="2.3721477908606023"><ele>36.0</ele><time>2026-03-31T14:38:49Z</time></trkpt><trkpt lat="48.933536901317495" lon="2.371999692594458"><ele>36.4</ele><time>2026-03-31T14:38:51Z</time></trkpt><trkpt lat="48.93355636110353" lon="2.3718479402573207"><ele>36.8</ele><time>2026-03-31T14:38:53Z</time></trkpt><trkpt lat="48.933576896729555" lon="2.3717081982647823"><ele>37.199999999999996</ele><time>2026-03-31T14:38:55Z</time></trkpt><trkpt lat="48.933586595013004" lon="2.3715507783453917"><ele>37.6</ele><time>2026-03-31T14:38:57Z</time></trkpt><trkpt lat="48.93350993507898" lon="2.3714436708517157"><ele>38.0</ele><time>2026-03-31T14:38:59Z</time></trkpt><trkpt lat="48.933402881401136" lon="2.3714708105894626"><ele>37.8</ele><time>2026-03-31T14:39:01Z</time></trkpt><trkpt lat="48.93334595092485" lon="2.3715217707531036"><ele>37.599999999999994</ele><time>2026-03-31T14:39:02Z</time></trkpt><trkpt lat="48.93331191087491" lon="2.371667641802575"><ele>37.400000000000006</ele><time>2026-03-31T14:39:03Z</time></trkpt><trkpt lat="48.933274293246455" lon="2.37180907565685"><ele>37.2</ele><time>2026-03-31T14:39:04Z</time></trkpt><trkpt lat="48.933243264741826" lon="2.3719415532231567"><ele>37.0</ele><time>2026-03-31T14:39:05Z</time></trkpt><trkpt lat="48.93320835616432" lon="2.372068902665017"><ele>36.5</ele><time>2026-03-31T14:39:06Z</time></trkpt><trkpt lat="48.93316376969912" lon="2.3722209093195055"><ele>36.0</ele><time>2026-03-31T14:39:07Z</time></trkpt><trkpt lat="48.93311941112376" lon="2.372394220186931"><ele>35.5</ele><time>2026-03-31T14:39:08Z</time></trkpt><trkpt lat="48.933075855994154" lon="2.372570789310272"><ele>35.0</ele><time>2026-03-31T14:39:09Z</time></trkpt><trkpt lat="48.93302453410024" lon="2.3727623157425124"><ele>35.0</ele><time>2026-03-31T14:39:10Z</time></trkpt><trkpt lat="48.93297351460379" lon="2.372953656701264"><ele>35.0</ele><time>2026-03-31T14:39:10.999Z</time></trkpt><trkpt lat="48.93292278689328" lon="2.373142928011459"><ele>35.0</ele><time>2026-03-31T14:39:11.999Z</time></trkpt><trkpt lat="48.93287618818552" lon="2.3733293283016828"><ele>35.0</ele><time>2026-03-31T14:39:12.999Z</time></trkpt><trkpt lat="48.93283140035811" lon="2.3735085293214944"><ele>34.75</ele><time>2026-03-31T14:39:13.999Z</time></trkpt><trkpt lat="48.93278797988867" lon="2.37367936566811"><ele>34.5</ele><time>2026-03-31T14:39:14.999Z</time></trkpt><trkpt lat="48.932747925823854" lon="2.373846940610329"><ele>34.25</ele><time>2026-03-31T14:39:15.999Z</time></trkpt><trkpt lat="48.93270785238982" lon="2.3740117231464932"><ele>34.0</ele><time>2026-03-31T14:39:16.999Z</time></trkpt><trkpt lat="48.932674403900535" lon="2.3741644802711823"><ele>34.2</ele><time>2026-03-31T14:39:17.999Z</time></trkpt><trkpt lat="48.93263602361592" lon="2.3743060978686947"><ele>34.4</ele><time>2026-03-31T14:39:18.999Z</time></trkpt><trkpt lat="48.932599238318424" lon="2.374423989239583"><ele>34.6</ele><time>2026-03-31T14:39:19.999Z</time></trkpt><trkpt lat="48.93256283699989" lon="2.3745429888847984"><ele>34.8</ele><time>2026-03-31T14:39:20.999Z</time></trkpt><trkpt lat="48.932526751745904" lon="2.374669702107411"><ele>35.0</ele><time>2026-03-31T14:39:21.999Z</time></trkpt><trkpt lat="48.932494106319474" lon="2.374797128789702"><ele>35.2</ele><time>2026-03-31T14:39:22.999Z</time></trkpt><trkpt lat="48.932463967472266" lon="2.3749113026149042"><ele>35.4</ele><time>2026-03-31T14:39:23.999Z</time></trkpt><trkpt lat="48.932318793615515" lon="2.37494116820161"><ele>35.6</ele><time>2026-03-31T14:39:24.999Z</time></trkpt><trkpt lat="48.932224345519785" lon="2.374974386209382"><ele>35.8</ele><time>2026-03-31T14:39:25.999Z</time></trkpt><trkpt lat="48.93213013965075" lon="2.3749757543462557"><ele>36.0</ele><time>2026-03-31T14:39:26.999Z</time></trkpt><trkpt lat="48.932038340892895" lon="2.3749346309425063"><ele>36.0</ele><time>2026-03-31T14:39:27.999Z</time></trkpt><trkpt lat="48.931945860637434" lon="2.3748913552486077"><ele>36.0</ele><time>2026-03-31T14:39:28.999Z</time></trkpt><trkpt lat="48.931871878835025" lon="2.3747885162294766"><ele>36.0</ele><time>2026-03-31T14:39:29.999Z</time></trkpt><trkpt lat="48.931817631839756" lon="2.3746508767213887"><ele>36.0</ele><time>2026-03-31T14:39:30.999Z</time></trkpt><trkpt lat="48.93179282196001" lon="2.3744973812686823"><ele>36.0</ele><time>2026-03-31T14:39:31.999Z</time></trkpt><trkpt lat="48.931801835642524" lon="2.374337251438547"><ele>35.8</ele><time>2026-03-31T14:39:32.999Z</time></trkpt><trkpt lat="48.931833895976084" lon="2.374190247040278"><ele>35.6</ele><time>2026-03-31T14:39:33.999Z</time></trkpt><trkpt lat="48.9318916337427" lon="2.3740638952390993"><ele>35.4</ele><time>2026-03-31T14:39:34.999Z</time></trkpt><trkpt lat="48.93197238530497" lon="2.3739620606856944"><ele>35.2</ele><time>2026-03-31T14:39:35.999Z</time></trkpt><trkpt lat="48.93207259292985" lon="2.3739217206313827"><ele>35.0</ele><time>2026-03-31T14:39:36.999Z</time></trkpt><trkpt lat="48.93216736504454" lon="2.3738915252272768"><ele>35.0</ele><time>2026-03-31T14:39:37.999Z</time></trkpt><trkpt lat="48.93226346486892" lon="2.3738974694019412"><ele>35.0</ele><time>2026-03-31T14:39:38.999Z</time></trkpt><trkpt lat="48.932352401977" lon="2.37395561982021"><ele>35.0</ele><time>2026-03-31T14:39:39.999Z</time></trkpt><trkpt lat="48.932433035262704" lon="2.3740420588433566"><ele>35.0</ele><time>2026-03-31T14:39:40.999Z</time></trkpt><trkpt lat="48.932508241879034" lon="2.3741700701257384"><ele>35.0</ele><time>2026-03-31T14:39:41.999Z</time></trkpt><trkpt lat="48.93256365529257" lon="2.3743285694055736"><ele>35.25</ele><time>2026-03-31T14:39:42.999Z</time></trkpt><trkpt lat="48.9326098979126" lon="2.3745199520146967"><ele>35.5</ele><time>2026-03-31T14:39:43.999Z</time></trkpt><trkpt lat="48.9326567811086" lon="2.3747307765774743"><ele>35.75</ele><time>2026-03-31T14:39:44.999Z</time></trkpt><trkpt lat="48.932706406475525" lon="2.374949794941662"><ele>36.0</ele><time>2026-03-31T14:39:45.999Z</time></trkpt><trkpt lat="48.93277456592938" lon="2.3751828268566095"><ele>36.333333333333336</ele><time>2026-03-31T14:39:46.999Z</time></trkpt><trkpt lat="48.932846500148344" lon="2.375424703267375"><ele>36.66666666666667</ele><time>2026-03-31T14:39:47.999Z</time></trkpt><trkpt lat="48.93289532946197" lon="2.375671481343499"><ele>37.0</ele><time>2026-03-31T14:39:48.999Z</time></trkpt><trkpt lat="48.93295380136346" lon="2.3759545727988067"><ele>36.0</ele><time>2026-03-31T14:39:49.999Z</time></trkpt><trkpt lat="48.93301537614032" lon="2.3762559479352383"><ele>35.0</ele><time>2026-03-31T14:39:50.999Z</time></trkpt><trkpt lat="48.933077848213074" lon="2.3765854789072067"><ele>34.0</ele><time>2026-03-31T14:39:51.999Z</time></trkpt><trkpt lat="48.93313706331767" lon="2.37691614669718"><ele>33.5</ele><time>2026-03-31T14:39:52.999Z</time></trkpt><trkpt lat="48.93319332648253" lon="2.377247274991041"><ele>33.0</ele><time>2026-03-31T14:39:53.999Z</time></trkpt><trkpt lat="48.93324385869682" lon="2.3775907065063357"><ele>33.0</ele><time>2026-03-31T14:39:54.999Z</time></trkpt><trkpt lat="48.93329268005243" lon="2.3779109720588605"><ele>33.0</ele><time>2026-03-31T14:39:55.999Z</time></trkpt><trkpt lat="48.93334012921279" lon="2.378220727472331"><ele>33.0</ele><time>2026-03-31T14:39:56.999Z</time></trkpt><trkpt lat="48.93338509611789" lon="2.3785374646087387"><ele>32.666666666666664</ele><time>2026-03-31T14:39:57.999Z</time></trkpt><trkpt lat="48.93342580477372" lon="2.3788544200921713"><ele>32.33333333333333</ele><time>2026-03-31T14:39:58.999Z</time></trkpt><trkpt lat="48.9334633774641" lon="2.3791734570837555"><ele>32.0</ele><time>2026-03-31T14:39:59.999Z</time></trkpt><trkpt lat="48.933497462049324" lon="2.379497799331383"><ele>32.0</ele><time>2026-03-31T14:40:00.999Z</time></trkpt><trkpt lat="48.93353080146987" lon="2.3798218181860324"><ele>32.0</ele><time>2026-03-31T14:40:01.999Z</time></trkpt><trkpt lat="48.933565062112024" lon="2.3801455684799153"><ele>32.0</ele><time>2026-03-31T14:40:02.999Z</time></trkpt><trkpt lat="48.93359692110873" lon="2.3804722058555927"><ele>32.33333333333333</ele><time>2026-03-31T14:40:03.999Z</time></trkpt><trkpt lat="48.93362742266602" lon="2.380802610371013"><ele>32.666666666666664</ele><time>2026-03-31T14:40:04.999Z</time></trkpt><trkpt lat="48.93365536264667" lon="2.3811359105720973"><ele>33.0</ele><time>2026-03-31T14:40:05.999Z</time></trkpt><trkpt lat="48.93368067040625" lon="2.3814724121390376"><ele>33.333333333333336</ele><time>2026-03-31T14:40:06.999Z</time></trkpt><trkpt lat="48.93370332427521" lon="2.3818070955117046"><ele>33.66666666666667</ele><time>2026-03-31T14:40:07.999Z</time></trkpt><trkpt lat="48.933729155700036" lon="2.3821384694919923"><ele>34.0</ele><time>2026-03-31T14:40:08.999Z</time></trkpt><trkpt lat="48.93375203841505" lon="2.3824713114197524"><ele>33.333333333333336</ele><time>2026-03-31T14:40:09.999Z</time></trkpt><trkpt lat="48.93377072963262" lon="2.3828060790976866"><ele>32.666666666666664</ele><time>2026-03-31T14:40:10.999Z</time></trkpt><trkpt lat="48.933785681182734" lon="2.38313979711234"><ele>32.0</ele><time>2026-03-31T14:40:11.999Z</time></trkpt><trkpt lat="48.933798892264775" lon="2.383476707222079"><ele>31.666666666666664</ele><time>2026-03-31T14:40:12.999Z</time></trkpt><trkpt lat="48.93381306627681" lon="2.3838139829672236"><ele>31.333333333333336</ele><time>2026-03-31T14:40:13.999Z</time></trkpt><trkpt lat="48.93382398705857" lon="2.384147257302318"><ele>31.0</ele><time>2026-03-31T14:40:14.998Z</time></trkpt><trkpt lat="48.93383212557986" lon="2.3844723573436957"><ele>32.333333333333336</ele><time>2026-03-31T14:40:15.998Z</time></trkpt><trkpt lat="48.933839432579695" lon="2.3847932584411096"><ele>33.666666666666664</ele><time>2026-03-31T14:40:16.998Z</time></trkpt><trkpt lat="48.93384935732534" lon="2.3851143119308764"><ele>35.0</ele><time>2026-03-31T14:40:17.998Z</time></trkpt><trkpt lat="48.93386191103124" lon="2.3854345772897627"><ele>35.0</ele><time>2026-03-31T14:40:18.998Z</time></trkpt><trkpt lat="48.93387383837556" lon="2.385755430073544"><ele>35.0</ele><time>2026-03-31T14:40:19.998Z</time></trkpt><trkpt lat="48.93388384784312" lon="2.386073757873211"><ele>35.0</ele><time>2026-03-31T14:40:20.998Z</time></trkpt><trkpt lat="48.93388697807312" lon="2.3863679891497513"><ele>34.666666666666664</ele><time>2026-03-31T14:40:21.998Z</time></trkpt><trkpt lat="48.93389443434629" lon="2.3866513294119756"><ele>34.333333333333336</ele><time>2026-03-31T14:40:22.998Z</time></trkpt><trkpt lat="48.93390590069338" lon="2.3869374293863737"><ele>34.0</ele><time>2026-03-31T14:40:23.998Z</time></trkpt><trkpt lat="48.93391557085931" lon="2.3872384899520744"><ele>33.66666666666667</ele><time>2026-03-31T14:40:24.998Z</time></trkpt><trkpt lat="48.93392386042141" lon="2.3875344481940686"><ele>33.333333333333336</ele><time>2026-03-31T14:40:25.998Z</time></trkpt><trkpt lat="48.93392920656259" lon="2.3878202841676157"><ele>33.0</ele><time>2026-03-31T14:40:26.998Z</time></trkpt><trkpt lat="48.9339310538987" lon="2.3880924555841694"><ele>33.0</ele><time>2026-03-31T14:40:27.998Z</time></trkpt><trkpt lat="48.933935093295986" lon="2.388359341221621"><ele>33.0</ele><time>2026-03-31T14:40:29Z</time></trkpt><trkpt lat="48.93394342272282" lon="2.3886256726359276"><ele>33.0</ele><time>2026-03-31T14:40:30Z</time></trkpt><trkpt lat="48.9339569527764" lon="2.3889093489570206"><ele>33.0</ele><time>2026-03-31T14:40:31Z</time></trkpt><trkpt lat="48.93396856591125" lon="2.389211877504021"><ele>33.0</ele><time>2026-03-31T14:40:32Z</time></trkpt><trkpt lat="48.933980854906636" lon="2.389529979788526"><ele>33.0</ele><time>2026-03-31T14:40:33Z</time></trkpt><trkpt lat="48.933993213419626" lon="2.389859097920951"><ele>33.0</ele><time>2026-03-31T14:40:34Z</time></trkpt><trkpt lat="48.934004913206884" lon="2.3901981852067955"><ele>33.0</ele><time>2026-03-31T14:40:35Z</time></trkpt><trkpt lat="48.93401314049559" lon="2.390544729697122"><ele>32.5</ele><time>2026-03-31T14:40:36Z</time></trkpt><trkpt lat="48.934021301419584" lon="2.390893044104457"><ele>32.0</ele><time>2026-03-31T14:40:37Z</time></trkpt><trkpt lat="48.93402944459601" lon="2.391242079147413"><ele>32.0</ele><time>2026-03-31T14:40:38Z</time></trkpt><trkpt lat="48.93403834384795" lon="2.3915901852846964"><ele>32.0</ele><time>2026-03-31T14:40:39Z</time></trkpt><trkpt lat="48.934048188479444" lon="2.391927155349172"><ele>32.33333333333333</ele><time>2026-03-31T14:40:40Z</time></trkpt><trkpt lat="48.93405691365556" lon="2.392256154524004"><ele>32.666666666666664</ele><time>2026-03-31T14:40:41Z</time></trkpt><trkpt lat="48.93406814899765" lon="2.392580854652527"><ele>33.0</ele><time>2026-03-31T14:40:42Z</time></trkpt><trkpt lat="48.93408067324478" lon="2.392902744502589"><ele>33.0</ele><time>2026-03-31T14:40:43Z</time></trkpt><trkpt lat="48.934090539940605" lon="2.393225930037429"><ele>33.0</ele><time>2026-03-31T14:40:44Z</time></trkpt><trkpt lat="48.93410704569638" lon="2.393550048319496"><ele>33.0</ele><time>2026-03-31T14:40:45Z</time></trkpt><trkpt lat="48.93412679599309" lon="2.3938702700478722"><ele>33.0</ele><time>2026-03-31T14:40:46Z</time></trkpt><trkpt lat="48.934147533570204" lon="2.3941791382057374"><ele>33.0</ele><time>2026-03-31T14:40:47Z</time></trkpt><trkpt lat="48.93417262325714" lon="2.3944634811506167"><ele>33.0</ele><time>2026-03-31T14:40:48Z</time></trkpt><trkpt lat="48.934206399549524" lon="2.394754196348919"><ele>34.0</ele><time>2026-03-31T14:40:49Z</time></trkpt><trkpt lat="48.93424051882167" lon="2.3950521228926123"><ele>35.0</ele><time>2026-03-31T14:40:50Z</time></trkpt><trkpt lat="48.93427026745683" lon="2.3953571675080356"><ele>36.0</ele><time>2026-03-31T14:40:51Z</time></trkpt><trkpt lat="48.93429275241632" lon="2.3956559494265415"><ele>36.0</ele><time>2026-03-31T14:40:52Z</time></trkpt><trkpt lat="48.934319460675866" lon="2.395945300622961"><ele>36.0</ele><time>2026-03-31T14:40:53Z</time></trkpt><trkpt lat="48.93434317020953" lon="2.396236873599661"><ele>36.0</ele><time>2026-03-31T14:40:54Z</time></trkpt><trkpt lat="48.93437215589155" lon="2.3965389093434846"><ele>35.666666666666664</ele><time>2026-03-31T14:40:55Z</time></trkpt><trkpt lat="48.93440638324386" lon="2.3968464570238552"><ele>35.33333333333333</ele><time>2026-03-31T14:40:56Z</time></trkpt><trkpt lat="48.93444387447572" lon="2.3971575521933643"><ele>35.0</ele><time>2026-03-31T14:40:57Z</time></trkpt><trkpt lat="48.93448087738095" lon="2.397459713640963"><ele>35.0</ele><time>2026-03-31T14:40:58Z</time></trkpt><trkpt lat="48.9345219761137" lon="2.3977647392816674"><ele>35.0</ele><time>2026-03-31T14:40:59Z</time></trkpt><trkpt lat="48.93456643233583" lon="2.398078742893526"><ele>35.0</ele><time>2026-03-31T14:41:00Z</time></trkpt><trkpt lat="48.93461219000458" lon="2.398394760509616"><ele>36.0</ele><time>2026-03-31T14:41:01Z</time></trkpt><trkpt lat="48.93465959646578" lon="2.3987088114955206"><ele>37.0</ele><time>2026-03-31T14:41:02Z</time></trkpt><trkpt lat="48.934710369355614" lon="2.3990308518868373"><ele>38.0</ele><time>2026-03-31T14:41:03Z</time></trkpt><trkpt lat="48.93476214998663" lon="2.3993573988649635"><ele>37.666666666666664</ele><time>2026-03-31T14:41:04Z</time></trkpt><trkpt lat="48.93481409172636" lon="2.3996813996789292"><ele>37.333333333333336</ele><time>2026-03-31T14:41:05Z</time></trkpt><trkpt lat="48.93486818473068" lon="2.3999984821850555"><ele>37.0</ele><time>2026-03-31T14:41:06Z</time></trkpt><trkpt lat="48.93492262934146" lon="2.4002879127911445"><ele>36.0</ele><time>2026-03-31T14:41:07Z</time></trkpt><trkpt lat="48.93497947450133" lon="2.4005759293249938"><ele>35.0</ele><time>2026-03-31T14:41:08Z</time></trkpt><trkpt lat="48.93503585764698" lon="2.4008701670381822"><ele>34.0</ele><time>2026-03-31T14:41:09Z</time></trkpt><trkpt lat="48.93509414410555" lon="2.4011665418178767"><ele>36.0</ele><time>2026-03-31T14:41:10Z</time></trkpt><trkpt lat="48.935155525687506" lon="2.401463505366692"><ele>38.0</ele><time>2026-03-31T14:41:11Z</time></trkpt><trkpt lat="48.93522215113254" lon="2.401762480564969"><ele>40.0</ele><time>2026-03-31T14:41:12Z</time></trkpt><trkpt lat="48.93528909562775" lon="2.402065731377529"><ele>39.0</ele><time>2026-03-31T14:41:13Z</time></trkpt><trkpt lat="48.9353587609918" lon="2.4023699406326218"><ele>38.0</ele><time>2026-03-31T14:41:14Z</time></trkpt><trkpt lat="48.93542825215902" lon="2.402675289882187"><ele>37.0</ele><time>2026-03-31T14:41:15Z</time></trkpt><trkpt lat="48.935497325459444" lon="2.402978164232632"><ele>37.0</ele><time>2026-03-31T14:41:16Z</time></trkpt><trkpt lat="48.93557030993857" lon="2.4032828637535477"><ele>37.0</ele><time>2026-03-31T14:41:16.999Z</time></trkpt><trkpt lat="48.935642427840904" lon="2.4035874691412302"><ele>37.0</ele><time>2026-03-31T14:41:17.999Z</time></trkpt><trkpt lat="48.93571418224" lon="2.403889910610484"><ele>37.0</ele><time>2026-03-31T14:41:18.999Z</time></trkpt><trkpt lat="48.9357867422766" lon="2.404198268672633"><ele>37.0</ele><time>2026-03-31T14:41:19.999Z</time></trkpt><trkpt lat="48.93585810832014" lon="2.4045117241010194"><ele>37.0</ele><time>2026-03-31T14:41:20.999Z</time></trkpt><trkpt lat="48.93593515595263" lon="2.404812004919006"><ele>38.5</ele><time>2026-03-31T14:41:21.999Z</time></trkpt><trkpt lat="48.93601903656785" lon="2.4051350513823486"><ele>40.0</ele><time>2026-03-31T14:41:22.999Z</time></trkpt><trkpt lat="48.93610420030926" lon="2.405466263797115"><ele>39.5</ele><time>2026-03-31T14:41:23.999Z</time></trkpt><trkpt lat="48.936182242624525" lon="2.4058047475608584"><ele>39.0</ele><time>2026-03-31T14:41:24.999Z</time></trkpt><trkpt lat="48.936260614021464" lon="2.4061425053548713"><ele>40.0</ele><time>2026-03-31T14:41:25.999Z</time></trkpt><trkpt lat="48.936341076186956" lon="2.406475622834657"><ele>41.0</ele><time>2026-03-31T14:41:26.999Z</time></trkpt><trkpt lat="48.93642307492745" lon="2.406813310690858"><ele>41.0</ele><time>2026-03-31T14:41:27.999Z</time></trkpt><trkpt lat="48.93650529775172" lon="2.4071544495475647"><ele>41.0</ele><time>2026-03-31T14:41:28.999Z</time></trkpt><trkpt lat="48.936584600281655" lon="2.4074951486919063"><ele>41.0</ele><time>2026-03-31T14:41:29.999Z</time></trkpt><trkpt lat="48.93666267929606" lon="2.4078307816517266"><ele>41.0</ele><time>2026-03-31T14:41:30.999Z</time></trkpt><trkpt lat="48.93674081977699" lon="2.408162777661223"><ele>40.666666666666664</ele><time>2026-03-31T14:41:31.999Z</time></trkpt><trkpt lat="48.93681786008964" lon="2.4084938032022865"><ele>40.333333333333336</ele><time>2026-03-31T14:41:32.999Z</time></trkpt><trkpt lat="48.936886361552276" lon="2.4087981302858075"><ele>40.0</ele><time>2026-03-31T14:41:33.999Z</time></trkpt><trkpt lat="48.936951861577505" lon="2.4090790324236755"><ele>40.0</ele><time>2026-03-31T14:41:34.999Z</time></trkpt><trkpt lat="48.937016560523375" lon="2.409357082607411"><ele>40.0</ele><time>2026-03-31T14:41:35.999Z</time></trkpt><trkpt lat="48.93707961429619" lon="2.4096368483498707"><ele>40.0</ele><time>2026-03-31T14:41:36.999Z</time></trkpt><trkpt lat="48.93714248131523" lon="2.4099068589073163"><ele>40.333333333333336</ele><time>2026-03-31T14:41:37.999Z</time></trkpt><trkpt lat="48.937207371487276" lon="2.410180243766096"><ele>40.666666666666664</ele><time>2026-03-31T14:41:38.999Z</time></trkpt><trkpt lat="48.93727117682946" lon="2.4104545370220096"><ele>41.0</ele><time>2026-03-31T14:41:39.999Z</time></trkpt><trkpt lat="48.93733428128861" lon="2.410728919824791"><ele>41.666666666666664</ele><time>2026-03-31T14:41:40.999Z</time></trkpt><trkpt lat="48.93739741425466" lon="2.411005060584275"><ele>42.333333333333336</ele><time>2026-03-31T14:41:41.999Z</time></trkpt><trkpt lat="48.937458686212565" lon="2.411269876174541"><ele>43.0</ele><time>2026-03-31T14:41:42.999Z</time></trkpt><trkpt lat="48.93751609878928" lon="2.411538818044794"><ele>43.0</ele><time>2026-03-31T14:41:43.999Z</time></trkpt><trkpt lat="48.93757450063178" lon="2.4118229656500625"><ele>43.0</ele><time>2026-03-31T14:41:44.999Z</time></trkpt><trkpt lat="48.93764310775084" lon="2.412114807639198"><ele>43.0</ele><time>2026-03-31T14:41:45.999Z</time></trkpt><trkpt lat="48.937714386556564" lon="2.412403364488014"><ele>43.0</ele><time>2026-03-31T14:41:46.999Z</time></trkpt><trkpt lat="48.937783278332134" lon="2.41267242999502"><ele>43.0</ele><time>2026-03-31T14:41:47.999Z</time></trkpt><trkpt lat="48.937843177558634" lon="2.412921272729458"><ele>43.0</ele><time>2026-03-31T14:41:48.999Z</time></trkpt><trkpt lat="48.93789485622103" lon="2.4131571202576865"><ele>43.0</ele><time>2026-03-31T14:41:49.999Z</time></trkpt><trkpt lat="48.93794672462054" lon="2.4133995184365418"><ele>43.0</ele><time>2026-03-31T14:41:50.999Z</time></trkpt><trkpt lat="48.938002709010725" lon="2.4136436819269114"><ele>43.0</ele><time>2026-03-31T14:41:51.999Z</time></trkpt><trkpt lat="48.938057957795984" lon="2.413878100241694"><ele>43.0</ele><time>2026-03-31T14:41:52.999Z</time></trkpt><trkpt lat="48.9381107274738" lon="2.414102210370932"><ele>43.0</ele><time>2026-03-31T14:41:53.999Z</time></trkpt><trkpt lat="48.938163210461546" lon="2.414317831466123"><ele>43.0</ele><time>2026-03-31T14:41:54.999Z</time></trkpt><trkpt lat="48.938216330545536" lon="2.414533592696769"><ele>42.66666666666667</ele><time>2026-03-31T14:41:55.999Z</time></trkpt><trkpt lat="48.938268912462135" lon="2.41476769370032"><ele>42.333333333333336</ele><time>2026-03-31T14:41:56.999Z</time></trkpt><trkpt lat="48.938316467803" lon="2.415008020044244"><ele>42.0</ele><time>2026-03-31T14:41:57.999Z</time></trkpt><trkpt lat="48.93837863077067" lon="2.4152522966607104"><ele>39.666666666666664</ele><time>2026-03-31T14:41:58.999Z</time></trkpt><trkpt lat="48.93843591896125" lon="2.4155000851467996"><ele>37.33333333333333</ele><time>2026-03-31T14:41:59.999Z</time></trkpt><trkpt lat="48.93848988449621" lon="2.415733814738785"><ele>35.0</ele><time>2026-03-31T14:42:00.999Z</time></trkpt><trkpt lat="48.938542044391184" lon="2.4159544681479623"><ele>35.0</ele><time>2026-03-31T14:42:01.999Z</time></trkpt><trkpt lat="48.93859322527454" lon="2.4161721194134005"><ele>35.0</ele><time>2026-03-31T14:42:02.999Z</time></trkpt><trkpt lat="48.93864937909028" lon="2.4163931749085052"><ele>35.0</ele><time>2026-03-31T14:42:03.999Z</time></trkpt><trkpt lat="48.93870482383987" lon="2.416617894522601"><ele>35.0</ele><time>2026-03-31T14:42:04.999Z</time></trkpt><trkpt lat="48.938753585357176" lon="2.4168420356413187"><ele>35.0</ele><time>2026-03-31T14:42:05.999Z</time></trkpt><trkpt lat="48.93880475248817" lon="2.4170621289180234"><ele>35.0</ele><time>2026-03-31T14:42:06.999Z</time></trkpt><trkpt lat="48.938857353802355" lon="2.417287533415789"><ele>35.0</ele><time>2026-03-31T14:42:07.999Z</time></trkpt><trkpt lat="48.93890475074355" lon="2.4175210394249618"><ele>35.0</ele><time>2026-03-31T14:42:08.999Z</time></trkpt><trkpt lat="48.93895641628583" lon="2.417760671373268"><ele>35.0</ele><time>2026-03-31T14:42:09.999Z</time></trkpt><trkpt lat="48.93901164874406" lon="2.4180008577434484"><ele>35.666666666666664</ele><time>2026-03-31T14:42:10.999Z</time></trkpt><trkpt lat="48.93906689997166" lon="2.4182440456963934"><ele>36.333333333333336</ele><time>2026-03-31T14:42:11.999Z</time></trkpt><trkpt lat="48.93912291228382" lon="2.4184721109072984"><ele>37.0</ele><time>2026-03-31T14:42:12.999Z</time></trkpt><trkpt lat="48.93917936650439" lon="2.418690473683672"><ele>37.66666666666667</ele><time>2026-03-31T14:42:13.999Z</time></trkpt><trkpt lat="48.93922987623476" lon="2.4189105521376617"><ele>38.333333333333336</ele><time>2026-03-31T14:42:14.999Z</time></trkpt><trkpt lat="48.93927500095429" lon="2.4191283178566603"><ele>39.0</ele><time>2026-03-31T14:42:15.999Z</time></trkpt><trkpt lat="48.93932957716069" lon="2.4193468307510937"><ele>39.0</ele><time>2026-03-31T14:42:16.999Z</time></trkpt><trkpt lat="48.93938747544939" lon="2.4195754587743363"><ele>39.0</ele><time>2026-03-31T14:42:17.999Z</time></trkpt><trkpt lat="48.93944285028337" lon="2.4197965692280277"><ele>39.0</ele><time>2026-03-31T14:42:18.998Z</time></trkpt><trkpt lat="48.93949652547325" lon="2.4200123348262053"><ele>39.0</ele><time>2026-03-31T14:42:19.998Z</time></trkpt><trkpt lat="48.93954835519699" lon="2.420224515344723"><ele>39.0</ele><time>2026-03-31T14:42:20.998Z</time></trkpt><trkpt lat="48.93960458278722" lon="2.4204605379312327"><ele>39.0</ele><time>2026-03-31T14:42:21.998Z</time></trkpt><trkpt lat="48.939667977153015" lon="2.4207157588510544"><ele>39.0</ele><time>2026-03-31T14:42:22.998Z</time></trkpt><trkpt lat="48.93972368160332" lon="2.420971116448515"><ele>39.0</ele><time>2026-03-31T14:42:23.998Z</time></trkpt><trkpt lat="48.93978384582189" lon="2.4212275728915458"><ele>39.0</ele><time>2026-03-31T14:42:24.998Z</time></trkpt><trkpt lat="48.93984520247679" lon="2.421475711909859"><ele>39.333333333333336</ele><time>2026-03-31T14:42:25.998Z</time></trkpt><trkpt lat="48.939900065117925" lon="2.4217128080981336"><ele>39.66666666666667</ele><time>2026-03-31T14:42:26.998Z</time></trkpt><trkpt lat="48.93995261279815" lon="2.421942193549724"><ele>40.0</ele><time>2026-03-31T14:42:27.998Z</time></trkpt><trkpt lat="48.94001112577209" lon="2.4221772938973305"><ele>40.333333333333336</ele><time>2026-03-31T14:42:28.998Z</time></trkpt><trkpt lat="48.94007003035203" lon="2.4224342026986236"><ele>40.666666666666664</ele><time>2026-03-31T14:42:29.998Z</time></trkpt><trkpt lat="48.94012394786086" lon="2.4226718164429726"><ele>41.0</ele><time>2026-03-31T14:42:30.998Z</time></trkpt><trkpt lat="48.940174348884376" lon="2.422897665515489"><ele>40.25</ele><time>2026-03-31T14:42:31.998Z</time></trkpt><trkpt lat="48.94022780909062" lon="2.423112501550819"><ele>39.5</ele><time>2026-03-31T14:42:32.998Z</time></trkpt><trkpt lat="48.94027513231798" lon="2.423318407213938"><ele>38.75</ele><time>2026-03-31T14:42:33.998Z</time></trkpt><trkpt lat="48.940324551342954" lon="2.423522169409007"><ele>38.0</ele><time>2026-03-31T14:42:35Z</time></trkpt><trkpt lat="48.940370858879795" lon="2.42373585397756"><ele>39.33333333333333</ele><time>2026-03-31T14:42:36Z</time></trkpt><trkpt lat="48.94041848586216" lon="2.4239637815015627"><ele>40.666666666666664</ele><time>2026-03-31T14:42:37Z</time></trkpt><trkpt lat="48.940467171054955" lon="2.4242172274736093"><ele>42.0</ele><time>2026-03-31T14:42:38Z</time></trkpt><trkpt lat="48.940524717758834" lon="2.424476114540063"><ele>42.0</ele><time>2026-03-31T14:42:39Z</time></trkpt><trkpt lat="48.94058395228798" lon="2.4247397444144068"><ele>42.0</ele><time>2026-03-31T14:42:40Z</time></trkpt><trkpt lat="48.940644047864325" lon="2.4250100561769687"><ele>42.0</ele><time>2026-03-31T14:42:41Z</time></trkpt><trkpt lat="48.94070788019963" lon="2.425283237036251"><ele>41.666666666666664</ele><time>2026-03-31T14:42:42Z</time></trkpt><trkpt lat="48.94077235401667" lon="2.425551593500477"><ele>41.33333333333333</ele><time>2026-03-31T14:42:43Z</time></trkpt><trkpt lat="48.94083566995217" lon="2.4258191318529607"><ele>41.0</ele><time>2026-03-31T14:42:44Z</time></trkpt><trkpt lat="48.94089857370183" lon="2.4260915358471165"><ele>41.0</ele><time>2026-03-31T14:42:45Z</time></trkpt><trkpt lat="48.94096139662809" lon="2.4263579530217236"><ele>41.0</ele><time>2026-03-31T14:42:46Z</time></trkpt><trkpt lat="48.94102475399011" lon="2.426625524172442"><ele>41.0</ele><time>2026-03-31T14:42:47Z</time></trkpt><trkpt lat="48.94109070631666" lon="2.426884801576652"><ele>42.0</ele><time>2026-03-31T14:42:48Z</time></trkpt><trkpt lat="48.9411521848263" lon="2.4271458900028335"><ele>43.0</ele><time>2026-03-31T14:42:49Z</time></trkpt><trkpt lat="48.941214487297735" lon="2.427414061825071"><ele>44.0</ele><time>2026-03-31T14:42:50Z</time></trkpt><trkpt lat="48.94127741731231" lon="2.4276865085861576"><ele>44.0</ele><time>2026-03-31T14:42:51Z</time></trkpt><trkpt lat="48.94134199445977" lon="2.4279604617790134"><ele>44.0</ele><time>2026-03-31T14:42:52Z</time></trkpt><trkpt lat="48.941403335495615" lon="2.428228988945426"><ele>44.0</ele><time>2026-03-31T14:42:53Z</time></trkpt><trkpt lat="48.94146364750123" lon="2.4285046357572244"><ele>44.33333333333333</ele><time>2026-03-31T14:42:54Z</time></trkpt><trkpt lat="48.94152985484746" lon="2.428777729082285"><ele>44.666666666666664</ele><time>2026-03-31T14:42:55Z</time></trkpt><trkpt lat="48.94159846186837" lon="2.429055366524715"><ele>45.0</ele><time>2026-03-31T14:42:56Z</time></trkpt><trkpt lat="48.94166304497353" lon="2.4293395326290184"><ele>45.0</ele><time>2026-03-31T14:42:57Z</time></trkpt><trkpt lat="48.941730099765294" lon="2.4296267984018343"><ele>45.0</ele><time>2026-03-31T14:42:58Z</time></trkpt><trkpt lat="48.94179420516217" lon="2.429923552416565"><ele>45.0</ele><time>2026-03-31T14:42:59Z</time></trkpt><trkpt lat="48.94186140191704" lon="2.4302253832886374"><ele>44.666666666666664</ele><time>2026-03-31T14:43:00Z</time></trkpt><trkpt lat="48.94193608430586" lon="2.4305185905078632"><ele>44.33333333333333</ele><time>2026-03-31T14:43:01Z</time></trkpt><trkpt lat="48.942018333079595" lon="2.430825794653443"><ele>44.0</ele><time>2026-03-31T14:43:02Z</time></trkpt><trkpt lat="48.94209962274735" lon="2.431133371708194"><ele>43.666666666666664</ele><time>2026-03-31T14:43:03Z</time></trkpt><trkpt lat="48.94218147423816" lon="2.4314416057491965"><ele>43.333333333333336</ele><time>2026-03-31T14:43:04Z</time></trkpt><trkpt lat="48.94226285572914" lon="2.431746667391489"><ele>43.0</ele><time>2026-03-31T14:43:05Z</time></trkpt><trkpt lat="48.94232898451577" lon="2.432024887215119"><ele>43.66666666666667</ele><time>2026-03-31T14:43:06Z</time></trkpt><trkpt lat="48.94240153144047" lon="2.4323045031380586"><ele>44.333333333333336</ele><time>2026-03-31T14:43:07Z</time></trkpt><trkpt lat="48.942481729512664" lon="2.432572404492374"><ele>45.0</ele><time>2026-03-31T14:43:08Z</time></trkpt><trkpt lat="48.94256651699027" lon="2.4328449645501573"><ele>45.666666666666664</ele><time>2026-03-31T14:43:09Z</time></trkpt><trkpt lat="48.94265552753892" lon="2.433125122148004"><ele>46.33333333333333</ele><time>2026-03-31T14:43:10Z</time></trkpt><trkpt lat="48.942749121585194" lon="2.433403554741508"><ele>47.0</ele><time>2026-03-31T14:43:11Z</time></trkpt><trkpt lat="48.94284523491981" lon="2.4337038858018643"><ele>47.0</ele><time>2026-03-31T14:43:12Z</time></trkpt><trkpt lat="48.94292303405103" lon="2.4339888830046146"><ele>47.0</ele><time>2026-03-31T14:43:13Z</time></trkpt><trkpt lat="48.943021227909306" lon="2.4342788408533726"><ele>47.0</ele><time>2026-03-31T14:43:14Z</time></trkpt><trkpt lat="48.94312578754614" lon="2.4345657704917105"><ele>46.666666666666664</ele><time>2026-03-31T14:43:15Z</time></trkpt><trkpt lat="48.94323184404237" lon="2.434843691666552"><ele>46.333333333333336</ele><time>2026-03-31T14:43:16Z</time></trkpt><trkpt lat="48.9433313439525" lon="2.435122648021979"><ele>46.0</ele><time>2026-03-31T14:43:17Z</time></trkpt><trkpt lat="48.943433195735196" lon="2.4353979180229977"><ele>46.0</ele><time>2026-03-31T14:43:18Z</time></trkpt><trkpt lat="48.9435430342884" lon="2.43566611430294"><ele>46.0</ele><time>2026-03-31T14:43:19Z</time></trkpt><trkpt lat="48.943651065986046" lon="2.435936226186116"><ele>46.0</ele><time>2026-03-31T14:43:20Z</time></trkpt><trkpt lat="48.943760148082596" lon="2.436217790516925"><ele>45.333333333333336</ele><time>2026-03-31T14:43:21Z</time></trkpt><trkpt lat="48.9438717778566" lon="2.4365014799565086"><ele>44.666666666666664</ele><time>2026-03-31T14:43:21.999Z</time></trkpt><trkpt lat="48.94398187581078" lon="2.436771285493508"><ele>44.0</ele><time>2026-03-31T14:43:22.999Z</time></trkpt><trkpt lat="48.94409606650167" lon="2.437035248558719"><ele>44.33333333333333</ele><time>2026-03-31T14:43:23.999Z</time></trkpt><trkpt lat="48.944209503159705" lon="2.4372901396562474"><ele>44.666666666666664</ele><time>2026-03-31T14:43:24.999Z</time></trkpt><trkpt lat="48.94432016291383" lon="2.4375473106377505"><ele>45.0</ele><time>2026-03-31T14:43:25.999Z</time></trkpt><trkpt lat="48.94443042080385" lon="2.437799026773011"><ele>45.0</ele><time>2026-03-31T14:43:26.999Z</time></trkpt><trkpt lat="48.944541095863165" lon="2.438056736780374"><ele>45.0</ele><time>2026-03-31T14:43:27.999Z</time></trkpt><trkpt lat="48.94466689625087" lon="2.43831684212629"><ele>45.0</ele><time>2026-03-31T14:43:28.999Z</time></trkpt><trkpt lat="48.944790854186536" lon="2.43858463025985"><ele>45.0</ele><time>2026-03-31T14:43:29.999Z</time></trkpt><trkpt lat="48.94491322169205" lon="2.438847184887955"><ele>45.0</ele><time>2026-03-31T14:43:30.999Z</time></trkpt><trkpt lat="48.945033511483736" lon="2.4390944676278847"><ele>45.0</ele><time>2026-03-31T14:43:31.999Z</time></trkpt><trkpt lat="48.945155857642874" lon="2.4393396224951402"><ele>45.333333333333336</ele><time>2026-03-31T14:43:32.999Z</time></trkpt><trkpt lat="48.945279520787174" lon="2.439589800994093"><ele>45.66666666666667</ele><time>2026-03-31T14:43:33.999Z</time></trkpt><trkpt lat="48.945403503663805" lon="2.4398373071593973"><ele>46.0</ele><time>2026-03-31T14:43:34.999Z</time></trkpt><trkpt lat="48.945525786101825" lon="2.4400788990810107"><ele>46.0</ele><time>2026-03-31T14:43:35.999Z</time></trkpt><trkpt lat="48.945650869443774" lon="2.4403193596108994"><ele>46.0</ele><time>2026-03-31T14:43:36.999Z</time></trkpt><trkpt lat="48.94578112319794" lon="2.4405635552248115"><ele>46.0</ele><time>2026-03-31T14:43:37.999Z</time></trkpt><trkpt lat="48.94590955877187" lon="2.4408090019875397"><ele>46.0</ele><time>2026-03-31T14:43:38.999Z</time></trkpt><trkpt lat="48.9460453495834" lon="2.4410546316318964"><ele>46.0</ele><time>2026-03-31T14:43:39.999Z</time></trkpt><trkpt lat="48.94617951446752" lon="2.4413088456798664"><ele>46.0</ele><time>2026-03-31T14:43:40.999Z</time></trkpt><trkpt lat="48.94631920350492" lon="2.441566132545632"><ele>45.66666666666667</ele><time>2026-03-31T14:43:41.999Z</time></trkpt><trkpt lat="48.9464579177866" lon="2.4418259613066997"><ele>45.333333333333336</ele><time>2026-03-31T14:43:42.999Z</time></trkpt><trkpt lat="48.94659386213631" lon="2.4421037453624126"><ele>45.0</ele><time>2026-03-31T14:43:43.999Z</time></trkpt><trkpt lat="48.94673672847154" lon="2.4423745460228545"><ele>45.0</ele><time>2026-03-31T14:43:44.999Z</time></trkpt><trkpt lat="48.94687855820712" lon="2.442642661264144"><ele>45.0</ele><time>2026-03-31T14:43:45.999Z</time></trkpt><trkpt lat="48.94702466760408" lon="2.4428960825624912"><ele>45.0</ele><time>2026-03-31T14:43:46.999Z</time></trkpt><trkpt lat="48.94716507261739" lon="2.4431492518315037"><ele>45.0</ele><time>2026-03-31T14:43:47.999Z</time></trkpt><trkpt lat="48.94730111058435" lon="2.4434123547069815"><ele>45.0</ele><time>2026-03-31T14:43:48.999Z</time></trkpt><trkpt lat="48.94743118894641" lon="2.4436635761468746"><ele>45.0</ele><time>2026-03-31T14:43:49.999Z</time></trkpt><trkpt lat="48.94755125366604" lon="2.443904462144493"><ele>45.333333333333336</ele><time>2026-03-31T14:43:50.999Z</time></trkpt><trkpt lat="48.94767303688829" lon="2.4441344724387166"><ele>45.66666666666667</ele><time>2026-03-31T14:43:51.999Z</time></trkpt><trkpt lat="48.947796045385665" lon="2.4443506496071614"><ele>46.0</ele><time>2026-03-31T14:43:52.999Z</time></trkpt><trkpt lat="48.94791371068979" lon="2.4445498446559237"><ele>45.66666666666667</ele><time>2026-03-31T14:43:53.999Z</time></trkpt><trkpt lat="48.94803748014829" lon="2.4447764297885524"><ele>45.333333333333336</ele><time>2026-03-31T14:43:54.999Z</time></trkpt><trkpt lat="48.94817070620725" lon="2.444960508714059"><ele>45.0</ele><time>2026-03-31T14:43:55.999Z</time></trkpt><trkpt lat="48.948285572785906" lon="2.4451470476720774"><ele>44.666666666666664</ele><time>2026-03-31T14:43:56.999Z</time></trkpt><trkpt lat="48.94839821943282" lon="2.445355229621424"><ele>44.33333333333333</ele><time>2026-03-31T14:43:57.999Z</time></trkpt><trkpt lat="48.948514967007924" lon="2.4455644669441985"><ele>44.0</ele><time>2026-03-31T14:43:58.999Z</time></trkpt><trkpt lat="48.948631886775004" lon="2.445768623449088"><ele>44.0</ele><time>2026-03-31T14:43:59.999Z</time></trkpt><trkpt lat="48.94875683468152" lon="2.445979676620642"><ele>44.0</ele><time>2026-03-31T14:44:00.999Z</time></trkpt><trkpt lat="48.94891043050517" lon="2.446285489585617"><ele>44.0</ele><time>2026-03-31T14:44:01.999Z</time></trkpt><trkpt lat="48.949056526541106" lon="2.4465555750527077"><ele>44.33333333333333</ele><time>2026-03-31T14:44:02.999Z</time></trkpt><trkpt lat="48.94920100130874" lon="2.4468247587956253"><ele>44.666666666666664</ele><time>2026-03-31T14:44:03.999Z</time></trkpt><trkpt lat="48.94933855742631" lon="2.4470810516902306"><ele>45.0</ele><time>2026-03-31T14:44:04.999Z</time></trkpt><trkpt lat="48.949475140150405" lon="2.4473341054494853"><ele>46.0</ele><time>2026-03-31T14:44:05.999Z</time></trkpt><trkpt lat="48.94961842499009" lon="2.447599559128375"><ele>47.0</ele><time>2026-03-31T14:44:06.999Z</time></trkpt><trkpt lat="48.94976514657145" lon="2.447871379999739"><ele>47.0</ele><time>2026-03-31T14:44:07.999Z</time></trkpt><trkpt lat="48.94990975367288" lon="2.4481404862103426"><ele>47.0</ele><time>2026-03-31T14:44:08.999Z</time></trkpt><trkpt lat="48.95004975369612" lon="2.4484011851990295"><ele>47.0</ele><time>2026-03-31T14:44:09.999Z</time></trkpt><trkpt lat="48.95018554100116" lon="2.448654039314819"><ele>45.0</ele><time>2026-03-31T14:44:10.999Z</time></trkpt><trkpt lat="48.95033033681598" lon="2.448923668918888"><ele>43.0</ele><time>2026-03-31T14:44:11.999Z</time></trkpt><trkpt lat="48.950472741299855" lon="2.44918770647626"><ele>43.0</ele><time>2026-03-31T14:44:12.999Z</time></trkpt><trkpt lat="48.950615720140156" lon="2.449452463997121"><ele>43.0</ele><time>2026-03-31T14:44:13.999Z</time></trkpt><trkpt lat="48.950759024907576" lon="2.449718627910777"><ele>43.333333333333336</ele><time>2026-03-31T14:44:14.999Z</time></trkpt><trkpt lat="48.95088941857935" lon="2.4499616049158424"><ele>43.666666666666664</ele><time>2026-03-31T14:44:15.999Z</time></trkpt><trkpt lat="48.9510318330221" lon="2.4502289793577963"><ele>44.0</ele><time>2026-03-31T14:44:16.999Z</time></trkpt><trkpt lat="48.95117625143824" lon="2.4504998570465286"><ele>44.0</ele><time>2026-03-31T14:44:17.999Z</time></trkpt><trkpt lat="48.95132012912849" lon="2.450769026232418"><ele>44.0</ele><time>2026-03-31T14:44:18.999Z</time></trkpt><trkpt lat="48.951459942011454" lon="2.4510305371507948"><ele>44.0</ele><time>2026-03-31T14:44:19.999Z</time></trkpt><trkpt lat="48.951599806424014" lon="2.4512920192739314"><ele>44.33333333333333</ele><time>2026-03-31T14:44:20.998Z</time></trkpt><trkpt lat="48.951735288257716" lon="2.4515453082570975"><ele>44.666666666666664</ele><time>2026-03-31T14:44:21.998Z</time></trkpt><trkpt lat="48.95187914170361" lon="2.451781903036536"><ele>45.0</ele><time>2026-03-31T14:44:22.998Z</time></trkpt><trkpt lat="48.95201022061754" lon="2.4520371731701314"><ele>45.333333333333336</ele><time>2026-03-31T14:44:23.998Z</time></trkpt><trkpt lat="48.95214504541547" lon="2.452287236239292"><ele>45.66666666666667</ele><time>2026-03-31T14:44:24.998Z</time></trkpt><trkpt lat="48.95227943301013" lon="2.45253928986514"><ele>46.0</ele><time>2026-03-31T14:44:25.998Z</time></trkpt><trkpt lat="48.952413202953686" lon="2.45279892910892"><ele>45.0</ele><time>2026-03-31T14:44:26.998Z</time></trkpt><trkpt lat="48.95255203986578" lon="2.453059907445374"><ele>44.0</ele><time>2026-03-31T14:44:27.998Z</time></trkpt><trkpt lat="48.95269446949286" lon="2.4533242798722132"><ele>43.0</ele><time>2026-03-31T14:44:28.998Z</time></trkpt><trkpt lat="48.95283826849844" lon="2.4535885940444384"><ele>43.5</ele><time>2026-03-31T14:44:29.998Z</time></trkpt><trkpt lat="48.95298173143713" lon="2.453856176396958"><ele>44.0</ele><time>2026-03-31T14:44:30.998Z</time></trkpt><trkpt lat="48.95312501678323" lon="2.454122557887059"><ele>44.0</ele><time>2026-03-31T14:44:31.998Z</time></trkpt><trkpt lat="48.95327191364824" lon="2.4543948958233"><ele>44.0</ele><time>2026-03-31T14:44:32.998Z</time></trkpt><trkpt lat="48.95342071396406" lon="2.4546744000020184"><ele>43.0</ele><time>2026-03-31T14:44:33.998Z</time></trkpt><trkpt lat="48.953571737150796" lon="2.4549577565286396"><ele>42.0</ele><time>2026-03-31T14:44:34.998Z</time></trkpt><trkpt lat="48.95373266829675" lon="2.455245808332627"><ele>42.5</ele><time>2026-03-31T14:44:35.998Z</time></trkpt><trkpt lat="48.95389228201292" lon="2.4555445827786326"><ele>43.0</ele><time>2026-03-31T14:44:36.998Z</time></trkpt><trkpt lat="48.95405749777317" lon="2.4558415361732027"><ele>42.5</ele><time>2026-03-31T14:44:37.998Z</time></trkpt><trkpt lat="48.9542158569554" lon="2.4561414069790413"><ele>42.0</ele><time>2026-03-31T14:44:38.998Z</time></trkpt><trkpt lat="48.954373613718275" lon="2.4564398266316334"><ele>41.0</ele><time>2026-03-31T14:44:39.998Z</time></trkpt><trkpt lat="48.95453421599613" lon="2.456736129857734"><ele>40.0</ele><time>2026-03-31T14:44:41Z</time></trkpt><trkpt lat="48.954695664057034" lon="2.457029944543849"><ele>40.0</ele><time>2026-03-31T14:44:42Z</time></trkpt><trkpt lat="48.95485238996695" lon="2.4573221081432455"><ele>40.0</ele><time>2026-03-31T14:44:43Z</time></trkpt><trkpt lat="48.955009326136306" lon="2.4576100472755975"><ele>41.5</ele><time>2026-03-31T14:44:44Z</time></trkpt><trkpt lat="48.95516526123287" lon="2.457894163528236"><ele>43.0</ele><time>2026-03-31T14:44:45Z</time></trkpt><trkpt lat="48.955318225058434" lon="2.458178237143123"><ele>43.0</ele><time>2026-03-31T14:44:46Z</time></trkpt><trkpt lat="48.95547027321512" lon="2.4584636463862664"><ele>43.0</ele><time>2026-03-31T14:44:47Z</time></trkpt><trkpt lat="48.95562395849797" lon="2.4587511724388347"><ele>42.5</ele><time>2026-03-31T14:44:48Z</time></trkpt><trkpt lat="48.955774456192124" lon="2.4590443890958507"><ele>42.0</ele><time>2026-03-31T14:44:49Z</time></trkpt><trkpt lat="48.95592541596529" lon="2.4593318190680606"><ele>42.0</ele><time>2026-03-31T14:44:50Z</time></trkpt><trkpt lat="48.956079954311015" lon="2.4596176507940117"><ele>42.0</ele><time>2026-03-31T14:44:51Z</time></trkpt><trkpt lat="48.956232995616816" lon="2.459902676618244"><ele>42.0</ele><time>2026-03-31T14:44:52Z</time></trkpt><trkpt lat="48.95638062367283" lon="2.4601893989595442"><ele>42.0</ele><time>2026-03-31T14:44:53Z</time></trkpt><trkpt lat="48.95653383750894" lon="2.4604777729425797"><ele>42.0</ele><time>2026-03-31T14:44:54Z</time></trkpt><trkpt lat="48.95668617657983" lon="2.460767062291155"><ele>42.0</ele><time>2026-03-31T14:44:55Z</time></trkpt><trkpt lat="48.95683796318584" lon="2.461053434654752"><ele>43.5</ele><time>2026-03-31T14:44:56Z</time></trkpt><trkpt lat="48.95699011540987" lon="2.4613393880143946"><ele>45.0</ele><time>2026-03-31T14:44:57Z</time></trkpt><trkpt lat="48.957142338006385" lon="2.46162296465251"><ele>45.0</ele><time>2026-03-31T14:44:58Z</time></trkpt><trkpt lat="48.95729602368621" lon="2.4619049581139456"><ele>45.0</ele><time>2026-03-31T14:44:59Z</time></trkpt><trkpt lat="48.95744681765211" lon="2.4621869443241757"><ele>45.5</ele><time>2026-03-31T14:45:00Z</time></trkpt><trkpt lat="48.95759501508338" lon="2.462472533362902"><ele>46.0</ele><time>2026-03-31T14:45:01Z</time></trkpt><trkpt lat="48.957745704044285" lon="2.462759582395313"><ele>46.5</ele><time>2026-03-31T14:45:02Z</time></trkpt><trkpt lat="48.9579026115616" lon="2.4630532121398327"><ele>47.0</ele><time>2026-03-31T14:45:03Z</time></trkpt><trkpt lat="48.958065474424316" lon="2.463357476586945"><ele>47.0</ele><time>2026-03-31T14:45:04Z</time></trkpt><trkpt lat="48.95823470307307" lon="2.4636686774551153"><ele>47.0</ele><time>2026-03-31T14:45:05Z</time></trkpt><trkpt lat="48.958407091697175" lon="2.46398270159106"><ele>47.0</ele><time>2026-03-31T14:45:06Z</time></trkpt><trkpt lat="48.95857748620847" lon="2.464296495087008"><ele>47.0</ele><time>2026-03-31T14:45:07Z</time></trkpt><trkpt lat="48.958749157843066" lon="2.464612977553931"><ele>47.0</ele><time>2026-03-31T14:45:08Z</time></trkpt><trkpt lat="48.958923280119606" lon="2.464929545167417"><ele>47.0</ele><time>2026-03-31T14:45:09Z</time></trkpt><trkpt lat="48.9590950549442" lon="2.465246843076595"><ele>47.5</ele><time>2026-03-31T14:45:10Z</time></trkpt><trkpt lat="48.959266587007605" lon="2.465566170219004"><ele>48.0</ele><time>2026-03-31T14:45:11Z</time></trkpt><trkpt lat="48.95943587978936" lon="2.465876897500327"><ele>48.0</ele><time>2026-03-31T14:45:12Z</time></trkpt><trkpt lat="48.959608025787865" lon="2.466185645690725"><ele>48.0</ele><time>2026-03-31T14:45:13Z</time></trkpt><trkpt lat="48.95977229448556" lon="2.466472723032345"><ele>48.5</ele><time>2026-03-31T14:45:14Z</time></trkpt><trkpt lat="48.95993104147572" lon="2.466749405468567"><ele>49.0</ele><time>2026-03-31T14:45:15Z</time></trkpt><trkpt lat="48.960085614247724" lon="2.467026987100442"><ele>51.5</ele><time>2026-03-31T14:45:16Z</time></trkpt><trkpt lat="48.96024875845928" lon="2.4673058981066"><ele>54.0</ele><time>2026-03-31T14:45:17Z</time></trkpt><trkpt lat="48.96038660648957" lon="2.4675931753681866"><ele>54.0</ele><time>2026-03-31T14:45:18Z</time></trkpt><trkpt lat="48.96054521329771" lon="2.4678715161757494"><ele>54.0</ele><time>2026-03-31T14:45:19Z</time></trkpt><trkpt lat="48.96071607366357" lon="2.468154865639047"><ele>57.0</ele><time>2026-03-31T14:45:20Z</time></trkpt><trkpt lat="48.960884429537465" lon="2.468436697828135"><ele>60.0</ele><time>2026-03-31T14:45:21Z</time></trkpt><trkpt lat="48.96105191808762" lon="2.4687254868766786"><ele>57.5</ele><time>2026-03-31T14:45:22Z</time></trkpt><trkpt lat="48.96122161256897" lon="2.469009113677972"><ele>55.0</ele><time>2026-03-31T14:45:23Z</time></trkpt><trkpt lat="48.96139596649515" lon="2.4692822551383755"><ele>55.0</ele><time>2026-03-31T14:45:24Z</time></trkpt><trkpt lat="48.96156781528199" lon="2.4695449542769152"><ele>55.0</ele><time>2026-03-31T14:45:25Z</time></trkpt><trkpt lat="48.961735526790136" lon="2.469808829152152"><ele>57.5</ele><time>2026-03-31T14:45:26Z</time></trkpt><trkpt lat="48.9619012746111" lon="2.470066044966433"><ele>60.0</ele><time>2026-03-31T14:45:26.999Z</time></trkpt><trkpt lat="48.96206890947997" lon="2.4703216120560954"><ele>58.0</ele><time>2026-03-31T14:45:27.999Z</time></trkpt><trkpt lat="48.96223751816695" lon="2.4705777687079005"><ele>56.0</ele><time>2026-03-31T14:45:28.999Z</time></trkpt><trkpt lat="48.96240836441405" lon="2.4708366732617786"><ele>57.5</ele><time>2026-03-31T14:45:29.999Z</time></trkpt><trkpt lat="48.96258290678214" lon="2.4710991140249554"><ele>59.0</ele><time>2026-03-31T14:45:30.999Z</time></trkpt><trkpt lat="48.962761781331785" lon="2.4713691874629538"><ele>59.0</ele><time>2026-03-31T14:45:31.999Z</time></trkpt><trkpt lat="48.96294476095825" lon="2.4716416917204036"><ele>59.0</ele><time>2026-03-31T14:45:32.999Z</time></trkpt><trkpt lat="48.9631315043447" lon="2.4719210327840693"><ele>58.0</ele><time>2026-03-31T14:45:33.999Z</time></trkpt><trkpt lat="48.963312936199586" lon="2.472204222633053"><ele>57.0</ele><time>2026-03-31T14:45:34.999Z</time></trkpt><trkpt lat="48.96348392634649" lon="2.472483860463131"><ele>56.5</ele><time>2026-03-31T14:45:35.999Z</time></trkpt><trkpt lat="48.963660668476514" lon="2.4727692974653426"><ele>56.0</ele><time>2026-03-31T14:45:36.999Z</time></trkpt><trkpt lat="48.96382778691377" lon="2.4730385839033278"><ele>55.5</ele><time>2026-03-31T14:45:37.999Z</time></trkpt><trkpt lat="48.963985391014084" lon="2.473298804291854"><ele>55.0</ele><time>2026-03-31T14:45:38.999Z</time></trkpt><trkpt lat="48.964136565733114" lon="2.473552965383083"><ele>56.5</ele><time>2026-03-31T14:45:39.999Z</time></trkpt><trkpt lat="48.96428757025872" lon="2.4738154864714867"><ele>58.0</ele><time>2026-03-31T14:45:40.999Z</time></trkpt><trkpt lat="48.964435604252714" lon="2.4740905670712765"><ele>58.0</ele><time>2026-03-31T14:45:41.999Z</time></trkpt><trkpt lat="48.964577664345335" lon="2.474356182206596"><ele>58.0</ele><time>2026-03-31T14:45:42.999Z</time></trkpt><trkpt lat="48.96470962429764" lon="2.4746041599316193"><ele>58.0</ele><time>2026-03-31T14:45:43.999Z</time></trkpt><trkpt lat="48.964834668330184" lon="2.4748456785981663"><ele>58.0</ele><time>2026-03-31T14:45:44.999Z</time></trkpt><trkpt lat="48.964949628414224" lon="2.47508519410804"><ele>58.0</ele><time>2026-03-31T14:45:45.999Z</time></trkpt><trkpt lat="48.96506483953763" lon="2.475331250854677"><ele>58.0</ele><time>2026-03-31T14:45:46.999Z</time></trkpt><trkpt lat="48.96517552129059" lon="2.4755918857242873"><ele>58.33333333333333</ele><time>2026-03-31T14:45:47.999Z</time></trkpt><trkpt lat="48.965294701972745" lon="2.4758527483213797"><ele>58.66666666666667</ele><time>2026-03-31T14:45:48.999Z</time></trkpt><trkpt lat="48.96542020343751" lon="2.476115724968301"><ele>59.0</ele><time>2026-03-31T14:45:49.999Z</time></trkpt><trkpt lat="48.96555236920307" lon="2.4763762508082436"><ele>59.333333333333336</ele><time>2026-03-31T14:45:50.999Z</time></trkpt><trkpt lat="48.965688423021334" lon="2.4766372647794284"><ele>59.66666666666667</ele><time>2026-03-31T14:45:51.999Z</time></trkpt><trkpt lat="48.96583054383752" lon="2.4768996068343356"><ele>60.0</ele><time>2026-03-31T14:45:52.999Z</time></trkpt><trkpt lat="48.96597517504574" lon="2.4771720216216555"><ele>60.33333333333333</ele><time>2026-03-31T14:45:53.999Z</time></trkpt><trkpt lat="48.96611591499757" lon="2.477407101599487"><ele>60.666666666666664</ele><time>2026-03-31T14:45:54.999Z</time></trkpt><trkpt lat="48.966256680858706" lon="2.4776267049546328"><ele>61.0</ele><time>2026-03-31T14:45:55.999Z</time></trkpt><trkpt lat="48.966400502861916" lon="2.477845225946736"><ele>60.666666666666664</ele><time>2026-03-31T14:45:56.999Z</time></trkpt><trkpt lat="48.96655223000699" lon="2.478059057228242"><ele>60.33333333333333</ele><time>2026-03-31T14:45:57.999Z</time></trkpt><trkpt lat="48.96671059644095" lon="2.478267509544397"><ele>60.0</ele><time>2026-03-31T14:45:58.999Z</time></trkpt><trkpt lat="48.966867745163874" lon="2.478460245464415"><ele>60.0</ele><time>2026-03-31T14:45:59.999Z</time></trkpt><trkpt lat="48.96701988871085" lon="2.4786415233262287"><ele>60.0</ele><time>2026-03-31T14:46:00.999Z</time></trkpt><trkpt lat="48.96717057904078" lon="2.478823655812164"><ele>60.0</ele><time>2026-03-31T14:46:01.999Z</time></trkpt><trkpt lat="48.967324514708125" lon="2.479000284185306"><ele>60.0</ele><time>2026-03-31T14:46:02.999Z</time></trkpt><trkpt lat="48.96746367172086" lon="2.479162411383323"><ele>60.0</ele><time>2026-03-31T14:46:03.999Z</time></trkpt><trkpt lat="48.96760418451453" lon="2.4793212509628915"><ele>60.0</ele><time>2026-03-31T14:46:04.999Z</time></trkpt><trkpt lat="48.96774066440654" lon="2.479484674377792"><ele>60.33333333333333</ele><time>2026-03-31T14:46:05.999Z</time></trkpt><trkpt lat="48.96788096216797" lon="2.4796490066441166"><ele>60.666666666666664</ele><time>2026-03-31T14:46:06.999Z</time></trkpt><trkpt lat="48.96802151101407" lon="2.4798168730656536"><ele>61.0</ele><time>2026-03-31T14:46:07.999Z</time></trkpt><trkpt lat="48.96815864018605" lon="2.4799865388160556"><ele>61.0</ele><time>2026-03-31T14:46:08.999Z</time></trkpt><trkpt lat="48.96828411436824" lon="2.4801467524131917"><ele>61.0</ele><time>2026-03-31T14:46:09.999Z</time></trkpt><trkpt lat="48.9684082359878" lon="2.48030876077511"><ele>61.0</ele><time>2026-03-31T14:46:10.999Z</time></trkpt><trkpt lat="48.9685284858036" lon="2.48047380271433"><ele>61.666666666666664</ele><time>2026-03-31T14:46:11.999Z</time></trkpt><trkpt lat="48.9686501231372" lon="2.480645363143484"><ele>62.33333333333333</ele><time>2026-03-31T14:46:12.999Z</time></trkpt><trkpt lat="48.968772099560105" lon="2.48081527691664"><ele>63.0</ele><time>2026-03-31T14:46:13.999Z</time></trkpt><trkpt lat="48.96889526551289" lon="2.480989835156723"><ele>63.0</ele><time>2026-03-31T14:46:14.999Z</time></trkpt><trkpt lat="48.969018489140325" lon="2.4811678751687802"><ele>63.0</ele><time>2026-03-31T14:46:15.999Z</time></trkpt><trkpt lat="48.969143148151666" lon="2.4813430113554436"><ele>63.0</ele><time>2026-03-31T14:46:16.999Z</time></trkpt><trkpt lat="48.96926872612838" lon="2.4815250021251365"><ele>63.0</ele><time>2026-03-31T14:46:17.999Z</time></trkpt><trkpt lat="48.969394116803116" lon="2.481721515248318"><ele>63.0</ele><time>2026-03-31T14:46:18.999Z</time></trkpt><trkpt lat="48.96951408026371" lon="2.48191707626375"><ele>63.0</ele><time>2026-03-31T14:46:19.999Z</time></trkpt><trkpt lat="48.969643424530666" lon="2.4821013157033978"><ele>63.0</ele><time>2026-03-31T14:46:20.999Z</time></trkpt><trkpt lat="48.969773162751714" lon="2.482280147007327"><ele>63.0</ele><time>2026-03-31T14:46:21.999Z</time></trkpt><trkpt lat="48.96989504332209" lon="2.482450745314151"><ele>63.0</ele><time>2026-03-31T14:46:22.999Z</time></trkpt><trkpt lat="48.97000204882046" lon="2.482613035337368"><ele>63.25</ele><time>2026-03-31T14:46:23.999Z</time></trkpt><trkpt lat="48.97009803748498" lon="2.4827557123499036"><ele>63.5</ele><time>2026-03-31T14:46:24.999Z</time></trkpt><trkpt lat="48.97019068462818" lon="2.4828904293569187"><ele>63.75</ele><time>2026-03-31T14:46:25.998Z</time></trkpt><trkpt lat="48.970279137822516" lon="2.4830204488783565"><ele>64.0</ele><time>2026-03-31T14:46:26.998Z</time></trkpt><trkpt lat="48.970368011459215" lon="2.483159327683408"><ele>64.0</ele><time>2026-03-31T14:46:27.998Z</time></trkpt><trkpt lat="48.97047197772364" lon="2.483294616103959"><ele>64.0</ele><time>2026-03-31T14:46:28.998Z</time></trkpt><trkpt lat="48.97059911735128" lon="2.483427757821416"><ele>64.0</ele><time>2026-03-31T14:46:29.998Z</time></trkpt><trkpt lat="48.9707051054558" lon="2.4836102672259863"><ele>64.33333333333333</ele><time>2026-03-31T14:46:30.998Z</time></trkpt><trkpt lat="48.97083184333916" lon="2.4838211217823565"><ele>64.66666666666667</ele><time>2026-03-31T14:46:31.998Z</time></trkpt><trkpt lat="48.97096377413434" lon="2.4840307874291416"><ele>65.0</ele><time>2026-03-31T14:46:32.998Z</time></trkpt><trkpt lat="48.971108709657535" lon="2.4842463057929347"><ele>65.33333333333334</ele><time>2026-03-31T14:46:33.998Z</time></trkpt><trkpt lat="48.97125344516658" lon="2.484448887440341"><ele>65.66666666666667</ele><time>2026-03-31T14:46:34.998Z</time></trkpt><trkpt lat="48.971389234983924" lon="2.4846387198128332"><ele>66.0</ele><time>2026-03-31T14:46:35.998Z</time></trkpt><trkpt lat="48.97151794246909" lon="2.484833038210955"><ele>66.0</ele><time>2026-03-31T14:46:36.998Z</time></trkpt><trkpt lat="48.97164241015746" lon="2.4850283866421283"><ele>66.0</ele><time>2026-03-31T14:46:37.998Z</time></trkpt><trkpt lat="48.97177209115619" lon="2.485223894928027"><ele>66.0</ele><time>2026-03-31T14:46:38.998Z</time></trkpt><trkpt lat="48.97190132978327" lon="2.485419569503705"><ele>66.66666666666667</ele><time>2026-03-31T14:46:39.998Z</time></trkpt><trkpt lat="48.97202837863401" lon="2.485613804806327"><ele>67.33333333333334</ele><time>2026-03-31T14:46:40.998Z</time></trkpt><trkpt lat="48.97216330778627" lon="2.4858173082733988"><ele>68.0</ele><time>2026-03-31T14:46:41.998Z</time></trkpt><trkpt lat="48.97227760971493" lon="2.4860314079600894"><ele>68.0</ele><time>2026-03-31T14:46:42.998Z</time></trkpt><trkpt lat="48.97240758254669" lon="2.4862284144746565"><ele>68.0</ele><time>2026-03-31T14:46:43.998Z</time></trkpt><trkpt lat="48.97253924834854" lon="2.486446867134798"><ele>68.0</ele><time>2026-03-31T14:46:44.998Z</time></trkpt><trkpt lat="48.97268518722123" lon="2.4866558563164203"><ele>68.66666666666667</ele><time>2026-03-31T14:46:45.998Z</time></trkpt><trkpt lat="48.9728238388332" lon="2.486868688313133"><ele>69.33333333333333</ele><time>2026-03-31T14:46:47Z</time></trkpt><trkpt lat="48.972963805825025" lon="2.487084167415136"><ele>70.0</ele><time>2026-03-31T14:46:48Z</time></trkpt><trkpt lat="48.9731088486751" lon="2.487307357629302"><ele>70.0</ele><time>2026-03-31T14:46:49Z</time></trkpt><trkpt lat="48.973249943687776" lon="2.4875334947661556"><ele>70.0</ele><time>2026-03-31T14:46:50Z</time></trkpt><trkpt lat="48.97337740145451" lon="2.487741559177884"><ele>70.0</ele><time>2026-03-31T14:46:51Z</time></trkpt><trkpt lat="48.973499167458755" lon="2.4879363354590396"><ele>71.0</ele><time>2026-03-31T14:46:52Z</time></trkpt><trkpt lat="48.97361601902989" lon="2.4881193668275956"><ele>72.0</ele><time>2026-03-31T14:46:53Z</time></trkpt><trkpt lat="48.97373470122752" lon="2.4883003697571837"><ele>73.0</ele><time>2026-03-31T14:46:54Z</time></trkpt><trkpt lat="48.97385127153287" lon="2.4884839555638414"><ele>73.0</ele><time>2026-03-31T14:46:55Z</time></trkpt><trkpt lat="48.973964690812906" lon="2.488670325842778"><ele>73.0</ele><time>2026-03-31T14:46:56Z</time></trkpt><trkpt lat="48.97407669609958" lon="2.488852472502009"><ele>73.0</ele><time>2026-03-31T14:46:57Z</time></trkpt><trkpt lat="48.97419094442822" lon="2.489020667892089"><ele>73.0</ele><time>2026-03-31T14:46:58Z</time></trkpt><trkpt lat="48.974302489361925" lon="2.4891872998109728"><ele>73.0</ele><time>2026-03-31T14:46:59Z</time></trkpt><trkpt lat="48.97440720123597" lon="2.4893528830070975"><ele>73.0</ele><time>2026-03-31T14:47:00Z</time></trkpt><trkpt lat="48.97450940439809" lon="2.489507505439651"><ele>73.6</ele><time>2026-03-31T14:47:01Z</time></trkpt><trkpt lat="48.974596499042086" lon="2.4896398853905093"><ele>74.19999999999999</ele><time>2026-03-31T14:47:02Z</time></trkpt><trkpt lat="48.974654913449456" lon="2.489756933463653"><ele>74.8</ele><time>2026-03-31T14:47:03Z</time></trkpt><trkpt lat="48.974727367097856" lon="2.4898898070621596"><ele>75.39999999999999</ele><time>2026-03-31T14:47:04Z</time></trkpt><trkpt lat="48.9747881605873" lon="2.4900326641463764"><ele>76.0</ele><time>2026-03-31T14:47:05Z</time></trkpt><trkpt lat="48.97482916270881" lon="2.4901866390273772"><ele>76.0</ele><time>2026-03-31T14:47:06Z</time></trkpt><trkpt lat="48.97484738941516" lon="2.490337568296559"><ele>76.0</ele><time>2026-03-31T14:47:07Z</time></trkpt><trkpt lat="48.97483852745605" lon="2.490485813129241"><ele>76.0</ele><time>2026-03-31T14:47:08Z</time></trkpt><trkpt lat="48.9748136243906" lon="2.4906205927141403"><ele>76.0</ele><time>2026-03-31T14:47:09Z</time></trkpt><trkpt lat="48.97476357728429" lon="2.490736667596317"><ele>76.0</ele><time>2026-03-31T14:47:10Z</time></trkpt><trkpt lat="48.97468362518812" lon="2.4908370546961023"><ele>76.0</ele><time>2026-03-31T14:47:11Z</time></trkpt><trkpt lat="48.97460338517857" lon="2.490917590705055"><ele>76.0</ele><time>2026-03-31T14:47:12Z</time></trkpt><trkpt lat="48.97450876546923" lon="2.4909632890408586"><ele>76.0</ele><time>2026-03-31T14:47:13Z</time></trkpt><trkpt lat="48.974410829377" lon="2.4909953737534534"><ele>76.0</ele><time>2026-03-31T14:47:14Z</time></trkpt><trkpt lat="48.9743109216427" lon="2.491016492413321"><ele>76.0</ele><time>2026-03-31T14:47:15Z</time></trkpt><trkpt lat="48.974208234730405" lon="2.491021706964169"><ele>76.6</ele><time>2026-03-31T14:47:16Z</time></trkpt><trkpt lat="48.97410579828254" lon="2.4910183025825203"><ele>77.19999999999999</ele><time>2026-03-31T14:47:17Z</time></trkpt><trkpt lat="48.97400550829576" lon="2.490987323308587"><ele>77.80000000000001</ele><time>2026-03-31T14:47:18Z</time></trkpt><trkpt lat="48.97391110412768" lon="2.4909035956878323"><ele>78.4</ele><time>2026-03-31T14:47:19Z</time></trkpt><trkpt lat="48.97381699699221" lon="2.4908083612123706"><ele>79.0</ele><time>2026-03-31T14:47:20Z</time></trkpt><trkpt lat="48.97372604763129" lon="2.49069708808701"><ele>79.0</ele><time>2026-03-31T14:47:21Z</time></trkpt><trkpt lat="48.9737233920101" lon="2.490463324345441"><ele>79.0</ele><time>2026-03-31T14:47:23Z</time></trkpt><trkpt lat="48.97372850400235" lon="2.4903058612804605"><ele>79.0</ele><time>2026-03-31T14:47:24Z</time></trkpt><trkpt lat="48.97375846768194" lon="2.4901403000724662"><ele>79.0</ele><time>2026-03-31T14:47:25Z</time></trkpt><trkpt lat="48.97380018022169" lon="2.4899548955007162"><ele>78.66666666666666</ele><time>2026-03-31T14:47:26Z</time></trkpt><trkpt lat="48.97386184616697" lon="2.489754018919905"><ele>78.33333333333333</ele><time>2026-03-31T14:47:27Z</time></trkpt><trkpt lat="48.973916362351304" lon="2.4895266311830646"><ele>78.0</ele><time>2026-03-31T14:47:28Z</time></trkpt><trkpt lat="48.97397192315223" lon="2.4892883922748603"><ele>76.66666666666667</ele><time>2026-03-31T14:47:29Z</time></trkpt><trkpt lat="48.97402980541997" lon="2.489058421190813"><ele>75.33333333333334</ele><time>2026-03-31T14:47:30Z</time></trkpt><trkpt lat="48.974081735719246" lon="2.4888386319162943"><ele>74.0</ele><time>2026-03-31T14:47:30.999Z</time></trkpt><trkpt lat="48.974133801437475" lon="2.48863285769312"><ele>74.0</ele><time>2026-03-31T14:47:31.999Z</time></trkpt><trkpt lat="48.97420013091854" lon="2.488404183493532"><ele>74.0</ele><time>2026-03-31T14:47:32.999Z</time></trkpt><trkpt lat="48.974265025596615" lon="2.4881653513368205"><ele>74.0</ele><time>2026-03-31T14:47:33.999Z</time></trkpt><trkpt lat="48.97433075211546" lon="2.487948475508118"><ele>74.0</ele><time>2026-03-31T14:47:34.999Z</time></trkpt><trkpt lat="48.97439500356092" lon="2.4877469190415327"><ele>74.0</ele><time>2026-03-31T14:47:35.999Z</time></trkpt><trkpt lat="48.97446102368394" lon="2.487548903047262"><ele>74.0</ele><time>2026-03-31T14:47:36.999Z</time></trkpt><trkpt lat="48.97451767270736" lon="2.4873476042331846"><ele>74.0</ele><time>2026-03-31T14:47:37.999Z</time></trkpt><trkpt lat="48.97457214483175" lon="2.4871332668244284"><ele>74.0</ele><time>2026-03-31T14:47:38.999Z</time></trkpt><trkpt lat="48.974625222944304" lon="2.4869061649357183"><ele>74.0</ele><time>2026-03-31T14:47:39.999Z</time></trkpt><trkpt lat="48.97467947106111" lon="2.4866763709149753"><ele>74.0</ele><time>2026-03-31T14:47:40.999Z</time></trkpt><trkpt lat="48.974733831350264" lon="2.4864394242378958"><ele>73.66666666666667</ele><time>2026-03-31T14:47:41.999Z</time></trkpt><trkpt lat="48.97479071639062" lon="2.486203974882219"><ele>73.33333333333333</ele><time>2026-03-31T14:47:42.999Z</time></trkpt><trkpt lat="48.97484946499655" lon="2.4859728201849642"><ele>73.0</ele><time>2026-03-31T14:47:43.999Z</time></trkpt><trkpt lat="48.974915661662756" lon="2.4857409720149795"><ele>73.0</ele><time>2026-03-31T14:47:44.999Z</time></trkpt><trkpt lat="48.97498789602966" lon="2.4855019242309053"><ele>73.0</ele><time>2026-03-31T14:47:45.999Z</time></trkpt><trkpt lat="48.97506327184781" lon="2.4852545692950057"><ele>73.0</ele><time>2026-03-31T14:47:46.999Z</time></trkpt><trkpt lat="48.97513906518396" lon="2.4850106113985375"><ele>72.66666666666666</ele><time>2026-03-31T14:47:47.999Z</time></trkpt><trkpt lat="48.97521154423537" lon="2.4847667172487724"><ele>72.33333333333333</ele><time>2026-03-31T14:47:48.999Z</time></trkpt><trkpt lat="48.975281974417214" lon="2.484515003543913"><ele>72.0</ele><time>2026-03-31T14:47:49.999Z</time></trkpt><trkpt lat="48.9753572095487" lon="2.4842545283224036"><ele>72.0</ele><time>2026-03-31T14:47:50.999Z</time></trkpt><trkpt lat="48.97543415863947" lon="2.4839916307139687"><ele>72.0</ele><time>2026-03-31T14:47:51.999Z</time></trkpt><trkpt lat="48.975511034493564" lon="2.483725680939739"><ele>72.0</ele><time>2026-03-31T14:47:52.999Z</time></trkpt><trkpt lat="48.975590348984596" lon="2.483461703928259"><ele>71.66666666666667</ele><time>2026-03-31T14:47:53.999Z</time></trkpt><trkpt lat="48.97566732325204" lon="2.4831906119897504"><ele>71.33333333333334</ele><time>2026-03-31T14:47:54.999Z</time></trkpt><trkpt lat="48.97575047917338" lon="2.482907708549306"><ele>71.0</ele><time>2026-03-31T14:47:55.999Z</time></trkpt><trkpt lat="48.97583583803903" lon="2.4826172459082665"><ele>71.33333333333334</ele><time>2026-03-31T14:47:56.999Z</time></trkpt><trkpt lat="48.97592479276093" lon="2.4823131705584887"><ele>71.66666666666667</ele><time>2026-03-31T14:47:57.999Z</time></trkpt><trkpt lat="48.976013575403776" lon="2.4820075153415657"><ele>72.0</ele><time>2026-03-31T14:47:58.999Z</time></trkpt><trkpt lat="48.976099785432844" lon="2.4817028656319335"><ele>72.0</ele><time>2026-03-31T14:47:59.999Z</time></trkpt><trkpt lat="48.976185481418696" lon="2.4813997825301466"><ele>72.0</ele><time>2026-03-31T14:48:00.999Z</time></trkpt><trkpt lat="48.976261014098704" lon="2.481092551636695"><ele>72.0</ele><time>2026-03-31T14:48:01.999Z</time></trkpt><trkpt lat="48.97633705272046" lon="2.480782546208782"><ele>71.5</ele><time>2026-03-31T14:48:02.999Z</time></trkpt><trkpt lat="48.97641165824283" lon="2.4804576843769555"><ele>71.0</ele><time>2026-03-31T14:48:03.999Z</time></trkpt><trkpt lat="48.97648513546071" lon="2.4801290014216097"><ele>71.0</ele><time>2026-03-31T14:48:04.999Z</time></trkpt><trkpt lat="48.976553416885345" lon="2.4797951389380715"><ele>71.0</ele><time>2026-03-31T14:48:05.999Z</time></trkpt><trkpt lat="48.976619294292014" lon="2.479452480315705"><ele>70.0</ele><time>2026-03-31T14:48:06.999Z</time></trkpt><trkpt lat="48.976683399058196" lon="2.4791052297818434"><ele>69.0</ele><time>2026-03-31T14:48:07.999Z</time></trkpt><trkpt lat="48.97674241913603" lon="2.478762645471574"><ele>71.5</ele><time>2026-03-31T14:48:08.999Z</time></trkpt><trkpt lat="48.976795840649324" lon="2.478424022221021"><ele>74.0</ele><time>2026-03-31T14:48:09.999Z</time></trkpt><trkpt lat="48.97684503671166" lon="2.478094980780811"><ele>73.5</ele><time>2026-03-31T14:48:10.999Z</time></trkpt><trkpt lat="48.976893234828125" lon="2.4777360687121632"><ele>73.0</ele><time>2026-03-31T14:48:11.999Z</time></trkpt><trkpt lat="48.976939290532435" lon="2.477365027239188"><ele>72.5</ele><time>2026-03-31T14:48:12.999Z</time></trkpt><trkpt lat="48.97697849855784" lon="2.476987674830931"><ele>72.0</ele><time>2026-03-31T14:48:13.999Z</time></trkpt><trkpt lat="48.97701740010896" lon="2.476602114854715"><ele>72.0</ele><time>2026-03-31T14:48:14.999Z</time></trkpt><trkpt lat="48.97705044990251" lon="2.4762245097673214"><ele>72.0</ele><time>2026-03-31T14:48:15.999Z</time></trkpt><trkpt lat="48.97707920594854" lon="2.4758681743812283"><ele>72.0</ele><time>2026-03-31T14:48:16.999Z</time></trkpt><trkpt lat="48.977100238417236" lon="2.4755155042719443"><ele>72.0</ele><time>2026-03-31T14:48:17.999Z</time></trkpt><trkpt lat="48.97712687821808" lon="2.475153632708464"><ele>73.0</ele><time>2026-03-31T14:48:18.999Z</time></trkpt><trkpt lat="48.977146576101646" lon="2.474784823597509"><ele>74.0</ele><time>2026-03-31T14:48:19.999Z</time></trkpt><trkpt lat="48.97717008273653" lon="2.474460841353361"><ele>72.66666666666667</ele><time>2026-03-31T14:48:20.999Z</time></trkpt><trkpt lat="48.977182491309044" lon="2.474107951359037"><ele>71.33333333333333</ele><time>2026-03-31T14:48:21.999Z</time></trkpt><trkpt lat="48.977210373894636" lon="2.473781721677543"><ele>70.0</ele><time>2026-03-31T14:48:22.999Z</time></trkpt><trkpt lat="48.97723457768309" lon="2.4734354287586986"><ele>69.5</ele><time>2026-03-31T14:48:23.999Z</time></trkpt><trkpt lat="48.97725952585627" lon="2.4730868752683803"><ele>69.0</ele><time>2026-03-31T14:48:24.999Z</time></trkpt><trkpt lat="48.97728749870561" lon="2.472740736531605"><ele>68.5</ele><time>2026-03-31T14:48:25.999Z</time></trkpt><trkpt lat="48.9773116254924" lon="2.4723939654376954"><ele>68.0</ele><time>2026-03-31T14:48:26.999Z</time></trkpt><trkpt lat="48.9773323904867" lon="2.472045756652308"><ele>68.0</ele><time>2026-03-31T14:48:27.998Z</time></trkpt><trkpt lat="48.97735229215775" lon="2.4717086575093816"><ele>68.0</ele><time>2026-03-31T14:48:28.998Z</time></trkpt><trkpt lat="48.977371373946525" lon="2.4713759388667045"><ele>68.0</ele><time>2026-03-31T14:48:29.998Z</time></trkpt><trkpt lat="48.97739012813423" lon="2.471046595363981"><ele>68.0</ele><time>2026-03-31T14:48:30.998Z</time></trkpt><trkpt lat="48.97740743306076" lon="2.4707171169364672"><ele>68.0</ele><time>2026-03-31T14:48:31.998Z</time></trkpt><trkpt lat="48.97742512726595" lon="2.4703881039934763"><ele>68.0</ele><time>2026-03-31T14:48:32.998Z</time></trkpt><trkpt lat="48.97744469724387" lon="2.4700679092379536"><ele>68.33333333333334</ele><time>2026-03-31T14:48:33.998Z</time></trkpt><trkpt lat="48.97746660043536" lon="2.4697614457216734"><ele>68.66666666666667</ele><time>2026-03-31T14:48:34.998Z</time></trkpt><trkpt lat="48.97749752131387" lon="2.4694577253207277"><ele>69.0</ele><time>2026-03-31T14:48:35.998Z</time></trkpt><trkpt lat="48.97752175253078" lon="2.46916195459912"><ele>69.33333333333333</ele><time>2026-03-31T14:48:36.998Z</time></trkpt><trkpt lat="48.97753751780574" lon="2.4688724203228825"><ele>69.66666666666666</ele><time>2026-03-31T14:48:37.998Z</time></trkpt><trkpt lat="48.97755114749882" lon="2.4686059695906866"><ele>70.0</ele><time>2026-03-31T14:48:38.998Z</time></trkpt><trkpt lat="48.977568080383044" lon="2.4683507591550002"><ele>70.0</ele><time>2026-03-31T14:48:39.998Z</time></trkpt><trkpt lat="48.97758385250314" lon="2.4681046362077033"><ele>70.0</ele><time>2026-03-31T14:48:40.998Z</time></trkpt><trkpt lat="48.97760205371053" lon="2.467862213032706"><ele>70.0</ele><time>2026-03-31T14:48:41.998Z</time></trkpt><trkpt lat="48.97762305595087" lon="2.4676464951833204"><ele>69.75</ele><time>2026-03-31T14:48:42.998Z</time></trkpt><trkpt lat="48.97765671006973" lon="2.4674481916737716"><ele>69.5</ele><time>2026-03-31T14:48:43.998Z</time></trkpt><trkpt lat="48.97771093904894" lon="2.467255056909094"><ele>69.25</ele><time>2026-03-31T14:48:44.998Z</time></trkpt><trkpt lat="48.97778406892537" lon="2.4670646673796934"><ele>69.0</ele><time>2026-03-31T14:48:45.998Z</time></trkpt><trkpt lat="48.97787291006249" lon="2.4668900820438973"><ele>68.75</ele><time>2026-03-31T14:48:46.998Z</time></trkpt><trkpt lat="48.977967220955755" lon="2.4667287469605004"><ele>68.5</ele><time>2026-03-31T14:48:47.998Z</time></trkpt><trkpt lat="48.97806692758967" lon="2.4665790242460437"><ele>68.25</ele><time>2026-03-31T14:48:48.998Z</time></trkpt><trkpt lat="48.97816513552698" lon="2.4664326516451553"><ele>68.0</ele><time>2026-03-31T14:48:49.998Z</time></trkpt><trkpt lat="48.97826021622039" lon="2.4662860838425327"><ele>68.25</ele><time>2026-03-31T14:48:50.998Z</time></trkpt><trkpt lat="48.97835577888522" lon="2.4661395599665905"><ele>68.5</ele><time>2026-03-31T14:48:51.998Z</time></trkpt><trkpt lat="48.97845941232205" lon="2.4660039266947855"><ele>68.75</ele><time>2026-03-31T14:48:53Z</time></trkpt><trkpt lat="48.97857261630082" lon="2.465892235820641"><ele>69.0</ele><time>2026-03-31T14:48:54Z</time></trkpt><trkpt lat="48.97869976665085" lon="2.465818426637826"><ele>69.0</ele><time>2026-03-31T14:48:55Z</time></trkpt><trkpt lat="48.97883341439704" lon="2.46578287451664"><ele>69.0</ele><time>2026-03-31T14:48:56Z</time></trkpt><trkpt lat="48.97896941964818" lon="2.4657767458847197"><ele>69.0</ele><time>2026-03-31T14:48:57Z</time></trkpt><trkpt lat="48.97910330117472" lon="2.4657975747030045"><ele>69.0</ele><time>2026-03-31T14:48:58Z</time></trkpt><trkpt lat="48.97923414515974" lon="2.4658501987528796"><ele>68.66666666666667</ele><time>2026-03-31T14:48:59Z</time></trkpt><trkpt lat="48.979369254329896" lon="2.465930522298116"><ele>68.33333333333334</ele><time>2026-03-31T14:49:00Z</time></trkpt><trkpt lat="48.97950996645752" lon="2.4660359095402717"><ele>68.0</ele><time>2026-03-31T14:49:01Z</time></trkpt><trkpt lat="48.97966660567342" lon="2.4661738976848118"><ele>67.66666666666667</ele><time>2026-03-31T14:49:02Z</time></trkpt><trkpt lat="48.97983056043791" lon="2.466321674713687"><ele>67.33333333333333</ele><time>2026-03-31T14:49:03Z</time></trkpt><trkpt lat="48.98001238597613" lon="2.4664667657284376"><ele>67.0</ele><time>2026-03-31T14:49:04Z</time></trkpt><trkpt lat="48.980203369557" lon="2.4666081289786086"><ele>67.0</ele><time>2026-03-31T14:49:05Z</time></trkpt><trkpt lat="48.980397769560675" lon="2.466754774657509"><ele>67.0</ele><time>2026-03-31T14:49:06Z</time></trkpt><trkpt lat="48.980597419510545" lon="2.4669162161607066"><ele>67.0</ele><time>2026-03-31T14:49:07Z</time></trkpt><trkpt lat="48.98079527630756" lon="2.4670824519722925"><ele>66.0</ele><time>2026-03-31T14:49:08Z</time></trkpt><trkpt lat="48.980998636525214" lon="2.4672616603601196"><ele>65.0</ele><time>2026-03-31T14:49:09Z</time></trkpt><trkpt lat="48.98120132045162" lon="2.467434260078543"><ele>65.0</ele><time>2026-03-31T14:49:10Z</time></trkpt><trkpt lat="48.981407410351956" lon="2.467599337668618"><ele>65.0</ele><time>2026-03-31T14:49:11Z</time></trkpt><trkpt lat="48.98161241400854" lon="2.467758556068674"><ele>66.0</ele><time>2026-03-31T14:49:12Z</time></trkpt><trkpt lat="48.981818682743395" lon="2.4679169940470524"><ele>67.0</ele><time>2026-03-31T14:49:13Z</time></trkpt><trkpt lat="48.98202345445123" lon="2.4680760373666435"><ele>67.0</ele><time>2026-03-31T14:49:14Z</time></trkpt><trkpt lat="48.98222976384969" lon="2.4682408844067023"><ele>67.0</ele><time>2026-03-31T14:49:15Z</time></trkpt><trkpt lat="48.98243588410457" lon="2.4684110872705185"><ele>68.0</ele><time>2026-03-31T14:49:16Z</time></trkpt><trkpt lat="48.98264265128996" lon="2.4685907235563596"><ele>69.0</ele><time>2026-03-31T14:49:17Z</time></trkpt><trkpt lat="48.9828486235854" lon="2.468770783328228"><ele>69.0</ele><time>2026-03-31T14:49:18Z</time></trkpt><trkpt lat="48.98305293480143" lon="2.468952807140888"><ele>69.0</ele><time>2026-03-31T14:49:19Z</time></trkpt><trkpt lat="48.98325750409362" lon="2.4691348146471284"><ele>69.0</ele><time>2026-03-31T14:49:20Z</time></trkpt><trkpt lat="48.98345725427911" lon="2.469312870934826"><ele>69.0</ele><time>2026-03-31T14:49:21Z</time></trkpt><trkpt lat="48.98366854027152" lon="2.4694946748051403"><ele>69.5</ele><time>2026-03-31T14:49:22Z</time></trkpt><trkpt lat="48.983891365382625" lon="2.4696470730023314"><ele>70.0</ele><time>2026-03-31T14:49:23Z</time></trkpt><trkpt lat="48.98407540023738" lon="2.469880812481222"><ele>71.5</ele><time>2026-03-31T14:49:24Z</time></trkpt><trkpt lat="48.98427482230608" lon="2.470070849010166"><ele>73.0</ele><time>2026-03-31T14:49:25Z</time></trkpt><trkpt lat="48.98447684068431" lon="2.4702543250402984"><ele>73.0</ele><time>2026-03-31T14:49:26Z</time></trkpt><trkpt lat="48.98467762453329" lon="2.4704399594341977"><ele>73.0</ele><time>2026-03-31T14:49:27Z</time></trkpt><trkpt lat="48.98487821412255" lon="2.4706248236784125"><ele>72.5</ele><time>2026-03-31T14:49:28Z</time></trkpt><trkpt lat="48.9850787745265" lon="2.4708114781251482"><ele>72.0</ele><time>2026-03-31T14:49:28.999Z</time></trkpt><trkpt lat="48.98528200539019" lon="2.4709970227048483"><ele>72.0</ele><time>2026-03-31T14:49:29.999Z</time></trkpt><trkpt lat="48.98548507636007" lon="2.4711830214661203"><ele>72.0</ele><time>2026-03-31T14:49:30.999Z</time></trkpt><trkpt lat="48.98568509991065" lon="2.4713686558901693"><ele>70.5</ele><time>2026-03-31T14:49:31.999Z</time></trkpt><trkpt lat="48.98588896813202" lon="2.471556039863939"><ele>69.0</ele><time>2026-03-31T14:49:32.999Z</time></trkpt><trkpt lat="48.98609301900822" lon="2.4717468981106947"><ele>69.0</ele><time>2026-03-31T14:49:33.999Z</time></trkpt><trkpt lat="48.986301009978604" lon="2.471945117457876"><ele>69.0</ele><time>2026-03-31T14:49:34.999Z</time></trkpt><trkpt lat="48.98650482045546" lon="2.4721281967835336"><ele>70.0</ele><time>2026-03-31T14:49:35.999Z</time></trkpt><trkpt lat="48.986708227529185" lon="2.4723195549858796"><ele>71.0</ele><time>2026-03-31T14:49:36.999Z</time></trkpt><trkpt lat="48.98690826242261" lon="2.4725035323428397"><ele>71.0</ele><time>2026-03-31T14:49:37.999Z</time></trkpt><trkpt lat="48.98711458817209" lon="2.4726892585842197"><ele>71.0</ele><time>2026-03-31T14:49:38.999Z</time></trkpt><trkpt lat="48.98731389127826" lon="2.4728751539107146"><ele>71.0</ele><time>2026-03-31T14:49:39.999Z</time></trkpt><trkpt lat="48.98751008590338" lon="2.473060260809131"><ele>71.0</ele><time>2026-03-31T14:49:40.999Z</time></trkpt><trkpt lat="48.9877051381043" lon="2.4732437804949767"><ele>73.0</ele><time>2026-03-31T14:49:41.999Z</time></trkpt><trkpt lat="48.98790260771893" lon="2.4734217898885102"><ele>75.0</ele><time>2026-03-31T14:49:42.999Z</time></trkpt><trkpt lat="48.988100683795615" lon="2.4735892095915712"><ele>75.0</ele><time>2026-03-31T14:49:43.999Z</time></trkpt><trkpt lat="48.98829234166917" lon="2.473761425264408"><ele>75.0</ele><time>2026-03-31T14:49:44.999Z</time></trkpt><trkpt lat="48.98848400183629" lon="2.4739331924447816"><ele>75.0</ele><time>2026-03-31T14:49:45.999Z</time></trkpt><trkpt lat="48.988672468268724" lon="2.4741011711132948"><ele>76.33333333333333</ele><time>2026-03-31T14:49:46.999Z</time></trkpt><trkpt lat="48.98886550554444" lon="2.4742735529066606"><ele>77.66666666666666</ele><time>2026-03-31T14:49:47.999Z</time></trkpt><trkpt lat="48.989058315559085" lon="2.4744462319910205"><ele>79.0</ele><time>2026-03-31T14:49:48.999Z</time></trkpt><trkpt lat="48.989251366006904" lon="2.474614953178468"><ele>80.5</ele><time>2026-03-31T14:49:49.999Z</time></trkpt><trkpt lat="48.98944819298756" lon="2.474793924649452"><ele>82.0</ele><time>2026-03-31T14:49:50.999Z</time></trkpt><trkpt lat="48.98964787135984" lon="2.474975996839782"><ele>82.0</ele><time>2026-03-31T14:49:51.999Z</time></trkpt><trkpt lat="48.98985033281102" lon="2.4751550490228458"><ele>82.0</ele><time>2026-03-31T14:49:52.999Z</time></trkpt><trkpt lat="48.99005721965752" lon="2.475333331878965"><ele>82.0</ele><time>2026-03-31T14:49:53.999Z</time></trkpt><trkpt lat="48.990261078234994" lon="2.475515542087691"><ele>82.0</ele><time>2026-03-31T14:49:54.999Z</time></trkpt><trkpt lat="48.99047068080445" lon="2.47570273446233"><ele>82.0</ele><time>2026-03-31T14:49:55.999Z</time></trkpt><trkpt lat="48.990668141587186" lon="2.4758815079648113"><ele>82.0</ele><time>2026-03-31T14:49:56.999Z</time></trkpt><trkpt lat="48.99086928245786" lon="2.476068059457686"><ele>82.0</ele><time>2026-03-31T14:49:57.999Z</time></trkpt><trkpt lat="48.991072527717975" lon="2.4762461776978046"><ele>82.0</ele><time>2026-03-31T14:49:58.999Z</time></trkpt><trkpt lat="48.99127322064074" lon="2.476419137260058"><ele>82.0</ele><time>2026-03-31T14:49:59.999Z</time></trkpt><trkpt lat="48.9914780357704" lon="2.476596321952551"><ele>82.0</ele><time>2026-03-31T14:50:00.999Z</time></trkpt><trkpt lat="48.99167498213176" lon="2.4767799985451875"><ele>81.5</ele><time>2026-03-31T14:50:01.999Z</time></trkpt><trkpt lat="48.991875195713334" lon="2.476959216315678"><ele>81.0</ele><time>2026-03-31T14:50:02.999Z</time></trkpt><trkpt lat="48.99207600120156" lon="2.477137855867258"><ele>81.0</ele><time>2026-03-31T14:50:03.999Z</time></trkpt><trkpt lat="48.992277601739175" lon="2.477319801751693"><ele>81.0</ele><time>2026-03-31T14:50:04.999Z</time></trkpt><trkpt lat="48.99247842104444" lon="2.4775038273311107"><ele>79.5</ele><time>2026-03-31T14:50:05.999Z</time></trkpt><trkpt lat="48.99267989888585" lon="2.4776884005699977"><ele>78.0</ele><time>2026-03-31T14:50:06.999Z</time></trkpt><trkpt lat="48.99288375002848" lon="2.4778687922684326"><ele>79.0</ele><time>2026-03-31T14:50:07.999Z</time></trkpt><trkpt lat="48.993086953052035" lon="2.478050358427812"><ele>80.0</ele><time>2026-03-31T14:50:08.999Z</time></trkpt><trkpt lat="48.99328788862111" lon="2.478225653234152"><ele>81.0</ele><time>2026-03-31T14:50:09.999Z</time></trkpt><trkpt lat="48.99348823164797" lon="2.478406749016667"><ele>82.0</ele><time>2026-03-31T14:50:10.999Z</time></trkpt><trkpt lat="48.99368729484047" lon="2.478582499185577"><ele>82.0</ele><time>2026-03-31T14:50:11.999Z</time></trkpt><trkpt lat="48.99388336035388" lon="2.478758760167101"><ele>82.0</ele><time>2026-03-31T14:50:12.999Z</time></trkpt><trkpt lat="48.994078049949934" lon="2.478935728811463"><ele>83.66666666666666</ele><time>2026-03-31T14:50:13.999Z</time></trkpt><trkpt lat="48.99427001469353" lon="2.479111340060339"><ele>85.33333333333333</ele><time>2026-03-31T14:50:14.999Z</time></trkpt><trkpt lat="48.994458541774556" lon="2.479278430341571"><ele>87.0</ele><time>2026-03-31T14:50:15.999Z</time></trkpt><trkpt lat="48.99464535517083" lon="2.479445619957887"><ele>87.66666666666667</ele><time>2026-03-31T14:50:16.999Z</time></trkpt><trkpt lat="48.994832038320176" lon="2.479614692165286"><ele>88.33333333333334</ele><time>2026-03-31T14:50:17.999Z</time></trkpt><trkpt lat="48.99501751955585" lon="2.479785255469603"><ele>89.0</ele><time>2026-03-31T14:50:18.999Z</time></trkpt><trkpt lat="48.99520364937772" lon="2.4799528896483367"><ele>89.0</ele><time>2026-03-31T14:50:19.999Z</time></trkpt><trkpt lat="48.99539339093489" lon="2.4801151606022747"><ele>89.0</ele><time>2026-03-31T14:50:20.999Z</time></trkpt><trkpt lat="48.99558431704596" lon="2.480267495747294"><ele>89.0</ele><time>2026-03-31T14:50:21.999Z</time></trkpt><trkpt lat="48.99577541789448" lon="2.4804209683769316"><ele>89.33333333333334</ele><time>2026-03-31T14:50:22.998Z</time></trkpt><trkpt lat="48.995959941615844" lon="2.4805756367153227"><ele>89.66666666666667</ele><time>2026-03-31T14:50:23.998Z</time></trkpt><trkpt lat="48.99614045296889" lon="2.480730893048555"><ele>90.0</ele><time>2026-03-31T14:50:24.998Z</time></trkpt><trkpt lat="48.99631824627566" lon="2.4808809533835205"><ele>90.0</ele><time>2026-03-31T14:50:25.998Z</time></trkpt><trkpt lat="48.99649646251735" lon="2.481034958620835"><ele>90.0</ele><time>2026-03-31T14:50:26.998Z</time></trkpt><trkpt lat="48.99667660224658" lon="2.481192159752845"><ele>90.0</ele><time>2026-03-31T14:50:27.998Z</time></trkpt><trkpt lat="48.99685446466616" lon="2.4813544487592463"><ele>90.0</ele><time>2026-03-31T14:50:28.998Z</time></trkpt><trkpt lat="48.99703620249588" lon="2.4815173083272066"><ele>90.0</ele><time>2026-03-31T14:50:29.998Z</time></trkpt><trkpt lat="48.9972189951277" lon="2.481681242555325"><ele>90.0</ele><time>2026-03-31T14:50:30.998Z</time></trkpt><trkpt lat="48.99740113712725" lon="2.481845792103345"><ele>89.0</ele><time>2026-03-31T14:50:31.998Z</time></trkpt><trkpt lat="48.997575419036146" lon="2.4819974032719596"><ele>88.0</ele><time>2026-03-31T14:50:32.998Z</time></trkpt><trkpt lat="48.99775986911291" lon="2.482154838593998"><ele>87.0</ele><time>2026-03-31T14:50:33.998Z</time></trkpt><trkpt lat="48.9979473521973" lon="2.482310770180914"><ele>87.0</ele><time>2026-03-31T14:50:34.998Z</time></trkpt><trkpt lat="48.99813019607725" lon="2.4824899277680825"><ele>87.0</ele><time>2026-03-31T14:50:35.998Z</time></trkpt><trkpt lat="48.99832565122415" lon="2.4826707524962544"><ele>87.0</ele><time>2026-03-31T14:50:36.998Z</time></trkpt><trkpt lat="48.99852231607585" lon="2.482845686692389"><ele>85.33333333333333</ele><time>2026-03-31T14:50:37.998Z</time></trkpt><trkpt lat="48.99871476082876" lon="2.4830193845684336"><ele>83.66666666666666</ele><time>2026-03-31T14:50:38.998Z</time></trkpt><trkpt lat="48.998907528711" lon="2.4831970306638844"><ele>82.0</ele><time>2026-03-31T14:50:39.998Z</time></trkpt><trkpt lat="48.99909494751114" lon="2.4833699003274767"><ele>80.0</ele><time>2026-03-31T14:50:40.998Z</time></trkpt><trkpt lat="48.999281256913214" lon="2.483540934550373"><ele>78.0</ele><time>2026-03-31T14:50:41.998Z</time></trkpt><trkpt lat="48.999467825942695" lon="2.4837230008399387"><ele>76.0</ele><time>2026-03-31T14:50:42.998Z</time></trkpt><trkpt lat="48.99965842146282" lon="2.4839132949242333"><ele>76.0</ele><time>2026-03-31T14:50:43.998Z</time></trkpt><trkpt lat="48.99985276496439" lon="2.4841090292108543"><ele>76.0</ele><time>2026-03-31T14:50:44.998Z</time></trkpt><trkpt lat="49.000046322629714" lon="2.484313591586104"><ele>76.0</ele><time>2026-03-31T14:50:45.998Z</time></trkpt><trkpt lat="49.000241397103764" lon="2.484521841283164"><ele>76.0</ele><time>2026-03-31T14:50:46.998Z</time></trkpt><trkpt lat="49.000436125969124" lon="2.484735485770893"><ele>76.0</ele><time>2026-03-31T14:50:47.998Z</time></trkpt><trkpt lat="49.000630557133704" lon="2.4849494139353228"><ele>76.0</ele><time>2026-03-31T14:50:48.998Z</time></trkpt><trkpt lat="49.00082018673536" lon="2.485164868438026"><ele>73.0</ele><time>2026-03-31T14:50:49.998Z</time></trkpt><trkpt lat="49.001016166260065" lon="2.485392778807586"><ele>70.0</ele><time>2026-03-31T14:50:50.998Z</time></trkpt><trkpt lat="49.00121465140379" lon="2.48561598827553"><ele>70.0</ele><time>2026-03-31T14:50:51.998Z</time></trkpt><trkpt lat="49.0014133755465" lon="2.4858463926345475"><ele>70.0</ele><time>2026-03-31T14:50:52.998Z</time></trkpt><trkpt lat="49.00161362309917" lon="2.486072827925253"><ele>71.0</ele><time>2026-03-31T14:50:53.998Z</time></trkpt><trkpt lat="49.00181305120175" lon="2.4863040344175995"><ele>72.0</ele><time>2026-03-31T14:50:54.998Z</time></trkpt><trkpt lat="49.00201678547147" lon="2.4865339044780472"><ele>72.0</ele><time>2026-03-31T14:50:55.998Z</time></trkpt><trkpt lat="49.00221795285166" lon="2.4867654679746383"><ele>72.0</ele><time>2026-03-31T14:50:56.998Z</time></trkpt><trkpt lat="49.00240587025813" lon="2.4869844289282397"><ele>74.0</ele><time>2026-03-31T14:50:57.998Z</time></trkpt><trkpt lat="49.002598040649595" lon="2.4872084350344354"><ele>76.0</ele><time>2026-03-31T14:50:59Z</time></trkpt><trkpt lat="49.00278063037654" lon="2.4874277117048935"><ele>76.0</ele><time>2026-03-31T14:51:00Z</time></trkpt><trkpt lat="49.00296845106724" lon="2.4876404331873876"><ele>76.0</ele><time>2026-03-31T14:51:01Z</time></trkpt><trkpt lat="49.00315340137394" lon="2.487843639975784"><ele>78.5</ele><time>2026-03-31T14:51:02Z</time></trkpt><trkpt lat="49.003348350352454" lon="2.4880442656548722"><ele>81.0</ele><time>2026-03-31T14:51:03Z</time></trkpt><trkpt lat="49.00354480218204" lon="2.4882075333232914"><ele>81.0</ele><time>2026-03-31T14:51:04Z</time></trkpt><trkpt lat="49.003742923783776" lon="2.4883654648738625"><ele>81.0</ele><time>2026-03-31T14:51:05Z</time></trkpt><trkpt lat="49.003937121411575" lon="2.4885054232300767"><ele>81.0</ele><time>2026-03-31T14:51:06Z</time></trkpt><trkpt lat="49.00412914142997" lon="2.488647163963873"><ele>83.0</ele><time>2026-03-31T14:51:07Z</time></trkpt><trkpt lat="49.00432084280478" lon="2.488780002805776"><ele>85.0</ele><time>2026-03-31T14:51:08Z</time></trkpt><trkpt lat="49.00451384741202" lon="2.4889070945167697"><ele>87.0</ele><time>2026-03-31T14:51:09Z</time></trkpt><trkpt lat="49.004726339627695" lon="2.4890167128025253"><ele>87.0</ele><time>2026-03-31T14:51:10Z</time></trkpt><trkpt lat="49.00495315637461" lon="2.489122304995561"><ele>87.0</ele><time>2026-03-31T14:51:11Z</time></trkpt><trkpt lat="49.005184097025186" lon="2.4892308621897317"><ele>89.0</ele><time>2026-03-31T14:51:12Z</time></trkpt><trkpt lat="49.00541766375493" lon="2.4893474925444843"><ele>91.0</ele><time>2026-03-31T14:51:13Z</time></trkpt><trkpt lat="49.00565238996787" lon="2.4894601227228796"><ele>92.0</ele><time>2026-03-31T14:51:14Z</time></trkpt><trkpt lat="49.005887348905084" lon="2.4895578777376266"><ele>93.0</ele><time>2026-03-31T14:51:15Z</time></trkpt><trkpt lat="49.006125548033246" lon="2.48964687131003"><ele>93.0</ele><time>2026-03-31T14:51:16Z</time></trkpt><trkpt lat="49.00635998073862" lon="2.489734670379633"><ele>93.0</ele><time>2026-03-31T14:51:17Z</time></trkpt><trkpt lat="49.00659045361166" lon="2.4898187771454503"><ele>94.0</ele><time>2026-03-31T14:51:18Z</time></trkpt><trkpt lat="49.00681766510645" lon="2.4899046717574502"><ele>95.0</ele><time>2026-03-31T14:51:19Z</time></trkpt><trkpt lat="49.00705031137926" lon="2.4899892209536416"><ele>95.0</ele><time>2026-03-31T14:51:20Z</time></trkpt><trkpt lat="49.007275331357505" lon="2.4900776814531738"><ele>95.0</ele><time>2026-03-31T14:51:21Z</time></trkpt><trkpt lat="49.00749219582643" lon="2.490166101365772"><ele>96.5</ele><time>2026-03-31T14:51:22Z</time></trkpt><trkpt lat="49.00770736808407" lon="2.490258005136265"><ele>98.0</ele><time>2026-03-31T14:51:23Z</time></trkpt><trkpt lat="49.00792713736023" lon="2.490345182868065"><ele>98.0</ele><time>2026-03-31T14:51:24Z</time></trkpt><trkpt lat="49.0081505432827" lon="2.4904290883908073"><ele>98.0</ele><time>2026-03-31T14:51:25Z</time></trkpt><trkpt lat="49.00837732372825" lon="2.4905180079898828"><ele>98.5</ele><time>2026-03-31T14:51:26Z</time></trkpt><trkpt lat="49.00860707317678" lon="2.490598768466744"><ele>99.0</ele><time>2026-03-31T14:51:27Z</time></trkpt><trkpt lat="49.00883596759731" lon="2.490693961755106"><ele>99.0</ele><time>2026-03-31T14:51:28Z</time></trkpt><trkpt lat="49.009064588114306" lon="2.49078458194154"><ele>99.0</ele><time>2026-03-31T14:51:29Z</time></trkpt><trkpt lat="49.00929281628766" lon="2.4908730780621857"><ele>100.0</ele><time>2026-03-31T14:51:30Z</time></trkpt><trkpt lat="49.00952150193392" lon="2.490962760881014"><ele>101.0</ele><time>2026-03-31T14:51:31Z</time></trkpt><trkpt lat="49.00975082798027" lon="2.491049804405331"><ele>101.0</ele><time>2026-03-31T14:51:32Z</time></trkpt><trkpt lat="49.009979981732826" lon="2.491136456281025"><ele>101.0</ele><time>2026-03-31T14:51:33Z</time></trkpt><trkpt lat="49.010208118541385" lon="2.4912189338606883"><ele>101.5</ele><time>2026-03-31T14:51:34Z</time></trkpt><trkpt lat="49.010434441137136" lon="2.4913049333616524"><ele>102.0</ele><time>2026-03-31T14:51:35Z</time></trkpt><trkpt lat="49.01065658955532" lon="2.4913874038952266"><ele>102.5</ele><time>2026-03-31T14:51:36Z</time></trkpt><trkpt lat="49.01088018369988" lon="2.491471498677488"><ele>103.0</ele><time>2026-03-31T14:51:37Z</time></trkpt><trkpt lat="49.01110204622367" lon="2.4915553717460606"><ele>103.0</ele><time>2026-03-31T14:51:38Z</time></trkpt><trkpt lat="49.01132836448634" lon="2.491640900051564"><ele>103.0</ele><time>2026-03-31T14:51:39Z</time></trkpt><trkpt lat="49.01155899578738" lon="2.4917313905536465"><ele>103.5</ele><time>2026-03-31T14:51:40Z</time></trkpt><trkpt lat="49.01178956665643" lon="2.491820768346294"><ele>104.0</ele><time>2026-03-31T14:51:41Z</time></trkpt><trkpt lat="49.01201317297216" lon="2.4919057480028894"><ele>104.0</ele><time>2026-03-31T14:51:41.999Z</time></trkpt><trkpt lat="49.01223584236727" lon="2.4919894952816417"><ele>104.0</ele><time>2026-03-31T14:51:42.999Z</time></trkpt><trkpt lat="49.012464060966195" lon="2.492074528330126"><ele>104.0</ele><time>2026-03-31T14:51:43.999Z</time></trkpt><trkpt lat="49.01268897470542" lon="2.4921626291192154"><ele>104.0</ele><time>2026-03-31T14:51:44.999Z</time></trkpt><trkpt lat="49.01291598222903" lon="2.492247051004516"><ele>104.0</ele><time>2026-03-31T14:51:45.999Z</time></trkpt><trkpt lat="49.01313264500385" lon="2.492329341676302"><ele>104.0</ele><time>2026-03-31T14:51:46.999Z</time></trkpt><trkpt lat="49.01334731437822" lon="2.4924127510223264"><ele>104.0</ele><time>2026-03-31T14:51:47.999Z</time></trkpt><trkpt lat="49.01356034762895" lon="2.4924990562983953"><ele>104.0</ele><time>2026-03-31T14:51:48.999Z</time></trkpt><trkpt lat="49.013773409814384" lon="2.4925794346841856"><ele>104.0</ele><time>2026-03-31T14:51:49.999Z</time></trkpt><trkpt lat="49.01398463958173" lon="2.492665354891283"><ele>104.0</ele><time>2026-03-31T14:51:50.999Z</time></trkpt><trkpt lat="49.01420058428354" lon="2.4927474261156237"><ele>104.0</ele><time>2026-03-31T14:51:51.999Z</time></trkpt><trkpt lat="49.01441638268822" lon="2.4928296784163217"><ele>104.0</ele><time>2026-03-31T14:51:52.999Z</time></trkpt><trkpt lat="49.014633606268546" lon="2.49290793349209"><ele>104.0</ele><time>2026-03-31T14:51:53.999Z</time></trkpt><trkpt lat="49.01486064510021" lon="2.492994801071301"><ele>104.5</ele><time>2026-03-31T14:51:54.999Z</time></trkpt><trkpt lat="49.015086446580185" lon="2.4930817101890934"><ele>105.0</ele><time>2026-03-31T14:51:55.999Z</time></trkpt><trkpt lat="49.01531570111103" lon="2.493174705393018"><ele>105.0</ele><time>2026-03-31T14:51:56.999Z</time></trkpt><trkpt lat="49.01554159537185" lon="2.493272278462209"><ele>105.0</ele><time>2026-03-31T14:51:57.999Z</time></trkpt><trkpt lat="49.01576579933255" lon="2.4933783132316836"><ele>105.0</ele><time>2026-03-31T14:51:58.999Z</time></trkpt><trkpt lat="49.01598287151181" lon="2.4934839546560585"><ele>105.0</ele><time>2026-03-31T14:51:59.999Z</time></trkpt><trkpt lat="49.01618935359065" lon="2.493597733299726"><ele>105.0</ele><time>2026-03-31T14:52:00.999Z</time></trkpt><trkpt lat="49.01638673228" lon="2.493704729449392"><ele>105.0</ele><time>2026-03-31T14:52:01.999Z</time></trkpt><trkpt lat="49.016580777025375" lon="2.4938183003243806"><ele>105.0</ele><time>2026-03-31T14:52:02.999Z</time></trkpt><trkpt lat="49.01677553583885" lon="2.493934499410276"><ele>105.0</ele><time>2026-03-31T14:52:03.999Z</time></trkpt><trkpt lat="49.016971021930864" lon="2.4940572193374924"><ele>105.0</ele><time>2026-03-31T14:52:04.999Z</time></trkpt><trkpt lat="49.01716339910368" lon="2.4941807262194615"><ele>105.0</ele><time>2026-03-31T14:52:05.999Z</time></trkpt><trkpt lat="49.01735413989189" lon="2.4942978887898115"><ele>105.0</ele><time>2026-03-31T14:52:06.999Z</time></trkpt><trkpt lat="49.01755002608928" lon="2.4944248419812878"><ele>105.33333333333334</ele><time>2026-03-31T14:52:07.999Z</time></trkpt><trkpt lat="49.01774103471976" lon="2.4945463489385125"><ele>105.66666666666667</ele><time>2026-03-31T14:52:08.999Z</time></trkpt><trkpt lat="49.01793485884227" lon="2.494670568845352"><ele>106.0</ele><time>2026-03-31T14:52:09.999Z</time></trkpt><trkpt lat="49.01813076699028" lon="2.494795793979199"><ele>106.0</ele><time>2026-03-31T14:52:10.999Z</time></trkpt><trkpt lat="49.01832430750193" lon="2.4949221075815724"><ele>106.0</ele><time>2026-03-31T14:52:11.999Z</time></trkpt><trkpt lat="49.01852213624845" lon="2.4950453533309105"><ele>106.0</ele><time>2026-03-31T14:52:12.999Z</time></trkpt><trkpt lat="49.01872519869594" lon="2.4951695079131606"><ele>106.0</ele><time>2026-03-31T14:52:13.999Z</time></trkpt><trkpt lat="49.01892295003315" lon="2.4952918922681198"><ele>106.0</ele><time>2026-03-31T14:52:14.999Z</time></trkpt><trkpt lat="49.01912022533509" lon="2.495419482762433"><ele>106.0</ele><time>2026-03-31T14:52:15.999Z</time></trkpt><trkpt lat="49.01931925083617" lon="2.4955472436418757"><ele>105.33333333333334</ele><time>2026-03-31T14:52:16.999Z</time></trkpt><trkpt lat="49.01951848811571" lon="2.4956744047923003"><ele>104.66666666666666</ele><time>2026-03-31T14:52:17.999Z</time></trkpt><trkpt lat="49.01971726578138" lon="2.495801222651831"><ele>104.0</ele><time>2026-03-31T14:52:18.999Z</time></trkpt><trkpt lat="49.019913202081774" lon="2.4959290651432067"><ele>104.0</ele><time>2026-03-31T14:52:19.999Z</time></trkpt><trkpt lat="49.02011543648295" lon="2.496056305601179"><ele>104.0</ele><time>2026-03-31T14:52:20.999Z</time></trkpt><trkpt lat="49.02031517848847" lon="2.4961843682230835"><ele>104.0</ele><time>2026-03-31T14:52:21.999Z</time></trkpt><trkpt lat="49.02051247893078" lon="2.496313325959557"><ele>104.33333333333333</ele><time>2026-03-31T14:52:22.999Z</time></trkpt><trkpt lat="49.02071092392509" lon="2.496442588269167"><ele>104.66666666666666</ele><time>2026-03-31T14:52:23.999Z</time></trkpt><trkpt lat="49.020912639712364" lon="2.4965703008756877"><ele>105.0</ele><time>2026-03-31T14:52:24.999Z</time></trkpt><trkpt lat="49.02111119425783" lon="2.4966913772415564"><ele>105.0</ele><time>2026-03-31T14:52:25.999Z</time></trkpt><trkpt lat="49.02131157146426" lon="2.4968215134620015"><ele>105.0</ele><time>2026-03-31T14:52:26.999Z</time></trkpt><trkpt lat="49.02150533608443" lon="2.496943622688998"><ele>105.0</ele><time>2026-03-31T14:52:27.999Z</time></trkpt><trkpt lat="49.02169392987541" lon="2.497068738889238"><ele>105.0</ele><time>2026-03-31T14:52:28.999Z</time></trkpt><trkpt lat="49.02188309587877" lon="2.497190582021057"><ele>105.0</ele><time>2026-03-31T14:52:29.999Z</time></trkpt><trkpt lat="49.02207207726698" lon="2.497308440246166"><ele>105.0</ele><time>2026-03-31T14:52:30.999Z</time></trkpt><trkpt lat="49.02225914233851" lon="2.497431263572773"><ele>105.0</ele><time>2026-03-31T14:52:31.999Z</time></trkpt><trkpt lat="49.022445647213836" lon="2.4975523449323473"><ele>105.0</ele><time>2026-03-31T14:52:32.999Z</time></trkpt><trkpt lat="49.02263519388169" lon="2.49767286570338"><ele>105.0</ele><time>2026-03-31T14:52:33.999Z</time></trkpt><trkpt lat="49.02282445430694" lon="2.4977927641687665"><ele>104.33333333333334</ele><time>2026-03-31T14:52:34.999Z</time></trkpt><trkpt lat="49.02301337868852" lon="2.49790794888387"><ele>103.66666666666667</ele><time>2026-03-31T14:52:35.999Z</time></trkpt><trkpt lat="49.02320231778459" lon="2.4980314316940384"><ele>103.0</ele><time>2026-03-31T14:52:36.999Z</time></trkpt><trkpt lat="49.02338316977816" lon="2.498143927956504"><ele>102.33333333333334</ele><time>2026-03-31T14:52:37.999Z</time></trkpt><trkpt lat="49.023569402048764" lon="2.498268966107564"><ele>101.66666666666666</ele><time>2026-03-31T14:52:38.998Z</time></trkpt><trkpt lat="49.02375460863253" lon="2.4983952960230766"><ele>101.0</ele><time>2026-03-31T14:52:39.998Z</time></trkpt><trkpt lat="49.023935079261896" lon="2.4985341318211693"><ele>101.0</ele><time>2026-03-31T14:52:40.998Z</time></trkpt><trkpt lat="49.02411393955856" lon="2.498677689876038"><ele>101.0</ele><time>2026-03-31T14:52:41.998Z</time></trkpt><trkpt lat="49.02429216412673" lon="2.498820312286909"><ele>101.0</ele><time>2026-03-31T14:52:42.998Z</time></trkpt><trkpt lat="49.02446099131965" lon="2.4989587594794846"><ele>101.33333333333333</ele><time>2026-03-31T14:52:43.998Z</time></trkpt><trkpt lat="49.024625516550564" lon="2.499098345490393"><ele>101.66666666666666</ele><time>2026-03-31T14:52:44.998Z</time></trkpt><trkpt lat="49.0247804502284" lon="2.4992307226990143"><ele>102.0</ele><time>2026-03-31T14:52:45.998Z</time></trkpt><trkpt lat="49.024934002176536" lon="2.499356880643984"><ele>102.0</ele><time>2026-03-31T14:52:46.998Z</time></trkpt><trkpt lat="49.025089343359895" lon="2.4994801962045456"><ele>102.0</ele><time>2026-03-31T14:52:47.998Z</time></trkpt><trkpt lat="49.02524413084507" lon="2.4995982276578297"><ele>102.0</ele><time>2026-03-31T14:52:48.998Z</time></trkpt><trkpt lat="49.02540178902801" lon="2.4997084825471747"><ele>102.0</ele><time>2026-03-31T14:52:49.998Z</time></trkpt><trkpt lat="49.02556062628363" lon="2.4997987493807026"><ele>102.0</ele><time>2026-03-31T14:52:50.998Z</time></trkpt><trkpt lat="49.02572150076075" lon="2.499874267979586"><ele>102.0</ele><time>2026-03-31T14:52:51.998Z</time></trkpt><trkpt lat="49.02588507826041" lon="2.4999250609904746"><ele>102.0</ele><time>2026-03-31T14:52:52.998Z</time></trkpt><trkpt lat="49.02604515488776" lon="2.499961220555024"><ele>102.0</ele><time>2026-03-31T14:52:53.998Z</time></trkpt><trkpt lat="49.02619485480112" lon="2.499974373514385"><ele>102.0</ele><time>2026-03-31T14:52:54.998Z</time></trkpt><trkpt lat="49.02633574492872" lon="2.4999932035963135"><ele>102.0</ele><time>2026-03-31T14:52:55.998Z</time></trkpt><trkpt lat="49.02646370125537" lon="2.499961115066976"><ele>102.0</ele><time>2026-03-31T14:52:56.998Z</time></trkpt><trkpt lat="49.026590411965394" lon="2.4999435607100775"><ele>102.0</ele><time>2026-03-31T14:52:57.998Z</time></trkpt><trkpt lat="49.02670394318009" lon="2.4999151140708538"><ele>102.0</ele><time>2026-03-31T14:52:58.998Z</time></trkpt><trkpt lat="49.02679803982363" lon="2.4998878757939824"><ele>101.39999999999999</ele><time>2026-03-31T14:52:59.998Z</time></trkpt><trkpt lat="49.02688634114168" lon="2.499858821834099"><ele>100.8</ele><time>2026-03-31T14:53:00.998Z</time></trkpt><trkpt lat="49.02696957734039" lon="2.499820466290768"><ele>100.2</ele><time>2026-03-31T14:53:01.998Z</time></trkpt><trkpt lat="49.02706784312982" lon="2.4997745441345574"><ele>99.6</ele><time>2026-03-31T14:53:02.998Z</time></trkpt><trkpt lat="49.027177654116414" lon="2.499736111961543"><ele>99.0</ele><time>2026-03-31T14:53:03.998Z</time></trkpt><trkpt lat="49.02728898562519" lon="2.499696874498011"><ele>99.0</ele><time>2026-03-31T14:53:05Z</time></trkpt><trkpt lat="49.02740053726503" lon="2.499668646921704"><ele>99.0</ele><time>2026-03-31T14:53:06Z</time></trkpt><trkpt lat="49.02751008787391" lon="2.499644522663749"><ele>99.0</ele><time>2026-03-31T14:53:07Z</time></trkpt><trkpt lat="49.027618846210416" lon="2.4996243752486254"><ele>99.0</ele><time>2026-03-31T14:53:08Z</time></trkpt><trkpt lat="49.02772866213298" lon="2.4996106612734668"><ele>99.0</ele><time>2026-03-31T14:53:09Z</time></trkpt><trkpt lat="49.0278364664277" lon="2.4996139618070514"><ele>99.0</ele><time>2026-03-31T14:53:10Z</time></trkpt><trkpt lat="49.02794348116258" lon="2.4996180579556015"><ele>99.0</ele><time>2026-03-31T14:53:11Z</time></trkpt><trkpt lat="49.02804979021781" lon="2.4996236166031305"><ele>99.0</ele><time>2026-03-31T14:53:12Z</time></trkpt><trkpt lat="49.028151894385275" lon="2.499641057996508"><ele>99.0</ele><time>2026-03-31T14:53:13Z</time></trkpt><trkpt lat="49.028252463481074" lon="2.499664208631073"><ele>99.0</ele><time>2026-03-31T14:53:14Z</time></trkpt><trkpt lat="49.02834745167505" lon="2.4996863718838966"><ele>99.0</ele><time>2026-03-31T14:53:15Z</time></trkpt><trkpt lat="49.02845082069356" lon="2.4997125390262918"><ele>99.0</ele><time>2026-03-31T14:53:16Z</time></trkpt><trkpt lat="49.02855794216444" lon="2.4997488848285756"><ele>99.0</ele><time>2026-03-31T14:53:17Z</time></trkpt><trkpt lat="49.02865728494813" lon="2.4998046470532733"><ele>99.0</ele><time>2026-03-31T14:53:18Z</time></trkpt><trkpt lat="49.02874556360141" lon="2.499885660588984"><ele>99.0</ele><time>2026-03-31T14:53:19Z</time></trkpt><trkpt lat="49.02881391436236" lon="2.5000030461422456"><ele>99.0</ele><time>2026-03-31T14:53:20Z</time></trkpt><trkpt lat="49.02887474512503" lon="2.50013075094843"><ele>99.0</ele><time>2026-03-31T14:53:21Z</time></trkpt><trkpt lat="49.02892431184853" lon="2.500261753351441"><ele>99.0</ele><time>2026-03-31T14:53:22Z</time></trkpt><trkpt lat="49.0289762622856" lon="2.500390070884973"><ele>99.0</ele><time>2026-03-31T14:53:23Z</time></trkpt><trkpt lat="49.02904577683472" lon="2.5004925150716715"><ele>99.0</ele><time>2026-03-31T14:53:24Z</time></trkpt><trkpt lat="49.029128261117066" lon="2.500566294820691"><ele>98.80000000000001</ele><time>2026-03-31T14:53:25Z</time></trkpt><trkpt lat="49.02921524913654" lon="2.500625412305214"><ele>98.60000000000001</ele><time>2026-03-31T14:53:26Z</time></trkpt><trkpt lat="49.02931190567056" lon="2.5006711595883577"><ele>98.4</ele><time>2026-03-31T14:53:27Z</time></trkpt><trkpt lat="49.02941616695833" lon="2.5006896480647156"><ele>98.2</ele><time>2026-03-31T14:53:28Z</time></trkpt><trkpt lat="49.02952097429923" lon="2.5006817927431726"><ele>98.0</ele><time>2026-03-31T14:53:29Z</time></trkpt><trkpt lat="49.029622852914144" lon="2.5006458170494428"><ele>98.0</ele><time>2026-03-31T14:53:30Z</time></trkpt><trkpt lat="49.02971971638623" lon="2.500582151089254"><ele>98.0</ele><time>2026-03-31T14:53:31Z</time></trkpt><trkpt lat="49.0298121100204" lon="2.500497564354204"><ele>98.0</ele><time>2026-03-31T14:53:32Z</time></trkpt><trkpt lat="49.029900805825505" lon="2.500411541546099"><ele>98.0</ele><time>2026-03-31T14:53:33Z</time></trkpt><trkpt lat="49.030009773315186" lon="2.500371531923188"><ele>98.0</ele><time>2026-03-31T14:53:34Z</time></trkpt><trkpt lat="49.030118493553275" lon="2.5003559081745483"><ele>98.2</ele><time>2026-03-31T14:53:35Z</time></trkpt><trkpt lat="49.03022807149108" lon="2.500372048197645"><ele>98.4</ele><time>2026-03-31T14:53:36Z</time></trkpt><trkpt lat="49.030329985281654" lon="2.5004267166266736"><ele>98.60000000000001</ele><time>2026-03-31T14:53:37Z</time></trkpt><trkpt lat="49.03041668328491" lon="2.5005109829204284"><ele>98.80000000000001</ele><time>2026-03-31T14:53:38Z</time></trkpt><trkpt lat="49.03050725484142" lon="2.500626884118587"><ele>99.0</ele><time>2026-03-31T14:53:39Z</time></trkpt><trkpt lat="49.03061593393885" lon="2.5007718579804576"><ele>99.0</ele><time>2026-03-31T14:53:40Z</time></trkpt><trkpt lat="49.03072390556279" lon="2.5009522596585003"><ele>99.0</ele><time>2026-03-31T14:53:41Z</time></trkpt><trkpt lat="49.03083301463141" lon="2.5011624849765264"><ele>99.0</ele><time>2026-03-31T14:53:42Z</time></trkpt><trkpt lat="49.03093635573568" lon="2.501389998277839"><ele>99.66666666666666</ele><time>2026-03-31T14:53:43Z</time></trkpt><trkpt lat="49.0310496258987" lon="2.501653739125663"><ele>100.33333333333333</ele><time>2026-03-31T14:53:44Z</time></trkpt><trkpt lat="49.03115215939501" lon="2.5019294686529725"><ele>101.0</ele><time>2026-03-31T14:53:45Z</time></trkpt><trkpt lat="49.03125448169327" lon="2.5022025758502497"><ele>101.33333333333333</ele><time>2026-03-31T14:53:45.999Z</time></trkpt><trkpt lat="49.03135721840072" lon="2.5024692153333348"><ele>101.66666666666666</ele><time>2026-03-31T14:53:46.999Z</time></trkpt><trkpt lat="49.03146727887692" lon="2.5027270391582648"><ele>102.0</ele><time>2026-03-31T14:53:47.999Z</time></trkpt><trkpt lat="49.031588726622736" lon="2.502966143245597"><ele>102.33333333333334</ele><time>2026-03-31T14:53:48.999Z</time></trkpt><trkpt lat="49.03172636619644" lon="2.5031886743576406"><ele>102.66666666666667</ele><time>2026-03-31T14:53:49.999Z</time></trkpt><trkpt lat="49.03187769522557" lon="2.5033890536541614"><ele>103.0</ele><time>2026-03-31T14:53:50.999Z</time></trkpt><trkpt lat="49.03203787628443" lon="2.503571510678166"><ele>103.0</ele><time>2026-03-31T14:53:51.999Z</time></trkpt><trkpt lat="49.03220565960302" lon="2.503732850509972"><ele>103.0</ele><time>2026-03-31T14:53:52.999Z</time></trkpt><trkpt lat="49.03237813164417" lon="2.50387407040859"><ele>103.0</ele><time>2026-03-31T14:53:53.999Z</time></trkpt><trkpt lat="49.03255509228667" lon="2.5039968866596647"><ele>102.66666666666667</ele><time>2026-03-31T14:53:54.999Z</time></trkpt><trkpt lat="49.032739375363036" lon="2.504107158640844"><ele>102.33333333333334</ele><time>2026-03-31T14:53:55.999Z</time></trkpt><trkpt lat="49.032924343611874" lon="2.504223611250068"><ele>102.0</ele><time>2026-03-31T14:53:56.999Z</time></trkpt><trkpt lat="49.03310333381767" lon="2.504348060745453"><ele>102.0</ele><time>2026-03-31T14:53:57.999Z</time></trkpt><trkpt lat="49.03328024260208" lon="2.5044667050340865"><ele>102.0</ele><time>2026-03-31T14:53:58.999Z</time></trkpt><trkpt lat="49.0334547785381" lon="2.5045829883865722"><ele>102.0</ele><time>2026-03-31T14:53:59.999Z</time></trkpt><trkpt lat="49.03362989128936" lon="2.504696125586341"><ele>101.66666666666666</ele><time>2026-03-31T14:54:00.999Z</time></trkpt><trkpt lat="49.033799210135925" lon="2.504805106589607"><ele>101.33333333333333</ele><time>2026-03-31T14:54:01.999Z</time></trkpt><trkpt lat="49.03396119960837" lon="2.5049092389681995"><ele>101.0</ele><time>2026-03-31T14:54:02.999Z</time></trkpt><trkpt lat="49.03412566242899" lon="2.5050189963484084"><ele>100.33333333333333</ele><time>2026-03-31T14:54:03.999Z</time></trkpt><trkpt lat="49.034290081654675" lon="2.5051313472233145"><ele>99.66666666666666</ele><time>2026-03-31T14:54:04.999Z</time></trkpt><trkpt lat="49.03445778808982" lon="2.5052445770077085"><ele>99.0</ele><time>2026-03-31T14:54:05.999Z</time></trkpt><trkpt lat="49.03462940615567" lon="2.505360838829753"><ele>98.66666666666666</ele><time>2026-03-31T14:54:06.999Z</time></trkpt><trkpt lat="49.03480244273608" lon="2.5054800167068745"><ele>98.33333333333333</ele><time>2026-03-31T14:54:07.999Z</time></trkpt><trkpt lat="49.034973467194256" lon="2.5056083042303814"><ele>98.0</ele><time>2026-03-31T14:54:08.999Z</time></trkpt><trkpt lat="49.035144570181224" lon="2.505738754789698"><ele>96.66666666666666</ele><time>2026-03-31T14:54:09.999Z</time></trkpt><trkpt lat="49.035315588820914" lon="2.5058708512000147"><ele>95.33333333333333</ele><time>2026-03-31T14:54:10.999Z</time></trkpt><trkpt lat="49.03548850720636" lon="2.5060095375906464"><ele>94.0</ele><time>2026-03-31T14:54:11.999Z</time></trkpt><trkpt lat="49.03566417705894" lon="2.5061532268950177"><ele>93.33333333333333</ele><time>2026-03-31T14:54:12.999Z</time></trkpt><trkpt lat="49.03584306894621" lon="2.506301830909167"><ele>92.66666666666667</ele><time>2026-03-31T14:54:13.999Z</time></trkpt><trkpt lat="49.03602493463393" lon="2.506454880105578"><ele>92.0</ele><time>2026-03-31T14:54:14.999Z</time></trkpt><trkpt lat="49.03620426494202" lon="2.5066045701066066"><ele>92.0</ele><time>2026-03-31T14:54:15.999Z</time></trkpt><trkpt lat="49.036383001341804" lon="2.5067569285312956"><ele>92.0</ele><time>2026-03-31T14:54:16.999Z</time></trkpt><trkpt lat="49.03656346085822" lon="2.5069100491109997"><ele>92.0</ele><time>2026-03-31T14:54:17.999Z</time></trkpt><trkpt lat="49.03674196007341" lon="2.507063371630717"><ele>91.33333333333334</ele><time>2026-03-31T14:54:18.999Z</time></trkpt><trkpt lat="49.03691841662098" lon="2.507213632325339"><ele>90.66666666666667</ele><time>2026-03-31T14:54:19.999Z</time></trkpt><trkpt lat="49.037091544049645" lon="2.50736332150249"><ele>90.0</ele><time>2026-03-31T14:54:20.999Z</time></trkpt><trkpt lat="49.03726003249891" lon="2.5075131576020646"><ele>90.0</ele><time>2026-03-31T14:54:21.999Z</time></trkpt><trkpt lat="49.03743631081477" lon="2.507662300206271"><ele>90.0</ele><time>2026-03-31T14:54:22.999Z</time></trkpt><trkpt lat="49.03761388707005" lon="2.507813863851474"><ele>90.0</ele><time>2026-03-31T14:54:23.999Z</time></trkpt><trkpt lat="49.03778864953207" lon="2.507963445514699"><ele>88.33333333333333</ele><time>2026-03-31T14:54:24.999Z</time></trkpt><trkpt lat="49.037963899305964" lon="2.508108176584218"><ele>86.66666666666666</ele><time>2026-03-31T14:54:25.999Z</time></trkpt><trkpt lat="49.03813785792625" lon="2.508257771906308"><ele>85.0</ele><time>2026-03-31T14:54:26.999Z</time></trkpt><trkpt lat="49.03831072077494" lon="2.508410600168667"><ele>82.33333333333333</ele><time>2026-03-31T14:54:27.999Z</time></trkpt><trkpt lat="49.03848469663543" lon="2.5085637538905843"><ele>79.66666666666667</ele><time>2026-03-31T14:54:28.999Z</time></trkpt><trkpt lat="49.03865832013035" lon="2.5087121110219175"><ele>77.0</ele><time>2026-03-31T14:54:29.999Z</time></trkpt><trkpt lat="49.03883421328715" lon="2.5088621930552653"><ele>76.66666666666667</ele><time>2026-03-31T14:54:30.999Z</time></trkpt><trkpt lat="49.03900984543097" lon="2.5090076270472785"><ele>76.33333333333333</ele><time>2026-03-31T14:54:31.999Z</time></trkpt><trkpt lat="49.03918836061839" lon="2.509153933590113"><ele>76.0</ele><time>2026-03-31T14:54:32.999Z</time></trkpt><trkpt lat="49.03936694997118" lon="2.509296753695152"><ele>76.0</ele><time>2026-03-31T14:54:33.999Z</time></trkpt><trkpt lat="49.03954451124177" lon="2.5094363405630804"><ele>76.0</ele><time>2026-03-31T14:54:34.999Z</time></trkpt><trkpt lat="49.03972370585154" lon="2.5095683749696236"><ele>76.0</ele><time>2026-03-31T14:54:35.999Z</time></trkpt><trkpt lat="49.03990655247012" lon="2.509695106860101"><ele>79.0</ele><time>2026-03-31T14:54:36.999Z</time></trkpt><trkpt lat="49.040094138616254" lon="2.5098110901056696"><ele>82.0</ele><time>2026-03-31T14:54:37.999Z</time></trkpt><trkpt lat="49.040277159988534" lon="2.5099144687359236"><ele>85.0</ele><time>2026-03-31T14:54:38.999Z</time></trkpt><trkpt lat="49.04046062898832" lon="2.5100191738802735"><ele>85.0</ele><time>2026-03-31T14:54:39.999Z</time></trkpt><trkpt lat="49.04064300508216" lon="2.5101167819040744"><ele>85.0</ele><time>2026-03-31T14:54:40.998Z</time></trkpt><trkpt lat="49.04082642095832" lon="2.51020778334484"><ele>85.0</ele><time>2026-03-31T14:54:41.998Z</time></trkpt><trkpt lat="49.04100919532425" lon="2.5102912329917944"><ele>86.33333333333333</ele><time>2026-03-31T14:54:42.998Z</time></trkpt><trkpt lat="49.04118981291227" lon="2.510364624177598"><ele>87.66666666666667</ele><time>2026-03-31T14:54:43.998Z</time></trkpt><trkpt lat="49.041370224764144" lon="2.510436039855953"><ele>89.0</ele><time>2026-03-31T14:54:44.998Z</time></trkpt><trkpt lat="49.04155060929352" lon="2.5104968196887234"><ele>91.0</ele><time>2026-03-31T14:54:45.998Z</time></trkpt><trkpt lat="49.04173622648193" lon="2.510556315974657"><ele>93.0</ele><time>2026-03-31T14:54:46.998Z</time></trkpt><trkpt lat="49.04191089417832" lon="2.51060443414239"><ele>95.0</ele><time>2026-03-31T14:54:47.998Z</time></trkpt><trkpt lat="49.04209029584652" lon="2.510649600475695"><ele>95.0</ele><time>2026-03-31T14:54:48.998Z</time></trkpt><trkpt lat="49.042265738437756" lon="2.5106876598272683"><ele>95.0</ele><time>2026-03-31T14:54:49.998Z</time></trkpt><trkpt lat="49.04243592901508" lon="2.5107230317149747"><ele>95.0</ele><time>2026-03-31T14:54:50.998Z</time></trkpt><trkpt lat="49.04259485889316" lon="2.5107536142363776"><ele>95.5</ele><time>2026-03-31T14:54:51.998Z</time></trkpt><trkpt lat="49.04274819001419" lon="2.5107851424827783"><ele>96.0</ele><time>2026-03-31T14:54:52.998Z</time></trkpt><trkpt lat="49.04289428005761" lon="2.5108144617081187"><ele>96.5</ele><time>2026-03-31T14:54:53.998Z</time></trkpt><trkpt lat="49.04302917655359" lon="2.5108402672836356"><ele>97.0</ele><time>2026-03-31T14:54:54.998Z</time></trkpt><trkpt lat="49.043146509490434" lon="2.51086157434957"><ele>97.0</ele><time>2026-03-31T14:54:55.998Z</time></trkpt><trkpt lat="49.043250293320696" lon="2.5108831723006824"><ele>97.0</ele><time>2026-03-31T14:54:56.998Z</time></trkpt><trkpt lat="49.0433396407977" lon="2.5109021863866174"><ele>97.0</ele><time>2026-03-31T14:54:57.998Z</time></trkpt><trkpt lat="49.04341978052333" lon="2.510918078308568"><ele>97.0</ele><time>2026-03-31T14:54:58.998Z</time></trkpt><trkpt lat="49.043522090447915" lon="2.5109339278372294"><ele>97.0</ele><time>2026-03-31T14:55:00.998Z</time></trkpt><trkpt lat="49.043609894238074" lon="2.5109300069904843"><ele>97.66666666666667</ele><time>2026-03-31T14:55:02.998Z</time></trkpt><trkpt lat="49.043680860768376" lon="2.5109439447455677"><ele>98.33333333333334</ele><time>2026-03-31T14:55:04.998Z</time></trkpt><trkpt lat="49.0437627194336" lon="2.510958830512402"><ele>99.0</ele><time>2026-03-31T14:55:06.998Z</time></trkpt><trkpt lat="49.04387760694649" lon="2.510978154458957"><ele>99.66666666666666</ele><time>2026-03-31T14:55:08.998Z</time></trkpt><trkpt lat="49.043948393650886" lon="2.510995367287714"><ele>100.33333333333333</ele><time>2026-03-31T14:55:09.998Z</time></trkpt><trkpt lat="49.044020225266166" lon="2.511010088158419"><ele>101.0</ele><time>2026-03-31T14:55:11Z</time></trkpt><trkpt lat="49.04414674151442" lon="2.511041048546754"><ele>101.6</ele><time>2026-03-31T14:55:13Z</time></trkpt><trkpt lat="49.044257087050035" lon="2.5110639980165868"><ele>102.19999999999999</ele><time>2026-03-31T14:55:15Z</time></trkpt><trkpt lat="49.04437699553584" lon="2.511089655624532"><ele>102.80000000000001</ele><time>2026-03-31T14:55:17Z</time></trkpt><trkpt lat="49.044442103169864" lon="2.511106270440581"><ele>103.4</ele><time>2026-03-31T14:55:18Z</time></trkpt><trkpt lat="49.04450940838802" lon="2.5111208529535163"><ele>104.0</ele><time>2026-03-31T14:55:19Z</time></trkpt><trkpt lat="49.04461964930328" lon="2.5111528240973975"><ele>103.99999999999999</ele><time>2026-03-31T14:55:21Z</time></trkpt><trkpt lat="49.04469257941102" lon="2.5111723144613256"><ele>104.0</ele><time>2026-03-31T14:55:23Z</time></trkpt><trkpt lat="49.04477520789429" lon="2.511184905484787"><ele>104.0</ele><time>2026-03-31T14:55:26Z</time></trkpt><trkpt lat="49.044856885246716" lon="2.5112048744402533"><ele>104.0</ele><time>2026-03-31T14:55:31Z</time></trkpt><trkpt lat="49.04494073595662" lon="2.511222548498948"><ele>103.99999999999999</ele><time>2026-03-31T14:55:34Z</time></trkpt><trkpt lat="49.0450064376824" lon="2.5112364304848604"><ele>104.0</ele><time>2026-03-31T14:55:38Z</time></trkpt><trkpt lat="49.045075158833804" lon="2.5112562345921132"><ele>103.83333333333333</ele><time>2026-03-31T14:55:45Z</time></trkpt><trkpt lat="49.04516258360458" lon="2.511281742658412"><ele>103.66666666666666</ele><time>2026-03-31T14:55:48Z</time></trkpt><trkpt lat="49.04523152666476" lon="2.5113052704190957"><ele>103.5</ele><time>2026-03-31T14:55:50Z</time></trkpt><trkpt lat="49.04530208678944" lon="2.5113305553358707"><ele>103.33333333333334</ele><time>2026-03-31T14:55:52Z</time></trkpt><trkpt lat="49.04539289081371" lon="2.511359709160316"><ele>103.16666666666667</ele><time>2026-03-31T14:55:53.999Z</time></trkpt><trkpt lat="49.04549829581477" lon="2.5113968847690002"><ele>103.0</ele><time>2026-03-31T14:55:55.999Z</time></trkpt><trkpt lat="49.045561047094715" lon="2.5114299948480547"><ele>103.00000000000001</ele><time>2026-03-31T14:55:56.999Z</time></trkpt><trkpt lat="49.04563230426884" lon="2.5115013919195373"><ele>103.0</ele><time>2026-03-31T14:55:57.999Z</time></trkpt><trkpt lat="49.04568716276749" lon="2.511586211555249"><ele>103.0</ele><time>2026-03-31T14:55:58.999Z</time></trkpt><trkpt lat="49.04573407021164" lon="2.511690680178231"><ele>103.0</ele><time>2026-03-31T14:55:59.999Z</time></trkpt><trkpt lat="49.045803670458504" lon="2.511767881626333"><ele>103.00000000000001</ele><time>2026-03-31T14:56:00.999Z</time></trkpt><trkpt lat="49.04588543494365" lon="2.511791104604854"><ele>103.0</ele><time>2026-03-31T14:56:01.999Z</time></trkpt><trkpt lat="49.045965922265744" lon="2.5117683628201393"><ele>103.4</ele><time>2026-03-31T14:56:02.999Z</time></trkpt><trkpt lat="49.04602866629964" lon="2.5116656216999496"><ele>103.80000000000001</ele><time>2026-03-31T14:56:03.999Z</time></trkpt><trkpt lat="49.046071938052876" lon="2.511563318439549"><ele>104.2</ele><time>2026-03-31T14:56:04.999Z</time></trkpt><trkpt lat="49.04610541065675" lon="2.5114553309756915"><ele>104.6</ele><time>2026-03-31T14:56:05.999Z</time></trkpt><trkpt lat="49.046056100494496" lon="2.5113002469068944"><ele>105.0</ele><time>2026-03-31T14:56:06.999Z</time></trkpt><trkpt lat="49.046013003697986" lon="2.511171194630519"><ele>105.0</ele><time>2026-03-31T14:56:07.999Z</time></trkpt><trkpt lat="49.04595727140453" lon="2.5110480455024256"><ele>105.0</ele><time>2026-03-31T14:56:08.999Z</time></trkpt><trkpt lat="49.045902313097756" lon="2.510921286122076"><ele>105.0</ele><time>2026-03-31T14:56:09.999Z</time></trkpt><trkpt lat="49.04586344884611" lon="2.5107849727353977"><ele>105.0</ele><time>2026-03-31T14:56:10.999Z</time></trkpt><trkpt lat="49.04582588844087" lon="2.5106422176932077"><ele>105.0</ele><time>2026-03-31T14:56:11.999Z</time></trkpt><trkpt lat="49.04578299931601" lon="2.5105006729114674"><ele>105.5</ele><time>2026-03-31T14:56:12.999Z</time></trkpt><trkpt lat="49.04574223531538" lon="2.5103633430968424"><ele>106.0</ele><time>2026-03-31T14:56:13.999Z</time></trkpt><trkpt lat="49.04570676532354" lon="2.5102270089179672"><ele>106.5</ele><time>2026-03-31T14:56:14.999Z</time></trkpt><trkpt lat="49.045671507082254" lon="2.510101836760749"><ele>107.0</ele><time>2026-03-31T14:56:15.999Z</time></trkpt><trkpt lat="49.04564443265669" lon="2.5099851029387414"><ele>107.5</ele><time>2026-03-31T14:56:16.999Z</time></trkpt><trkpt lat="49.04565025080839" lon="2.5098768944881695"><ele>108.0</ele><time>2026-03-31T14:56:17.999Z</time></trkpt><trkpt lat="49.045679315254475" lon="2.509781016364728"><ele>108.0</ele><time>2026-03-31T14:56:18.999Z</time></trkpt><trkpt lat="49.04569011955241" lon="2.509658641677128"><ele>108.0</ele><time>2026-03-31T14:56:20.999Z</time></trkpt><trkpt lat="49.045584779626495" lon="2.5096071782019735"><ele>108.0</ele><time>2026-03-31T14:56:22.999Z</time></trkpt><trkpt lat="49.045512747476046" lon="2.509589197044146"><ele>108.0</ele><time>2026-03-31T14:56:23.999Z</time></trkpt><trkpt lat="49.045437406640076" lon="2.5095379032433827"><ele>108.0</ele><time>2026-03-31T14:56:24.999Z</time></trkpt><trkpt lat="49.04536409732886" lon="2.509477317357184"><ele>108.0</ele><time>2026-03-31T14:56:25.999Z</time></trkpt><trkpt lat="49.04528259874821" lon="2.5094156825724068"><ele>108.5</ele><time>2026-03-31T14:56:26.999Z</time></trkpt><trkpt lat="49.045203682083084" lon="2.5093579888028796"><ele>109.0</ele><time>2026-03-31T14:56:27.999Z</time></trkpt><trkpt lat="49.04512816232188" lon="2.509302527046716"><ele>109.5</ele><time>2026-03-31T14:56:28.999Z</time></trkpt><trkpt lat="49.04505672083486" lon="2.509245064043622"><ele>110.0</ele><time>2026-03-31T14:56:29.999Z</time></trkpt><trkpt lat="49.04498000701747" lon="2.509187207870257"><ele>110.5</ele><time>2026-03-31T14:56:30.999Z</time></trkpt><trkpt lat="49.044910502100024" lon="2.5091235966666665"><ele>111.0</ele><time>2026-03-31T14:56:31.999Z</time></trkpt><trkpt lat="49.04482430963238" lon="2.5090638546981787"><ele>111.0</ele><time>2026-03-31T14:56:32.999Z</time></trkpt><trkpt lat="49.04474480383906" lon="2.509003843548501"><ele>111.0</ele><time>2026-03-31T14:56:33.999Z</time></trkpt><trkpt lat="49.044673299617926" lon="2.508944552178244"><ele>111.0</ele><time>2026-03-31T14:56:34.999Z</time></trkpt><trkpt lat="49.04460052022737" lon="2.5088945979873634"><ele>111.0</ele><time>2026-03-31T14:56:35.999Z</time></trkpt><trkpt lat="49.044526135343595" lon="2.508828564385382"><ele>111.0</ele><time>2026-03-31T14:56:36.999Z</time></trkpt><trkpt lat="49.04445222982264" lon="2.508770416421071"><ele>111.0</ele><time>2026-03-31T14:56:37.999Z</time></trkpt><trkpt lat="49.044374822515955" lon="2.5087171767385015"><ele>111.33333333333333</ele><time>2026-03-31T14:56:38.999Z</time></trkpt><trkpt lat="49.04430631607724" lon="2.5086630649158193"><ele>111.66666666666666</ele><time>2026-03-31T14:56:39.999Z</time></trkpt><trkpt lat="49.04424411568638" lon="2.5086190067153376"><ele>112.0</ele><time>2026-03-31T14:56:40.999Z</time></trkpt><trkpt lat="49.04418509981697" lon="2.5085802108075517"><ele>112.33333333333333</ele><time>2026-03-31T14:56:41.999Z</time></trkpt><trkpt lat="49.04408869126913" lon="2.5085187325955802"><ele>112.66666666666666</ele><time>2026-03-31T14:56:43.999Z</time></trkpt><trkpt lat="49.04399667224438" lon="2.508461856131552"><ele>113.0</ele><time>2026-03-31T14:56:45.999Z</time></trkpt><trkpt lat="49.043921918821404" lon="2.508416609446363"><ele>111.4</ele><time>2026-03-31T14:56:47.999Z</time></trkpt><trkpt lat="49.04384016910252" lon="2.508361485285335"><ele>109.80000000000001</ele><time>2026-03-31T14:56:49.998Z</time></trkpt><trkpt lat="49.0437348469152" lon="2.508300409933459"><ele>108.2</ele><time>2026-03-31T14:56:51.998Z</time></trkpt><trkpt lat="49.043623950760036" lon="2.5082399478894772"><ele>106.6</ele><time>2026-03-31T14:56:53.998Z</time></trkpt><trkpt lat="49.04353343243302" lon="2.5081853057867978"><ele>105.0</ele><time>2026-03-31T14:56:55.998Z</time></trkpt><trkpt lat="49.04343915911593" lon="2.5081297629627533"><ele>105.0</ele><time>2026-03-31T14:56:57.998Z</time></trkpt><trkpt lat="49.043360285451605" lon="2.508101177211686"><ele>105.0</ele><time>2026-03-31T14:56:59.998Z</time></trkpt><trkpt lat="49.04330350439014" lon="2.5080575955956097"><ele>105.0</ele><time>2026-03-31T14:57:02.998Z</time></trkpt><trkpt lat="49.04325979849715" lon="2.508232013968304"><ele>105.0</ele><time>2026-03-31T14:57:03.998Z</time></trkpt><trkpt lat="49.043243502879704" lon="2.5083270734398053"><ele>105.0</ele><time>2026-03-31T14:57:06.998Z</time></trkpt><trkpt lat="49.04319338940084" lon="2.5084520075275156"><ele>105.0</ele><time>2026-03-31T14:57:09.998Z</time></trkpt><trkpt lat="49.04316033786435" lon="2.508586214956415"><ele>104.28571428571429</ele><time>2026-03-31T14:57:11.998Z</time></trkpt><trkpt lat="49.04313575086237" lon="2.5086817085915656"><ele>103.57142857142857</ele><time>2026-03-31T14:57:19Z</time></trkpt><trkpt lat="49.043160317424004" lon="2.50858629796899"><ele>102.85714285714286</ele><time>2026-03-31T14:58:16.999Z</time></trkpt><trkpt lat="49.04318456012699" lon="2.5084878596294446"><ele>102.14285714285714</ele><time>2026-03-31T14:58:20.999Z</time></trkpt><trkpt lat="49.043155995216736" lon="2.508395589776308"><ele>101.42857142857143</ele><time>2026-03-31T14:58:26.999Z</time></trkpt><trkpt lat="49.043193903722894" lon="2.5083134073707556"><ele>100.71428571428572</ele><time>2026-03-31T14:58:31.999Z</time></trkpt><trkpt lat="49.04317454132848" lon="2.508216851346967"><ele>100.0</ele><time>2026-03-31T14:58:35.999Z</time></trkpt><trkpt lat="49.043121612951296" lon="2.508156207488216"><ele>100.00000000000001</ele><time>2026-03-31T14:58:49.999Z</time></trkpt><trkpt lat="49.043166134661725" lon="2.5080657227305387"><ele>100.0</ele><time>2026-03-31T14:59:33Z</time></trkpt><trkpt lat="49.043086617887504" lon="2.5080760519529277"><ele>100.0</ele><time>2026-03-31T14:59:40Z</time></trkpt><trkpt lat="49.04313632919185" lon="2.5081982735575012"><ele>100.0</ele><time>2026-03-31T15:00:29.999Z</time></trkpt><trkpt lat="49.043193610310645" lon="2.5082593016191455"><ele>100.00000000000001</ele><time>2026-03-31T15:00:32.999Z</time></trkpt><trkpt lat="49.043197393738375" lon="2.5083644859648286"><ele>100.0</ele><time>2026-03-31T15:00:39.999Z</time></trkpt><trkpt lat="49.0431780434072" lon="2.5084648530816"><ele>100.00000000000001</ele><time>2026-03-31T15:00:44.999Z</time></trkpt><trkpt lat="49.04316090230547" lon="2.5085831616073166"><ele>100.0</ele><time>2026-03-31T15:00:49.999Z</time></trkpt><trkpt lat="49.043184908603685" lon="2.508677603247031"><ele>100.0</ele><time>2026-03-31T15:00:54.999Z</time></trkpt><trkpt lat="49.043250302119354" lon="2.508733784362889"><ele>100.0</ele><time>2026-03-31T15:01:15.998Z</time></trkpt><trkpt lat="49.04314191250952" lon="2.508645491392359"><ele>100.00000000000001</ele><time>2026-03-31T15:02:55.999Z</time></trkpt><trkpt lat="49.04317204246068" lon="2.5085531214238554"><ele>100.0</ele><time>2026-03-31T15:02:57.999Z</time></trkpt><trkpt lat="49.04321764795922" lon="2.5084494737264347"><ele>100.00000000000001</ele><time>2026-03-31T15:02:59.999Z</time></trkpt><trkpt lat="49.04325146568223" lon="2.5083510447270334"><ele>100.0</ele><time>2026-03-31T15:03:02.999Z</time></trkpt><trkpt lat="49.0432761372736" lon="2.5082564283843967"><ele>100.0</ele><time>2026-03-31T15:03:12.998Z</time></trkpt><trkpt lat="49.04331164086206" lon="2.5081511245137214"><ele>100.0</ele><time>2026-03-31T15:03:15.998Z</time></trkpt><trkpt lat="49.043404559407" lon="2.5081435209622422"><ele>100.00000000000001</ele><time>2026-03-31T15:03:18.998Z</time></trkpt><trkpt lat="49.043517465204914" lon="2.5082038549558363"><ele>100.0</ele><time>2026-03-31T15:03:20.998Z</time></trkpt><trkpt lat="49.0435916596842" lon="2.5082312612289943"><ele>100.83333333333334</ele><time>2026-03-31T15:03:21.998Z</time></trkpt><trkpt lat="49.043675596344116" lon="2.5082854706466047"><ele>101.66666666666667</ele><time>2026-03-31T15:03:22.998Z</time></trkpt><trkpt lat="49.0437472432163" lon="2.508337697101444"><ele>102.5</ele><time>2026-03-31T15:03:23.998Z</time></trkpt><trkpt lat="49.04382148177719" lon="2.508385549630734"><ele>103.33333333333334</ele><time>2026-03-31T15:03:24.998Z</time></trkpt><trkpt lat="49.04393420630855" lon="2.5084481165182377"><ele>104.16666666666667</ele><time>2026-03-31T15:03:26.998Z</time></trkpt><trkpt lat="49.04399972328987" lon="2.5084884813080204"><ele>105.0</ele><time>2026-03-31T15:03:27.998Z</time></trkpt><trkpt lat="49.044067488193356" lon="2.5085285797310437"><ele>106.0</ele><time>2026-03-31T15:03:28.998Z</time></trkpt><trkpt lat="49.044139168238004" lon="2.5085804651615313"><ele>107.0</ele><time>2026-03-31T15:03:29.998Z</time></trkpt><trkpt lat="49.04420992658795" lon="2.5086242037594872"><ele>108.0</ele><time>2026-03-31T15:03:30.998Z</time></trkpt><trkpt lat="49.044284972129496" lon="2.5086752947297732"><ele>109.0</ele><time>2026-03-31T15:03:31.998Z</time></trkpt><trkpt lat="49.04435746086133" lon="2.508728108193953"><ele>110.0</ele><time>2026-03-31T15:03:32.998Z</time></trkpt><trkpt lat="49.04442537543357" lon="2.5087799686278425"><ele>111.0</ele><time>2026-03-31T15:03:33.998Z</time></trkpt><trkpt lat="49.04448903438663" lon="2.508826313514483"><ele>111.0</ele><time>2026-03-31T15:03:35Z</time></trkpt><trkpt lat="49.04458846291774" lon="2.5089015070655347"><ele>111.0</ele><time>2026-03-31T15:03:37Z</time></trkpt><trkpt lat="49.04465348277091" lon="2.5089739782037888"><ele>111.0</ele><time>2026-03-31T15:03:39Z</time></trkpt><trkpt lat="49.044751008789326" lon="2.5090508586206117"><ele>111.0</ele><time>2026-03-31T15:03:43Z</time></trkpt><trkpt lat="49.04482282664493" lon="2.5090983603529513"><ele>111.0</ele><time>2026-03-31T15:03:44Z</time></trkpt><trkpt lat="49.04490348779108" lon="2.5091639996999318"><ele>111.33333333333333</ele><time>2026-03-31T15:03:45Z</time></trkpt><trkpt lat="49.04498070347108" lon="2.509230494817766"><ele>111.66666666666666</ele><time>2026-03-31T15:03:46Z</time></trkpt><trkpt lat="49.04507332462348" lon="2.5092885332321018"><ele>112.0</ele><time>2026-03-31T15:03:47Z</time></trkpt><trkpt lat="49.045151989235215" lon="2.509346766101697"><ele>112.33333333333333</ele><time>2026-03-31T15:03:48Z</time></trkpt><trkpt lat="49.04522717768943" lon="2.5094029977619816"><ele>112.66666666666666</ele><time>2026-03-31T15:03:49Z</time></trkpt><trkpt lat="49.04529584753671" lon="2.5094597381214396"><ele>113.0</ele><time>2026-03-31T15:03:50Z</time></trkpt><trkpt lat="49.04535539920899" lon="2.5095122682047495"><ele>112.0</ele><time>2026-03-31T15:03:51Z</time></trkpt><trkpt lat="49.04545642205493" lon="2.5095882909310885"><ele>111.00000000000001</ele><time>2026-03-31T15:03:53Z</time></trkpt><trkpt lat="49.04553723831198" lon="2.5096629142680866"><ele>110.00000000000001</ele><time>2026-03-31T15:03:55Z</time></trkpt><trkpt lat="49.04559845350693" lon="2.509771900052636"><ele>109.0</ele><time>2026-03-31T15:03:57Z</time></trkpt><trkpt lat="49.04566623257925" lon="2.5098080216548375"><ele>108.0</ele><time>2026-03-31T15:03:59Z</time></trkpt><trkpt lat="49.04574459789148" lon="2.509668028363893"><ele>108.33333333333333</ele><time>2026-03-31T15:04:02Z</time></trkpt><trkpt lat="49.04577047376968" lon="2.509574498627111"><ele>108.66666666666666</ele><time>2026-03-31T15:04:04Z</time></trkpt><trkpt lat="49.04581438045427" lon="2.5094928714332565"><ele>109.0</ele><time>2026-03-31T15:04:06Z</time></trkpt><trkpt lat="49.045873909582205" lon="2.50941698688215"><ele>109.33333333333333</ele><time>2026-03-31T15:04:08Z</time></trkpt><trkpt lat="49.04594543544955" lon="2.5093171251495825"><ele>109.66666666666666</ele><time>2026-03-31T15:04:10Z</time></trkpt><trkpt lat="49.04600629180076" lon="2.5092300267484897"><ele>110.0</ele><time>2026-03-31T15:04:11.999Z</time></trkpt><trkpt lat="49.04606846568636" lon="2.509156720172416"><ele>110.0</ele><time>2026-03-31T15:04:13.999Z</time></trkpt><trkpt lat="49.0461330145973" lon="2.509060082248437"><ele>110.0</ele><time>2026-03-31T15:04:15.999Z</time></trkpt><trkpt lat="49.04619831184363" lon="2.5089682793442494"><ele>110.0</ele><time>2026-03-31T15:04:17.999Z</time></trkpt><trkpt lat="49.04626884545782" lon="2.508873093992496"><ele>110.0</ele><time>2026-03-31T15:04:19.999Z</time></trkpt><trkpt lat="49.04635384251551" lon="2.508751586416066"><ele>110.0</ele><time>2026-03-31T15:04:21.999Z</time></trkpt><trkpt lat="49.04640578181254" lon="2.508683212340805"><ele>109.99999999999999</ele><time>2026-03-31T15:04:22.999Z</time></trkpt><trkpt lat="49.046452933796516" lon="2.508618406384437"><ele>110.0</ele><time>2026-03-31T15:04:23.999Z</time></trkpt><trkpt lat="49.04654283202954" lon="2.5084982626821044"><ele>110.0</ele><time>2026-03-31T15:04:25.999Z</time></trkpt><trkpt lat="49.04663140479221" lon="2.5083717247759316"><ele>110.0</ele><time>2026-03-31T15:04:27.999Z</time></trkpt><trkpt lat="49.046681080794535" lon="2.508303352038389"><ele>109.99999999999999</ele><time>2026-03-31T15:04:28.999Z</time></trkpt><trkpt lat="49.0467264605561" lon="2.5082315765847576"><ele>110.0</ele><time>2026-03-31T15:04:29.999Z</time></trkpt><trkpt lat="49.04680497254375" lon="2.508121874430851"><ele>109.99999999999999</ele><time>2026-03-31T15:04:31.999Z</time></trkpt><trkpt lat="49.046869348197355" lon="2.50806462975077"><ele>110.0</ele><time>2026-03-31T15:04:33.999Z</time></trkpt><trkpt lat="49.04691682765736" lon="2.5079985078397957"><ele>110.0</ele><time>2026-03-31T15:04:35.999Z</time></trkpt><trkpt lat="49.046984242224006" lon="2.5079046234086517"><ele>110.0</ele><time>2026-03-31T15:04:38.999Z</time></trkpt><trkpt lat="49.04704546357247" lon="2.5078193635773074"><ele>109.99999999999999</ele><time>2026-03-31T15:04:40.999Z</time></trkpt><trkpt lat="49.047108992187056" lon="2.5077308889573646"><ele>110.0</ele><time>2026-03-31T15:04:42.999Z</time></trkpt><trkpt lat="49.047162213602654" lon="2.5076566890795235"><ele>110.33333333333333</ele><time>2026-03-31T15:04:44.999Z</time></trkpt><trkpt lat="49.04721342053429" lon="2.507585342528023"><ele>110.66666666666666</ele><time>2026-03-31T15:04:47.999Z</time></trkpt><trkpt lat="49.047262457818945" lon="2.507517018973448"><ele>111.0</ele><time>2026-03-31T15:04:50.999Z</time></trkpt><trkpt lat="49.04731541772058" lon="2.5074432300411043"><ele>111.33333333333334</ele><time>2026-03-31T15:04:52.999Z</time></trkpt><trkpt lat="49.04736668614031" lon="2.507344279858473"><ele>111.66666666666667</ele><time>2026-03-31T15:04:55.999Z</time></trkpt><trkpt lat="49.047429199084426" lon="2.5072633265948183"><ele>112.0</ele><time>2026-03-31T15:05:03.999Z</time></trkpt><trkpt lat="49.04751042646301" lon="2.507149052187107"><ele>111.83333333333334</ele><time>2026-03-31T15:05:05.999Z</time></trkpt><trkpt lat="49.04758181722539" lon="2.5070460077579324"><ele>111.66666666666667</ele><time>2026-03-31T15:05:07.999Z</time></trkpt><trkpt lat="49.04764438249302" lon="2.506957060856031"><ele>111.5</ele><time>2026-03-31T15:05:09.998Z</time></trkpt><trkpt lat="49.047705124497995" lon="2.5068772665844885"><ele>111.33333333333334</ele><time>2026-03-31T15:05:12.998Z</time></trkpt><trkpt lat="49.04775519046271" lon="2.5068033346170155"><ele>111.16666666666667</ele><time>2026-03-31T15:05:22.998Z</time></trkpt><trkpt lat="49.047823841586954" lon="2.506737929893285"><ele>111.0</ele><time>2026-03-31T15:06:47.999Z</time></trkpt><trkpt lat="49.04789741970897" lon="2.5066359919325802"><ele>111.0</ele><time>2026-03-31T15:06:49.999Z</time></trkpt><trkpt lat="49.04795272212134" lon="2.5065592213762433"><ele>111.0</ele><time>2026-03-31T15:06:50.999Z</time></trkpt><trkpt lat="49.04799891654937" lon="2.5064666805539657"><ele>111.0</ele><time>2026-03-31T15:06:51.999Z</time></trkpt><trkpt lat="49.048050827911844" lon="2.506395109920149"><ele>111.0</ele><time>2026-03-31T15:06:52.999Z</time></trkpt><trkpt lat="49.04810211833217" lon="2.5063327935152517"><ele>111.0</ele><time>2026-03-31T15:06:53.999Z</time></trkpt><trkpt lat="49.04816088228401" lon="2.5062498860993365"><ele>111.0</ele><time>2026-03-31T15:06:54.999Z</time></trkpt><trkpt lat="49.0482261548683" lon="2.506161600705387"><ele>111.19999999999999</ele><time>2026-03-31T15:06:55.999Z</time></trkpt><trkpt lat="49.04829601043434" lon="2.506068991982555"><ele>111.39999999999999</ele><time>2026-03-31T15:06:56.999Z</time></trkpt><trkpt lat="49.04836269765977" lon="2.50596191016729"><ele>111.6</ele><time>2026-03-31T15:06:57.999Z</time></trkpt><trkpt lat="49.04842991866273" lon="2.5058530663408183"><ele>111.8</ele><time>2026-03-31T15:06:58.999Z</time></trkpt><trkpt lat="49.04850164940356" lon="2.5057368738268404"><ele>112.0</ele><time>2026-03-31T15:06:59.999Z</time></trkpt><trkpt lat="49.048575066134575" lon="2.5056194779820786"><ele>112.0</ele><time>2026-03-31T15:07:00.999Z</time></trkpt><trkpt lat="49.048642337924505" lon="2.505501072547584"><ele>111.99999999999999</ele><time>2026-03-31T15:07:01.999Z</time></trkpt><trkpt lat="49.04870437917792" lon="2.505382083096302"><ele>111.99999999999999</ele><time>2026-03-31T15:07:02.999Z</time></trkpt><trkpt lat="49.04877161009608" lon="2.50526785509478"><ele>112.0</ele><time>2026-03-31T15:07:03.999Z</time></trkpt><trkpt lat="49.048844504335214" lon="2.505153635905702"><ele>112.0</ele><time>2026-03-31T15:07:04.999Z</time></trkpt><trkpt lat="49.04890943995333" lon="2.5050408079744044"><ele>111.8</ele><time>2026-03-31T15:07:05.999Z</time></trkpt><trkpt lat="49.04897982941625" lon="2.504924435633559"><ele>111.6</ele><time>2026-03-31T15:07:06.999Z</time></trkpt><trkpt lat="49.049046503381675" lon="2.504808270587936"><ele>111.39999999999999</ele><time>2026-03-31T15:07:07.999Z</time></trkpt><trkpt lat="49.04911476620642" lon="2.5046935089160405"><ele>111.19999999999999</ele><time>2026-03-31T15:07:08.999Z</time></trkpt><trkpt lat="49.049179990705305" lon="2.504576296243893"><ele>111.0</ele><time>2026-03-31T15:07:09.999Z</time></trkpt><trkpt lat="49.04924066999209" lon="2.5044543732573508"><ele>109.8</ele><time>2026-03-31T15:07:10.999Z</time></trkpt><trkpt lat="49.04930538884912" lon="2.504334813106343"><ele>108.6</ele><time>2026-03-31T15:07:11.999Z</time></trkpt><trkpt lat="49.049377861556366" lon="2.5042288391331553"><ele>107.4</ele><time>2026-03-31T15:07:12.999Z</time></trkpt><trkpt lat="49.04944383868484" lon="2.5041193670160955"><ele>106.2</ele><time>2026-03-31T15:07:13.999Z</time></trkpt><trkpt lat="49.049508131710155" lon="2.5040079076319346"><ele>105.0</ele><time>2026-03-31T15:07:14.999Z</time></trkpt><trkpt lat="49.049564805157395" lon="2.5039116886084236"><ele>105.0</ele><time>2026-03-31T15:07:15.999Z</time></trkpt><trkpt lat="49.049618265997076" lon="2.503812496952953"><ele>105.0</ele><time>2026-03-31T15:07:16.999Z</time></trkpt><trkpt lat="49.04967055759462" lon="2.5037205994819245"><ele>105.0</ele><time>2026-03-31T15:07:17.999Z</time></trkpt><trkpt lat="49.049739968715485" lon="2.503598170943923"><ele>105.0</ele><time>2026-03-31T15:07:19.999Z</time></trkpt><trkpt lat="49.04982534004351" lon="2.503443264742444"><ele>105.0</ele><time>2026-03-31T15:07:21.998Z</time></trkpt><trkpt lat="49.04987725379307" lon="2.5033544877685743"><ele>104.33333333333333</ele><time>2026-03-31T15:07:22.998Z</time></trkpt><trkpt lat="49.04993780768899" lon="2.5032584738740287"><ele>103.66666666666666</ele><time>2026-03-31T15:07:23.998Z</time></trkpt><trkpt lat="49.04999887577718" lon="2.5031589079017267"><ele>103.0</ele><time>2026-03-31T15:07:24.998Z</time></trkpt><trkpt lat="49.050055808284796" lon="2.503061212462689"><ele>102.33333333333333</ele><time>2026-03-31T15:07:25.998Z</time></trkpt><trkpt lat="49.0501114431216" lon="2.5029666932983945"><ele>101.66666666666666</ele><time>2026-03-31T15:07:26.998Z</time></trkpt><trkpt lat="49.05016090350321" lon="2.502887508113199"><ele>101.0</ele><time>2026-03-31T15:07:27.998Z</time></trkpt><trkpt lat="49.05021039018002" lon="2.502807247974222"><ele>100.99999999999999</ele><time>2026-03-31T15:07:28.998Z</time></trkpt><trkpt lat="49.050277200249624" lon="2.5027353233803886"><ele>101.0</ele><time>2026-03-31T15:07:29.998Z</time></trkpt><trkpt lat="49.050348011827005" lon="2.50267359525199"><ele>101.0</ele><time>2026-03-31T15:07:30.998Z</time></trkpt><trkpt lat="49.05041595478781" lon="2.5026374938907874"><ele>101.0</ele><time>2026-03-31T15:07:31.998Z</time></trkpt><trkpt lat="49.050482231084736" lon="2.5026070287771662"><ele>100.99999999999999</ele><time>2026-03-31T15:07:32.998Z</time></trkpt><trkpt lat="49.05054623210677" lon="2.50258825609438"><ele>101.0</ele><time>2026-03-31T15:07:33.998Z</time></trkpt><trkpt lat="49.050658325322345" lon="2.502561322818481"><ele>101.0</ele><time>2026-03-31T15:07:35.998Z</time></trkpt><trkpt lat="49.050740283781124" lon="2.5025353950881555"><ele>101.0</ele><time>2026-03-31T15:07:37.998Z</time></trkpt><trkpt lat="49.0508395006162" lon="2.5025345003223736"><ele>101.0</ele><time>2026-03-31T15:08:11Z</time></trkpt><trkpt lat="49.05092960535938" lon="2.5024936611092827"><ele>101.0</ele><time>2026-03-31T15:08:13Z</time></trkpt><trkpt lat="49.051037024801296" lon="2.5024827900304936"><ele>101.0</ele><time>2026-03-31T15:08:15Z</time></trkpt><trkpt lat="49.05115501501983" lon="2.5024506705411276"><ele>100.99999999999999</ele><time>2026-03-31T15:08:17Z</time></trkpt><trkpt lat="49.051247516939135" lon="2.5024229172101458"><ele>101.0</ele><time>2026-03-31T15:08:19Z</time></trkpt><trkpt lat="49.051333129338886" lon="2.502394094137915"><ele>101.0</ele><time>2026-03-31T15:08:21Z</time></trkpt><trkpt lat="49.05141738796847" lon="2.502362407753233"><ele>101.0</ele><time>2026-03-31T15:08:23Z</time></trkpt><trkpt lat="49.051507114375" lon="2.5023277344564474"><ele>100.99999999999999</ele><time>2026-03-31T15:08:25Z</time></trkpt><trkpt lat="49.0515899448109" lon="2.5022954198385254"><ele>101.0</ele><time>2026-03-31T15:08:26.999Z</time></trkpt><trkpt lat="49.0516739131205" lon="2.5022642388458722"><ele>101.6</ele><time>2026-03-31T15:08:28.999Z</time></trkpt><trkpt lat="49.05176726543573" lon="2.502214566164667"><ele>102.19999999999999</ele><time>2026-03-31T15:08:30.999Z</time></trkpt><trkpt lat="49.05187707551079" lon="2.502201798135622"><ele>102.80000000000001</ele><time>2026-03-31T15:08:32.999Z</time></trkpt><trkpt lat="49.05195406731789" lon="2.5021585163331213"><ele>103.4</ele><time>2026-03-31T15:08:34.999Z</time></trkpt><trkpt lat="49.05205483045047" lon="2.502133490735381"><ele>104.0</ele><time>2026-03-31T15:08:36.999Z</time></trkpt><trkpt lat="49.05215688323341" lon="2.5021231380107203"><ele>104.0</ele><time>2026-03-31T15:08:38.999Z</time></trkpt><trkpt lat="49.0522499748031" lon="2.5020978510335348"><ele>104.0</ele><time>2026-03-31T15:08:40.999Z</time></trkpt><trkpt lat="49.05234939683316" lon="2.502069593934699"><ele>104.0</ele><time>2026-03-31T15:08:42.999Z</time></trkpt><trkpt lat="49.05245528420045" lon="2.5020398169033258"><ele>104.0</ele><time>2026-03-31T15:08:44.999Z</time></trkpt><trkpt lat="49.05255681546156" lon="2.50201029262466"><ele>104.0</ele><time>2026-03-31T15:08:46.999Z</time></trkpt><trkpt lat="49.0526624452676" lon="2.5019733027834063"><ele>105.2</ele><time>2026-03-31T15:08:48.999Z</time></trkpt><trkpt lat="49.05275829514534" lon="2.5019081542447763"><ele>106.4</ele><time>2026-03-31T15:08:50.999Z</time></trkpt><trkpt lat="49.05286807932085" lon="2.501854494894583"><ele>107.6</ele><time>2026-03-31T15:08:52.999Z</time></trkpt><trkpt lat="49.05296799838876" lon="2.5018694687508503"><ele>108.8</ele><time>2026-03-31T15:08:54.999Z</time></trkpt><trkpt lat="49.05304129553375" lon="2.5018173997520066"><ele>110.0</ele><time>2026-03-31T15:08:56.999Z</time></trkpt><trkpt lat="49.053109602569535" lon="2.5018448104503137"><ele>109.99999999999999</ele><time>2026-03-31T15:08:58.999Z</time></trkpt><trkpt lat="49.05318310039" lon="2.50184205575216"><ele>110.0</ele><time>2026-03-31T15:09:00.999Z</time></trkpt><trkpt lat="49.053264861616036" lon="2.5018311271216844"><ele>110.0</ele><time>2026-03-31T15:09:03.999Z</time></trkpt><trkpt lat="49.05335846669206" lon="2.501801995250568"><ele>110.0</ele><time>2026-03-31T15:09:13.999Z</time></trkpt><trkpt lat="49.05344098787619" lon="2.5017783260657724"><ele>109.99999999999999</ele><time>2026-03-31T15:09:16.999Z</time></trkpt><trkpt lat="49.05351165690206" lon="2.5017580563544413"><ele>110.0</ele><time>2026-03-31T15:09:25.998Z</time></trkpt><trkpt lat="49.05357453688079" lon="2.501740020416955"><ele>110.6</ele><time>2026-03-31T15:09:30.998Z</time></trkpt><trkpt lat="49.05367717570833" lon="2.5017128943418707"><ele>111.2</ele><time>2026-03-31T15:09:32.998Z</time></trkpt><trkpt lat="49.053802766486" lon="2.501677794063265"><ele>111.80000000000001</ele><time>2026-03-31T15:09:34.998Z</time></trkpt><trkpt lat="49.053876082404635" lon="2.5016570707316936"><ele>112.4</ele><time>2026-03-31T15:09:35.998Z</time></trkpt><trkpt lat="49.053956241098106" lon="2.501634413222892"><ele>113.0</ele><time>2026-03-31T15:09:36.998Z</time></trkpt><trkpt lat="49.05403619498522" lon="2.5016115933926306"><ele>113.0</ele><time>2026-03-31T15:09:37.998Z</time></trkpt><trkpt lat="49.05410639356597" lon="2.501590746187856"><ele>113.0</ele><time>2026-03-31T15:09:38.998Z</time></trkpt><trkpt lat="49.054172367450676" lon="2.5015711535984386"><ele>113.0</ele><time>2026-03-31T15:09:39.998Z</time></trkpt><trkpt lat="49.05423454389653" lon="2.501532001943429"><ele>113.0</ele><time>2026-03-31T15:09:40.998Z</time></trkpt><trkpt lat="49.05430355892449" lon="2.5015144754722187"><ele>113.0</ele><time>2026-03-31T15:09:41.998Z</time></trkpt><trkpt lat="49.05437113960244" lon="2.5014983260432655"><ele>113.0</ele><time>2026-03-31T15:09:42.998Z</time></trkpt><trkpt lat="49.05444322803915" lon="2.501479512206952"><ele>113.0</ele><time>2026-03-31T15:09:43.998Z</time></trkpt><trkpt lat="49.054516823828145" lon="2.5014543686398745"><ele>113.83333333333333</ele><time>2026-03-31T15:09:44.998Z</time></trkpt><trkpt lat="49.054590449546446" lon="2.5014343264508017"><ele>114.66666666666666</ele><time>2026-03-31T15:09:45.998Z</time></trkpt><trkpt lat="49.05465828316865" lon="2.501424756973456"><ele>115.5</ele><time>2026-03-31T15:09:46.998Z</time></trkpt><trkpt lat="49.05472151316034" lon="2.5014059095727035"><ele>116.33333333333334</ele><time>2026-03-31T15:09:47.998Z</time></trkpt><trkpt lat="49.05483797375465" lon="2.5013755298060856"><ele>117.16666666666667</ele><time>2026-03-31T15:09:49.998Z</time></trkpt><trkpt lat="49.05493945078326" lon="2.501342988906367"><ele>118.0</ele><time>2026-03-31T15:09:51.998Z</time></trkpt><trkpt lat="49.0550216567781" lon="2.5013227385676595"><ele>118.4</ele><time>2026-03-31T15:09:54Z</time></trkpt><trkpt lat="49.055109009985635" lon="2.5012931975983896"><ele>118.80000000000001</ele><time>2026-03-31T15:09:56Z</time></trkpt><trkpt lat="49.055205675158035" lon="2.5012675554786403"><ele>119.2</ele><time>2026-03-31T15:09:58Z</time></trkpt><trkpt lat="49.05530702257593" lon="2.501247133569021"><ele>119.6</ele><time>2026-03-31T15:10:00Z</time></trkpt><trkpt lat="49.05540893980702" lon="2.5012224200473065"><ele>120.0</ele><time>2026-03-31T15:10:02Z</time></trkpt><trkpt lat="49.055508236660685" lon="2.5011926594209255"><ele>120.0</ele><time>2026-03-31T15:10:04Z</time></trkpt><trkpt lat="49.05560936036855" lon="2.5011695694110228"><ele>120.0</ele><time>2026-03-31T15:10:06Z</time></trkpt><trkpt lat="49.055707325114945" lon="2.5011398088314394"><ele>120.0</ele><time>2026-03-31T15:10:08Z</time></trkpt><trkpt lat="49.055807691341684" lon="2.5011073436101565"><ele>120.0</ele><time>2026-03-31T15:10:10Z</time></trkpt><trkpt lat="49.05591057554772" lon="2.5010835834798892"><ele>120.0</ele><time>2026-03-31T15:10:12Z</time></trkpt><trkpt lat="49.055973545044154" lon="2.501067662827823"><ele>119.6</ele><time>2026-03-31T15:10:13Z</time></trkpt><trkpt lat="49.05603818510662" lon="2.501046092212404"><ele>119.2</ele><time>2026-03-31T15:10:14Z</time></trkpt><trkpt lat="49.05615653320214" lon="2.5010340146808185"><ele>118.80000000000001</ele><time>2026-03-31T15:10:16Z</time></trkpt><trkpt lat="49.05626078683914" lon="2.5010057903238043"><ele>118.4</ele><time>2026-03-31T15:10:18Z</time></trkpt><trkpt lat="49.05635524492456" lon="2.500980198234194"><ele>118.0</ele><time>2026-03-31T15:10:20Z</time></trkpt><trkpt lat="49.0564670878257" lon="2.500949895827716"><ele>118.0</ele><time>2026-03-31T15:10:22Z</time></trkpt><trkpt lat="49.05653292062632" lon="2.500932059074367"><ele>118.0</ele><time>2026-03-31T15:10:23Z</time></trkpt><trkpt lat="49.05660836530384" lon="2.500879903796615"><ele>118.0</ele><time>2026-03-31T15:10:24Z</time></trkpt><trkpt lat="49.0566877570607" lon="2.5008581291431993"><ele>118.0</ele><time>2026-03-31T15:10:25Z</time></trkpt><trkpt lat="49.05676021972482" lon="2.5008382211366835"><ele>118.0</ele><time>2026-03-31T15:10:26Z</time></trkpt><trkpt lat="49.05682829662639" lon="2.5008207384748506"><ele>118.0</ele><time>2026-03-31T15:10:27Z</time></trkpt><trkpt lat="49.056892953531126" lon="2.500805299651146"><ele>118.0</ele><time>2026-03-31T15:10:28Z</time></trkpt><trkpt lat="49.0569553118638" lon="2.5007885459248884"><ele>117.50000000000001</ele><time>2026-03-31T15:10:29Z</time></trkpt><trkpt lat="49.05701977304992" lon="2.5007697766737595"><ele>117.0</ele><time>2026-03-31T15:10:30Z</time></trkpt><trkpt lat="49.05708302833854" lon="2.500750660220046"><ele>116.5</ele><time>2026-03-31T15:10:31Z</time></trkpt><trkpt lat="49.057145889807906" lon="2.5007314968172243"><ele>116.0</ele><time>2026-03-31T15:10:32Z</time></trkpt><trkpt lat="49.05725285794556" lon="2.50070722650929"><ele>115.50000000000001</ele><time>2026-03-31T15:10:34Z</time></trkpt><trkpt lat="49.05734428257771" lon="2.5007070264653275"><ele>115.0</ele><time>2026-03-31T15:10:35.999Z</time></trkpt><trkpt lat="49.05744253925102" lon="2.500750261175833"><ele>114.8</ele><time>2026-03-31T15:10:37.999Z</time></trkpt><trkpt lat="49.05752659666451" lon="2.500818142648937"><ele>114.6</ele><time>2026-03-31T15:10:39.999Z</time></trkpt><trkpt lat="49.057619649033846" lon="2.500901959314089"><ele>114.4</ele><time>2026-03-31T15:10:41.999Z</time></trkpt><trkpt lat="49.057665010945584" lon="2.5010366507355624"><ele>114.2</ele><time>2026-03-31T15:10:43.999Z</time></trkpt><trkpt lat="49.05769169789513" lon="2.501187084016318"><ele>114.0</ele><time>2026-03-31T15:10:45.999Z</time></trkpt><trkpt lat="49.05771439596284" lon="2.501340051023313"><ele>114.0</ele><time>2026-03-31T15:10:47.999Z</time></trkpt><trkpt lat="49.0577744760769" lon="2.5014428011226815"><ele>114.0</ele><time>2026-03-31T15:10:49.999Z</time></trkpt><trkpt lat="49.0578502351504" lon="2.5015430867965502"><ele>114.0</ele><time>2026-03-31T15:10:51.999Z</time></trkpt><trkpt lat="49.057964162698035" lon="2.5016941013801803"><ele>114.0</ele><time>2026-03-31T15:10:53.999Z</time></trkpt><trkpt lat="49.05804747600396" lon="2.501751875976483"><ele>114.0</ele><time>2026-03-31T15:10:54.999Z</time></trkpt><trkpt lat="49.05811367325577" lon="2.5018261376115114"><ele>114.0</ele><time>2026-03-31T15:10:55.999Z</time></trkpt><trkpt lat="49.058174401087065" lon="2.501889450727759"><ele>114.0</ele><time>2026-03-31T15:10:56.999Z</time></trkpt><trkpt lat="49.05823254386318" lon="2.5019494550457346"><ele>114.0</ele><time>2026-03-31T15:10:57.999Z</time></trkpt><trkpt lat="49.05830933960122" lon="2.5020272401270662"><ele>114.0</ele><time>2026-03-31T15:10:59.999Z</time></trkpt><trkpt lat="49.058397617470064" lon="2.5021273384785983"><ele>114.0</ele><time>2026-03-31T15:11:01.999Z</time></trkpt><trkpt lat="49.05846852731871" lon="2.5021997283871964"><ele>114.0</ele><time>2026-03-31T15:11:02.999Z</time></trkpt><trkpt lat="49.058550820963596" lon="2.502292104547283"><ele>114.2</ele><time>2026-03-31T15:11:03.999Z</time></trkpt><trkpt lat="49.058640283141045" lon="2.502383530388524"><ele>114.4</ele><time>2026-03-31T15:11:04.999Z</time></trkpt><trkpt lat="49.05872865048814" lon="2.502474976054707"><ele>114.6</ele><time>2026-03-31T15:11:05.999Z</time></trkpt><trkpt lat="49.058804875000845" lon="2.5025831531306917"><ele>114.8</ele><time>2026-03-31T15:11:06.999Z</time></trkpt><trkpt lat="49.058888599843" lon="2.502641846925811"><ele>115.0</ele><time>2026-03-31T15:11:07.999Z</time></trkpt><trkpt lat="49.05895839803067" lon="2.502725629685282"><ele>115.0</ele><time>2026-03-31T15:11:08.999Z</time></trkpt><trkpt lat="49.05903200880486" lon="2.502805794213672"><ele>115.0</ele><time>2026-03-31T15:11:09.999Z</time></trkpt><trkpt lat="49.059109394117634" lon="2.502882779289048"><ele>115.0</ele><time>2026-03-31T15:11:10.999Z</time></trkpt><trkpt lat="49.059177487843556" lon="2.5029550958323545"><ele>115.0</ele><time>2026-03-31T15:11:11.999Z</time></trkpt><trkpt lat="49.0592696502378" lon="2.5030472787358997"><ele>115.0</ele><time>2026-03-31T15:11:13.999Z</time></trkpt><trkpt lat="49.059356279147515" lon="2.5031245074459894"><ele>115.0</ele><time>2026-03-31T15:11:15.999Z</time></trkpt><trkpt lat="49.05945790220342" lon="2.5031837165170616"><ele>115.0</ele><time>2026-03-31T15:11:17.999Z</time></trkpt><trkpt lat="49.05952675333916" lon="2.503275502639805"><ele>115.0</ele><time>2026-03-31T15:11:19.999Z</time></trkpt><trkpt lat="49.059572111073194" lon="2.503415393820616"><ele>115.0</ele><time>2026-03-31T15:11:21.999Z</time></trkpt><trkpt lat="49.05958214507333" lon="2.5035826721173926"><ele>115.0</ele><time>2026-03-31T15:11:23.999Z</time></trkpt><trkpt lat="49.05958968897854" lon="2.5037477059227506"><ele>115.00000000000001</ele><time>2026-03-31T15:11:25.999Z</time></trkpt><trkpt lat="49.05959617056756" lon="2.503875868056193"><ele>115.0</ele><time>2026-03-31T15:11:27.999Z</time></trkpt><trkpt lat="49.05967479054797" lon="2.503903070805683"><ele>115.0</ele><time>2026-03-31T15:11:28.999Z</time></trkpt><trkpt lat="49.05978706710942" lon="2.5039129612720616"><ele>115.0</ele><time>2026-03-31T15:11:30.999Z</time></trkpt><trkpt lat="49.05985100750828" lon="2.5039191332747683"><ele>115.00000000000001</ele><time>2026-03-31T15:11:31.999Z</time></trkpt><trkpt lat="49.059917514652945" lon="2.5039210830296867"><ele>115.0</ele><time>2026-03-31T15:11:32.999Z</time></trkpt><trkpt lat="49.05999346313403" lon="2.503920859374"><ele>115.4</ele><time>2026-03-31T15:11:33.998Z</time></trkpt><trkpt lat="49.060064656814134" lon="2.5039260617103567"><ele>115.8</ele><time>2026-03-31T15:11:34.998Z</time></trkpt><trkpt lat="49.06017719189064" lon="2.5039575797787963"><ele>116.19999999999999</ele><time>2026-03-31T15:11:36.998Z</time></trkpt><trkpt lat="49.06023672999076" lon="2.504038382652988"><ele>116.6</ele><time>2026-03-31T15:11:38.998Z</time></trkpt><trkpt lat="49.06030287760276" lon="2.504155984788208"><ele>117.0</ele><time>2026-03-31T15:11:40.998Z</time></trkpt><trkpt lat="49.06036378534881" lon="2.5042648455750514"><ele>117.0</ele><time>2026-03-31T15:11:42.998Z</time></trkpt><trkpt lat="49.06042045638353" lon="2.5043642281015983"><ele>116.99999999999999</ele><time>2026-03-31T15:11:44.998Z</time></trkpt><trkpt lat="49.060505761562084" lon="2.5044574400782444"><ele>116.99999999999999</ele><time>2026-03-31T15:11:46.998Z</time></trkpt><trkpt lat="49.060566186438145" lon="2.504576900249938"><ele>117.0</ele><time>2026-03-31T15:11:48.998Z</time></trkpt><trkpt lat="49.06062812911923" lon="2.504696753002173"><ele>117.0</ele><time>2026-03-31T15:11:50.998Z</time></trkpt><trkpt lat="49.06066348543815" lon="2.504838582443685"><ele>118.0</ele><time>2026-03-31T15:11:52.998Z</time></trkpt><trkpt lat="49.06069207448138" lon="2.504972829406882"><ele>118.0</ele><time>2026-03-31T15:11:54.998Z</time></trkpt><trkpt lat="49.060707707712446" lon="2.505081150292528"><ele>118.0</ele><time>2026-03-31T15:11:57.998Z</time></trkpt></trkseg></trk></gpx>